<?xml version="1.0" encoding="UTF-8" standalone="no" ?>
<gpx xmlns="http://www.topografix.com/GPX/1/1" xmlns:xsi="http://www.w3.org/2001/XMLSchema-instance" xsi:schemaLocation="http://www.topografix.com/GPX/1/1 http://www.topografix.com/GPX/1/1/gpx.xsd" version="1.1" creator="VisuGPX - https://www.visugpx.com">
  <metadata>
    <name>2010-83-CD-Tour du Brouis depuis Bargème</name>
    <desc><![CDATA[Tour du Brouis depuis Bargème
 dimanche 05 septembre 2010 09:26 Noel Dev]]></desc>
  </metadata>
  <trk>
    <name><![CDATA[TOUR DU BROUIS Noel Dev]]></name>
    <trkseg>
      <trkpt lat="43.73004" lon="6.57101">
        <ele>1065</ele>
        <time>2010-09-05T07:26:42Z</time>
      </trkpt>
      <trkpt lat="43.73004" lon="6.57101">
        <ele>1061</ele>
        <time>2010-09-05T07:26:46Z</time>
      </trkpt>
      <trkpt lat="43.73004" lon="6.57101">
        <ele>1064</ele>
        <time>2010-09-05T07:26:47Z</time>
      </trkpt>
      <trkpt lat="43.73004" lon="6.57101">
        <ele>1060</ele>
        <time>2010-09-05T07:27:02Z</time>
      </trkpt>
      <trkpt lat="43.73004" lon="6.57101">
        <ele>1063</ele>
        <time>2010-09-05T07:27:03Z</time>
      </trkpt>
      <trkpt lat="43.73003" lon="6.57102">
        <ele>1064</ele>
        <time>2010-09-05T07:27:57Z</time>
      </trkpt>
      <trkpt lat="43.73001" lon="6.571">
        <ele>1064</ele>
        <time>2010-09-05T07:28:25Z</time>
      </trkpt>
      <trkpt lat="43.72997" lon="6.57103">
        <ele>1063</ele>
        <time>2010-09-05T07:28:36Z</time>
      </trkpt>
      <trkpt lat="43.72997" lon="6.57102">
        <ele>1063</ele>
        <time>2010-09-05T07:28:44Z</time>
      </trkpt>
      <trkpt lat="43.73" lon="6.57101">
        <ele>1064</ele>
        <time>2010-09-05T07:28:59Z</time>
      </trkpt>
      <trkpt lat="43.73003" lon="6.57095">
        <ele>1065</ele>
        <time>2010-09-05T07:29:15Z</time>
      </trkpt>
      <trkpt lat="43.73003" lon="6.57095">
        <ele>1064</ele>
        <time>2010-09-05T07:29:17Z</time>
      </trkpt>
      <trkpt lat="43.72999" lon="6.57099">
        <ele>1064</ele>
        <time>2010-09-05T07:29:29Z</time>
      </trkpt>
      <trkpt lat="43.73" lon="6.571">
        <ele>1064</ele>
        <time>2010-09-05T07:31:23Z</time>
      </trkpt>
      <trkpt lat="43.73003" lon="6.57092">
        <ele>1065</ele>
        <time>2010-09-05T07:31:48Z</time>
      </trkpt>
      <trkpt lat="43.73005" lon="6.57089">
        <ele>1065</ele>
        <time>2010-09-05T07:31:52Z</time>
      </trkpt>
      <trkpt lat="43.73009" lon="6.5708">
        <ele>1065</ele>
        <time>2010-09-05T07:32:02Z</time>
      </trkpt>
      <trkpt lat="43.73011" lon="6.57072">
        <ele>1065</ele>
        <time>2010-09-05T07:32:14Z</time>
      </trkpt>
      <trkpt lat="43.73012" lon="6.57064">
        <ele>1065</ele>
        <time>2010-09-05T07:32:25Z</time>
      </trkpt>
      <trkpt lat="43.73016" lon="6.57052">
        <ele>1066</ele>
        <time>2010-09-05T07:32:35Z</time>
      </trkpt>
      <trkpt lat="43.73016" lon="6.57052">
        <ele>1067</ele>
        <time>2010-09-05T07:32:37Z</time>
      </trkpt>
      <trkpt lat="43.73023" lon="6.57039">
        <ele>1066</ele>
        <time>2010-09-05T07:32:49Z</time>
      </trkpt>
      <trkpt lat="43.73026" lon="6.57032">
        <ele>1066</ele>
        <time>2010-09-05T07:32:54Z</time>
      </trkpt>
      <trkpt lat="43.73029" lon="6.57019">
        <ele>1067</ele>
        <time>2010-09-05T07:33:05Z</time>
      </trkpt>
      <trkpt lat="43.73036" lon="6.57005">
        <ele>1067</ele>
        <time>2010-09-05T07:33:17Z</time>
      </trkpt>
      <trkpt lat="43.73043" lon="6.56992">
        <ele>1067</ele>
        <time>2010-09-05T07:33:29Z</time>
      </trkpt>
      <trkpt lat="43.73051" lon="6.56976">
        <ele>1068</ele>
        <time>2010-09-05T07:33:42Z</time>
      </trkpt>
      <trkpt lat="43.73052" lon="6.56974">
        <ele>1068</ele>
        <time>2010-09-05T07:33:44Z</time>
      </trkpt>
      <trkpt lat="43.73058" lon="6.56965">
        <ele>1067</ele>
        <time>2010-09-05T07:33:52Z</time>
      </trkpt>
      <trkpt lat="43.73067" lon="6.56951">
        <ele>1068</ele>
        <time>2010-09-05T07:34:03Z</time>
      </trkpt>
      <trkpt lat="43.73069" lon="6.56946">
        <ele>1068</ele>
        <time>2010-09-05T07:34:08Z</time>
      </trkpt>
      <trkpt lat="43.73077" lon="6.56934">
        <ele>1069</ele>
        <time>2010-09-05T07:34:18Z</time>
      </trkpt>
      <trkpt lat="43.73081" lon="6.56926">
        <ele>1069</ele>
        <time>2010-09-05T07:34:25Z</time>
      </trkpt>
      <trkpt lat="43.73089" lon="6.56912">
        <ele>1068</ele>
        <time>2010-09-05T07:34:36Z</time>
      </trkpt>
      <trkpt lat="43.73097" lon="6.56899">
        <ele>1068</ele>
        <time>2010-09-05T07:34:46Z</time>
      </trkpt>
      <trkpt lat="43.73105" lon="6.56887">
        <ele>1068</ele>
        <time>2010-09-05T07:34:56Z</time>
      </trkpt>
      <trkpt lat="43.73113" lon="6.56876">
        <ele>1068</ele>
        <time>2010-09-05T07:35:06Z</time>
      </trkpt>
      <trkpt lat="43.7312" lon="6.56864">
        <ele>1068</ele>
        <time>2010-09-05T07:35:16Z</time>
      </trkpt>
      <trkpt lat="43.73127" lon="6.56852">
        <ele>1069</ele>
        <time>2010-09-05T07:35:26Z</time>
      </trkpt>
      <trkpt lat="43.73129" lon="6.56849">
        <ele>1070</ele>
        <time>2010-09-05T07:35:28Z</time>
      </trkpt>
      <trkpt lat="43.73135" lon="6.56839">
        <ele>1071</ele>
        <time>2010-09-05T07:35:38Z</time>
      </trkpt>
      <trkpt lat="43.73142" lon="6.56829">
        <ele>1072</ele>
        <time>2010-09-05T07:35:49Z</time>
      </trkpt>
      <trkpt lat="43.73145" lon="6.56833">
        <ele>1073</ele>
        <time>2010-09-05T07:35:58Z</time>
      </trkpt>
      <trkpt lat="43.73147" lon="6.56838">
        <ele>1075</ele>
        <time>2010-09-05T07:36:08Z</time>
      </trkpt>
      <trkpt lat="43.73148" lon="6.56839">
        <ele>1070</ele>
        <time>2010-09-05T07:36:09Z</time>
      </trkpt>
      <trkpt lat="43.73148" lon="6.56839">
        <ele>1076</ele>
        <time>2010-09-05T07:36:10Z</time>
      </trkpt>
      <trkpt lat="43.73148" lon="6.5684">
        <ele>1076</ele>
        <time>2010-09-05T07:36:11Z</time>
      </trkpt>
      <trkpt lat="43.73151" lon="6.56843">
        <ele>1076</ele>
        <time>2010-09-05T07:36:25Z</time>
      </trkpt>
      <trkpt lat="43.73155" lon="6.56845">
        <ele>1076</ele>
        <time>2010-09-05T07:36:34Z</time>
      </trkpt>
      <trkpt lat="43.73162" lon="6.56848">
        <ele>1077</ele>
        <time>2010-09-05T07:36:43Z</time>
      </trkpt>
      <trkpt lat="43.73169" lon="6.56849">
        <ele>1079</ele>
        <time>2010-09-05T07:36:51Z</time>
      </trkpt>
      <trkpt lat="43.73182" lon="6.56844">
        <ele>1079</ele>
        <time>2010-09-05T07:37:03Z</time>
      </trkpt>
      <trkpt lat="43.73188" lon="6.56841">
        <ele>1079</ele>
        <time>2010-09-05T07:37:09Z</time>
      </trkpt>
      <trkpt lat="43.73193" lon="6.5684">
        <ele>1079</ele>
        <time>2010-09-05T07:37:15Z</time>
      </trkpt>
      <trkpt lat="43.73201" lon="6.56838">
        <ele>1078</ele>
        <time>2010-09-05T07:37:25Z</time>
      </trkpt>
      <trkpt lat="43.73205" lon="6.56839">
        <ele>1079</ele>
        <time>2010-09-05T07:37:28Z</time>
      </trkpt>
      <trkpt lat="43.73221" lon="6.56832">
        <ele>1078</ele>
        <time>2010-09-05T07:37:42Z</time>
      </trkpt>
      <trkpt lat="43.73234" lon="6.56831">
        <ele>1078</ele>
        <time>2010-09-05T07:37:54Z</time>
      </trkpt>
      <trkpt lat="43.7325" lon="6.5683">
        <ele>1077</ele>
        <time>2010-09-05T07:38:07Z</time>
      </trkpt>
      <trkpt lat="43.73252" lon="6.5683">
        <ele>1077</ele>
        <time>2010-09-05T07:38:09Z</time>
      </trkpt>
      <trkpt lat="43.73263" lon="6.56828">
        <ele>1076</ele>
        <time>2010-09-05T07:38:19Z</time>
      </trkpt>
      <trkpt lat="43.73275" lon="6.56829">
        <ele>1074</ele>
        <time>2010-09-05T07:38:29Z</time>
      </trkpt>
      <trkpt lat="43.73286" lon="6.56828">
        <ele>1074</ele>
        <time>2010-09-05T07:38:39Z</time>
      </trkpt>
      <trkpt lat="43.73297" lon="6.56828">
        <ele>1072</ele>
        <time>2010-09-05T07:38:49Z</time>
      </trkpt>
      <trkpt lat="43.73303" lon="6.56829">
        <ele>1072</ele>
        <time>2010-09-05T07:38:58Z</time>
      </trkpt>
      <trkpt lat="43.73314" lon="6.56827">
        <ele>1072</ele>
        <time>2010-09-05T07:39:08Z</time>
      </trkpt>
      <trkpt lat="43.73325" lon="6.56827">
        <ele>1072</ele>
        <time>2010-09-05T07:39:19Z</time>
      </trkpt>
      <trkpt lat="43.73328" lon="6.56828">
        <ele>1072</ele>
        <time>2010-09-05T07:39:22Z</time>
      </trkpt>
      <trkpt lat="43.73339" lon="6.56832">
        <ele>1072</ele>
        <time>2010-09-05T07:39:33Z</time>
      </trkpt>
      <trkpt lat="43.73349" lon="6.56834">
        <ele>1072</ele>
        <time>2010-09-05T07:39:45Z</time>
      </trkpt>
      <trkpt lat="43.73357" lon="6.56838">
        <ele>1072</ele>
        <time>2010-09-05T07:39:53Z</time>
      </trkpt>
      <trkpt lat="43.73362" lon="6.56842">
        <ele>1071</ele>
        <time>2010-09-05T07:39:58Z</time>
      </trkpt>
      <trkpt lat="43.73368" lon="6.56844">
        <ele>1071</ele>
        <time>2010-09-05T07:40:02Z</time>
      </trkpt>
      <trkpt lat="43.73384" lon="6.56844">
        <ele>1070</ele>
        <time>2010-09-05T07:40:14Z</time>
      </trkpt>
      <trkpt lat="43.73396" lon="6.56838">
        <ele>1070</ele>
        <time>2010-09-05T07:40:25Z</time>
      </trkpt>
      <trkpt lat="43.73406" lon="6.56833">
        <ele>1071</ele>
        <time>2010-09-05T07:40:34Z</time>
      </trkpt>
      <trkpt lat="43.73414" lon="6.56827">
        <ele>1071</ele>
        <time>2010-09-05T07:40:43Z</time>
      </trkpt>
      <trkpt lat="43.73416" lon="6.56826">
        <ele>1072</ele>
        <time>2010-09-05T07:40:45Z</time>
      </trkpt>
      <trkpt lat="43.7343" lon="6.5682">
        <ele>1072</ele>
        <time>2010-09-05T07:40:57Z</time>
      </trkpt>
      <trkpt lat="43.73437" lon="6.56815">
        <ele>1071</ele>
        <time>2010-09-05T07:41:04Z</time>
      </trkpt>
      <trkpt lat="43.73447" lon="6.5681">
        <ele>1071</ele>
        <time>2010-09-05T07:41:16Z</time>
      </trkpt>
      <trkpt lat="43.73451" lon="6.56819">
        <ele>1072</ele>
        <time>2010-09-05T07:41:27Z</time>
      </trkpt>
      <trkpt lat="43.73449" lon="6.56826">
        <ele>1072</ele>
        <time>2010-09-05T07:41:35Z</time>
      </trkpt>
      <trkpt lat="43.73444" lon="6.5684">
        <ele>1073</ele>
        <time>2010-09-05T07:41:45Z</time>
      </trkpt>
      <trkpt lat="43.7344" lon="6.56853">
        <ele>1073</ele>
        <time>2010-09-05T07:41:55Z</time>
      </trkpt>
      <trkpt lat="43.73438" lon="6.56858">
        <ele>1073</ele>
        <time>2010-09-05T07:41:59Z</time>
      </trkpt>
      <trkpt lat="43.73436" lon="6.56878">
        <ele>1073</ele>
        <time>2010-09-05T07:42:11Z</time>
      </trkpt>
      <trkpt lat="43.73436" lon="6.56884">
        <ele>1075</ele>
        <time>2010-09-05T07:42:14Z</time>
      </trkpt>
      <trkpt lat="43.73435" lon="6.56897">
        <ele>1074</ele>
        <time>2010-09-05T07:42:23Z</time>
      </trkpt>
      <trkpt lat="43.73432" lon="6.56918">
        <ele>1074</ele>
        <time>2010-09-05T07:42:36Z</time>
      </trkpt>
      <trkpt lat="43.73429" lon="6.56934">
        <ele>1073</ele>
        <time>2010-09-05T07:42:47Z</time>
      </trkpt>
      <trkpt lat="43.73427" lon="6.56956">
        <ele>1074</ele>
        <time>2010-09-05T07:43:00Z</time>
      </trkpt>
      <trkpt lat="43.73425" lon="6.5697">
        <ele>1073</ele>
        <time>2010-09-05T07:43:09Z</time>
      </trkpt>
      <trkpt lat="43.73423" lon="6.56987">
        <ele>1074</ele>
        <time>2010-09-05T07:43:21Z</time>
      </trkpt>
      <trkpt lat="43.73421" lon="6.57007">
        <ele>1075</ele>
        <time>2010-09-05T07:43:32Z</time>
      </trkpt>
      <trkpt lat="43.73419" lon="6.5703">
        <ele>1075</ele>
        <time>2010-09-05T07:43:44Z</time>
      </trkpt>
      <trkpt lat="43.73419" lon="6.57044">
        <ele>1074</ele>
        <time>2010-09-05T07:43:53Z</time>
      </trkpt>
      <trkpt lat="43.73417" lon="6.57061">
        <ele>1074</ele>
        <time>2010-09-05T07:44:03Z</time>
      </trkpt>
      <trkpt lat="43.73415" lon="6.57081">
        <ele>1073</ele>
        <time>2010-09-05T07:44:14Z</time>
      </trkpt>
      <trkpt lat="43.73414" lon="6.57098">
        <ele>1074</ele>
        <time>2010-09-05T07:44:25Z</time>
      </trkpt>
      <trkpt lat="43.73415" lon="6.57117">
        <ele>1073</ele>
        <time>2010-09-05T07:44:36Z</time>
      </trkpt>
      <trkpt lat="43.73415" lon="6.57133">
        <ele>1074</ele>
        <time>2010-09-05T07:44:47Z</time>
      </trkpt>
      <trkpt lat="43.73416" lon="6.57149">
        <ele>1073</ele>
        <time>2010-09-05T07:44:57Z</time>
      </trkpt>
      <trkpt lat="43.73416" lon="6.57167">
        <ele>1074</ele>
        <time>2010-09-05T07:45:08Z</time>
      </trkpt>
      <trkpt lat="43.73417" lon="6.57183">
        <ele>1073</ele>
        <time>2010-09-05T07:45:18Z</time>
      </trkpt>
      <trkpt lat="43.73418" lon="6.572">
        <ele>1074</ele>
        <time>2010-09-05T07:45:28Z</time>
      </trkpt>
      <trkpt lat="43.7342" lon="6.57218">
        <ele>1073</ele>
        <time>2010-09-05T07:45:40Z</time>
      </trkpt>
      <trkpt lat="43.73419" lon="6.57237">
        <ele>1072</ele>
        <time>2010-09-05T07:45:52Z</time>
      </trkpt>
      <trkpt lat="43.73421" lon="6.57243">
        <ele>1072</ele>
        <time>2010-09-05T07:45:56Z</time>
      </trkpt>
      <trkpt lat="43.73421" lon="6.57249">
        <ele>1073</ele>
        <time>2010-09-05T07:46:00Z</time>
      </trkpt>
      <trkpt lat="43.73421" lon="6.57258">
        <ele>1073</ele>
        <time>2010-09-05T07:46:06Z</time>
      </trkpt>
      <trkpt lat="43.73422" lon="6.5728">
        <ele>1072</ele>
        <time>2010-09-05T07:46:18Z</time>
      </trkpt>
      <trkpt lat="43.73428" lon="6.57298">
        <ele>1072</ele>
        <time>2010-09-05T07:46:29Z</time>
      </trkpt>
      <trkpt lat="43.73433" lon="6.57312">
        <ele>1073</ele>
        <time>2010-09-05T07:46:38Z</time>
      </trkpt>
      <trkpt lat="43.73438" lon="6.57327">
        <ele>1072</ele>
        <time>2010-09-05T07:46:48Z</time>
      </trkpt>
      <trkpt lat="43.73441" lon="6.57337">
        <ele>1072</ele>
        <time>2010-09-05T07:46:56Z</time>
      </trkpt>
      <trkpt lat="43.73444" lon="6.5735">
        <ele>1072</ele>
        <time>2010-09-05T07:47:06Z</time>
      </trkpt>
      <trkpt lat="43.73443" lon="6.57368">
        <ele>1072</ele>
        <time>2010-09-05T07:47:17Z</time>
      </trkpt>
      <trkpt lat="43.73445" lon="6.57389">
        <ele>1072</ele>
        <time>2010-09-05T07:47:29Z</time>
      </trkpt>
      <trkpt lat="43.73451" lon="6.57407">
        <ele>1071</ele>
        <time>2010-09-05T07:47:40Z</time>
      </trkpt>
      <trkpt lat="43.73457" lon="6.5742">
        <ele>1070</ele>
        <time>2010-09-05T07:47:50Z</time>
      </trkpt>
      <trkpt lat="43.73461" lon="6.57434">
        <ele>1070</ele>
        <time>2010-09-05T07:48:00Z</time>
      </trkpt>
      <trkpt lat="43.73466" lon="6.57457">
        <ele>1069</ele>
        <time>2010-09-05T07:48:14Z</time>
      </trkpt>
      <trkpt lat="43.73469" lon="6.57475">
        <ele>1069</ele>
        <time>2010-09-05T07:48:25Z</time>
      </trkpt>
      <trkpt lat="43.73469" lon="6.57477">
        <ele>1069</ele>
        <time>2010-09-05T07:48:26Z</time>
      </trkpt>
      <trkpt lat="43.73473" lon="6.57491">
        <ele>1069</ele>
        <time>2010-09-05T07:48:35Z</time>
      </trkpt>
      <trkpt lat="43.73473" lon="6.5751">
        <ele>1069</ele>
        <time>2010-09-05T07:48:48Z</time>
      </trkpt>
      <trkpt lat="43.73475" lon="6.57525">
        <ele>1069</ele>
        <time>2010-09-05T07:48:57Z</time>
      </trkpt>
      <trkpt lat="43.73476" lon="6.57543">
        <ele>1069</ele>
        <time>2010-09-05T07:49:07Z</time>
      </trkpt>
      <trkpt lat="43.73477" lon="6.57559">
        <ele>1069</ele>
        <time>2010-09-05T07:49:18Z</time>
      </trkpt>
      <trkpt lat="43.73478" lon="6.57579">
        <ele>1069</ele>
        <time>2010-09-05T07:49:31Z</time>
      </trkpt>
      <trkpt lat="43.73478" lon="6.57598">
        <ele>1070</ele>
        <time>2010-09-05T07:49:43Z</time>
      </trkpt>
      <trkpt lat="43.73478" lon="6.57619">
        <ele>1070</ele>
        <time>2010-09-05T07:49:55Z</time>
      </trkpt>
      <trkpt lat="43.7348" lon="6.5764">
        <ele>1069</ele>
        <time>2010-09-05T07:50:07Z</time>
      </trkpt>
      <trkpt lat="43.7348" lon="6.5766">
        <ele>1070</ele>
        <time>2010-09-05T07:50:20Z</time>
      </trkpt>
      <trkpt lat="43.73481" lon="6.57678">
        <ele>1071</ele>
        <time>2010-09-05T07:50:31Z</time>
      </trkpt>
      <trkpt lat="43.73486" lon="6.57695">
        <ele>1072</ele>
        <time>2010-09-05T07:50:42Z</time>
      </trkpt>
      <trkpt lat="43.7349" lon="6.57712">
        <ele>1071</ele>
        <time>2010-09-05T07:50:54Z</time>
      </trkpt>
      <trkpt lat="43.73494" lon="6.57727">
        <ele>1069</ele>
        <time>2010-09-05T07:51:04Z</time>
      </trkpt>
      <trkpt lat="43.73499" lon="6.57744">
        <ele>1067</ele>
        <time>2010-09-05T07:51:16Z</time>
      </trkpt>
      <trkpt lat="43.73505" lon="6.57763">
        <ele>1067</ele>
        <time>2010-09-05T07:51:28Z</time>
      </trkpt>
      <trkpt lat="43.73505" lon="6.57764">
        <ele>1067</ele>
        <time>2010-09-05T07:51:29Z</time>
      </trkpt>
      <trkpt lat="43.73511" lon="6.57783">
        <ele>1067</ele>
        <time>2010-09-05T07:51:41Z</time>
      </trkpt>
      <trkpt lat="43.73517" lon="6.57801">
        <ele>1066</ele>
        <time>2010-09-05T07:51:52Z</time>
      </trkpt>
      <trkpt lat="43.73522" lon="6.57817">
        <ele>1067</ele>
        <time>2010-09-05T07:52:03Z</time>
      </trkpt>
      <trkpt lat="43.73523" lon="6.57824">
        <ele>1067</ele>
        <time>2010-09-05T07:52:06Z</time>
      </trkpt>
      <trkpt lat="43.73527" lon="6.57839">
        <ele>1067</ele>
        <time>2010-09-05T07:52:16Z</time>
      </trkpt>
      <trkpt lat="43.73529" lon="6.57855">
        <ele>1067</ele>
        <time>2010-09-05T07:52:26Z</time>
      </trkpt>
      <trkpt lat="43.73529" lon="6.57858">
        <ele>1067</ele>
        <time>2010-09-05T07:52:28Z</time>
      </trkpt>
      <trkpt lat="43.73532" lon="6.57875">
        <ele>1067</ele>
        <time>2010-09-05T07:52:39Z</time>
      </trkpt>
      <trkpt lat="43.73532" lon="6.57895">
        <ele>1067</ele>
        <time>2010-09-05T07:52:51Z</time>
      </trkpt>
      <trkpt lat="43.73531" lon="6.57912">
        <ele>1066</ele>
        <time>2010-09-05T07:53:01Z</time>
      </trkpt>
      <trkpt lat="43.7353" lon="6.57932">
        <ele>1066</ele>
        <time>2010-09-05T07:53:13Z</time>
      </trkpt>
      <trkpt lat="43.73529" lon="6.57944">
        <ele>1066</ele>
        <time>2010-09-05T07:53:21Z</time>
      </trkpt>
      <trkpt lat="43.73529" lon="6.57956">
        <ele>1066</ele>
        <time>2010-09-05T07:53:29Z</time>
      </trkpt>
      <trkpt lat="43.73528" lon="6.57963">
        <ele>1066</ele>
        <time>2010-09-05T07:53:34Z</time>
      </trkpt>
      <trkpt lat="43.73528" lon="6.57965">
        <ele>1067</ele>
        <time>2010-09-05T07:53:35Z</time>
      </trkpt>
      <trkpt lat="43.73527" lon="6.57983">
        <ele>1067</ele>
        <time>2010-09-05T07:53:47Z</time>
      </trkpt>
      <trkpt lat="43.73528" lon="6.58002">
        <ele>1068</ele>
        <time>2010-09-05T07:53:57Z</time>
      </trkpt>
      <trkpt lat="43.73529" lon="6.58007">
        <ele>1068</ele>
        <time>2010-09-05T07:54:01Z</time>
      </trkpt>
      <trkpt lat="43.73528" lon="6.58032">
        <ele>1068</ele>
        <time>2010-09-05T07:54:16Z</time>
      </trkpt>
      <trkpt lat="43.73527" lon="6.58051">
        <ele>1067</ele>
        <time>2010-09-05T07:54:27Z</time>
      </trkpt>
      <trkpt lat="43.73526" lon="6.58058">
        <ele>1067</ele>
        <time>2010-09-05T07:54:32Z</time>
      </trkpt>
      <trkpt lat="43.73524" lon="6.58076">
        <ele>1066</ele>
        <time>2010-09-05T07:54:45Z</time>
      </trkpt>
      <trkpt lat="43.73523" lon="6.581">
        <ele>1065</ele>
        <time>2010-09-05T07:54:59Z</time>
      </trkpt>
      <trkpt lat="43.73522" lon="6.58122">
        <ele>1064</ele>
        <time>2010-09-05T07:55:11Z</time>
      </trkpt>
      <trkpt lat="43.73519" lon="6.58146">
        <ele>1063</ele>
        <time>2010-09-05T07:55:26Z</time>
      </trkpt>
      <trkpt lat="43.73518" lon="6.5817">
        <ele>1064</ele>
        <time>2010-09-05T07:55:40Z</time>
      </trkpt>
      <trkpt lat="43.73517" lon="6.58195">
        <ele>1064</ele>
        <time>2010-09-05T07:55:56Z</time>
      </trkpt>
      <trkpt lat="43.73516" lon="6.58217">
        <ele>1063</ele>
        <time>2010-09-05T07:56:09Z</time>
      </trkpt>
      <trkpt lat="43.73516" lon="6.58237">
        <ele>1062</ele>
        <time>2010-09-05T07:56:21Z</time>
      </trkpt>
      <trkpt lat="43.73516" lon="6.58256">
        <ele>1061</ele>
        <time>2010-09-05T07:56:32Z</time>
      </trkpt>
      <trkpt lat="43.73516" lon="6.58265">
        <ele>1061</ele>
        <time>2010-09-05T07:56:37Z</time>
      </trkpt>
      <trkpt lat="43.73517" lon="6.58279">
        <ele>1061</ele>
        <time>2010-09-05T07:56:47Z</time>
      </trkpt>
      <trkpt lat="43.73519" lon="6.58295">
        <ele>1060</ele>
        <time>2010-09-05T07:56:57Z</time>
      </trkpt>
      <trkpt lat="43.7352" lon="6.58311">
        <ele>1059</ele>
        <time>2010-09-05T07:57:08Z</time>
      </trkpt>
      <trkpt lat="43.73521" lon="6.5833">
        <ele>1058</ele>
        <time>2010-09-05T07:57:19Z</time>
      </trkpt>
      <trkpt lat="43.73521" lon="6.58337">
        <ele>1057</ele>
        <time>2010-09-05T07:57:24Z</time>
      </trkpt>
      <trkpt lat="43.73522" lon="6.58362">
        <ele>1057</ele>
        <time>2010-09-05T07:57:38Z</time>
      </trkpt>
      <trkpt lat="43.73522" lon="6.58366">
        <ele>1056</ele>
        <time>2010-09-05T07:57:41Z</time>
      </trkpt>
      <trkpt lat="43.73524" lon="6.58385">
        <ele>1057</ele>
        <time>2010-09-05T07:57:53Z</time>
      </trkpt>
      <trkpt lat="43.73525" lon="6.58402">
        <ele>1056</ele>
        <time>2010-09-05T07:58:04Z</time>
      </trkpt>
      <trkpt lat="43.73525" lon="6.58407">
        <ele>1058</ele>
        <time>2010-09-05T07:58:07Z</time>
      </trkpt>
      <trkpt lat="43.73526" lon="6.58418">
        <ele>1057</ele>
        <time>2010-09-05T07:58:16Z</time>
      </trkpt>
      <trkpt lat="43.73529" lon="6.58435">
        <ele>1058</ele>
        <time>2010-09-05T07:58:27Z</time>
      </trkpt>
      <trkpt lat="43.73533" lon="6.58451">
        <ele>1058</ele>
        <time>2010-09-05T07:58:37Z</time>
      </trkpt>
      <trkpt lat="43.73535" lon="6.58458">
        <ele>1057</ele>
        <time>2010-09-05T07:58:41Z</time>
      </trkpt>
      <trkpt lat="43.73539" lon="6.58475">
        <ele>1057</ele>
        <time>2010-09-05T07:58:52Z</time>
      </trkpt>
      <trkpt lat="43.73539" lon="6.58483">
        <ele>1056</ele>
        <time>2010-09-05T07:58:59Z</time>
      </trkpt>
      <trkpt lat="43.7354" lon="6.58492">
        <ele>1056</ele>
        <time>2010-09-05T07:59:05Z</time>
      </trkpt>
      <trkpt lat="43.73545" lon="6.58504">
        <ele>1055</ele>
        <time>2010-09-05T07:59:14Z</time>
      </trkpt>
      <trkpt lat="43.73546" lon="6.58513">
        <ele>1055</ele>
        <time>2010-09-05T07:59:21Z</time>
      </trkpt>
      <trkpt lat="43.73548" lon="6.58525">
        <ele>1054</ele>
        <time>2010-09-05T07:59:24Z</time>
      </trkpt>
      <trkpt lat="43.73548" lon="6.58529">
        <ele>1053</ele>
        <time>2010-09-05T07:59:30Z</time>
      </trkpt>
      <trkpt lat="43.7355" lon="6.5854">
        <ele>1053</ele>
        <time>2010-09-05T07:59:39Z</time>
      </trkpt>
      <trkpt lat="43.73553" lon="6.58552">
        <ele>1053</ele>
        <time>2010-09-05T07:59:49Z</time>
      </trkpt>
      <trkpt lat="43.73556" lon="6.58566">
        <ele>1054</ele>
        <time>2010-09-05T07:59:57Z</time>
      </trkpt>
      <trkpt lat="43.73558" lon="6.58572">
        <ele>1055</ele>
        <time>2010-09-05T08:00:01Z</time>
      </trkpt>
      <trkpt lat="43.73559" lon="6.58575">
        <ele>1059</ele>
        <time>2010-09-05T08:00:03Z</time>
      </trkpt>
      <trkpt lat="43.73559" lon="6.58577">
        <ele>1055</ele>
        <time>2010-09-05T08:00:04Z</time>
      </trkpt>
      <trkpt lat="43.73562" lon="6.58576">
        <ele>1055</ele>
        <time>2010-09-05T08:00:17Z</time>
      </trkpt>
      <trkpt lat="43.73561" lon="6.58576">
        <ele>1054</ele>
        <time>2010-09-05T08:01:49Z</time>
      </trkpt>
      <trkpt lat="43.73561" lon="6.58576">
        <ele>1053</ele>
        <time>2010-09-05T08:01:55Z</time>
      </trkpt>
      <trkpt lat="43.73561" lon="6.58576">
        <ele>1056</ele>
        <time>2010-09-05T08:01:58Z</time>
      </trkpt>
      <trkpt lat="43.73561" lon="6.58576">
        <ele>1052</ele>
        <time>2010-09-05T08:02:00Z</time>
      </trkpt>
      <trkpt lat="43.73561" lon="6.58576">
        <ele>1056</ele>
        <time>2010-09-05T08:02:01Z</time>
      </trkpt>
      <trkpt lat="43.73561" lon="6.58576">
        <ele>1051</ele>
        <time>2010-09-05T08:02:04Z</time>
      </trkpt>
      <trkpt lat="43.73561" lon="6.58576">
        <ele>1056</ele>
        <time>2010-09-05T08:02:07Z</time>
      </trkpt>
      <trkpt lat="43.73561" lon="6.58576">
        <ele>1051</ele>
        <time>2010-09-05T08:02:21Z</time>
      </trkpt>
      <trkpt lat="43.73561" lon="6.58576">
        <ele>1052</ele>
        <time>2010-09-05T08:02:22Z</time>
      </trkpt>
      <trkpt lat="43.73561" lon="6.58576">
        <ele>1057</ele>
        <time>2010-09-05T08:02:23Z</time>
      </trkpt>
      <trkpt lat="43.73561" lon="6.58576">
        <ele>1053</ele>
        <time>2010-09-05T08:02:24Z</time>
      </trkpt>
      <trkpt lat="43.73561" lon="6.58576">
        <ele>1058</ele>
        <time>2010-09-05T08:02:26Z</time>
      </trkpt>
      <trkpt lat="43.73561" lon="6.58576">
        <ele>1054</ele>
        <time>2010-09-05T08:02:27Z</time>
      </trkpt>
      <trkpt lat="43.73561" lon="6.58576">
        <ele>1048</ele>
        <time>2010-09-05T08:02:30Z</time>
      </trkpt>
      <trkpt lat="43.73561" lon="6.58576">
        <ele>1056</ele>
        <time>2010-09-05T08:02:31Z</time>
      </trkpt>
      <trkpt lat="43.73561" lon="6.58576">
        <ele>1066</ele>
        <time>2010-09-05T08:02:32Z</time>
      </trkpt>
      <trkpt lat="43.73561" lon="6.58576">
        <ele>1060</ele>
        <time>2010-09-05T08:02:33Z</time>
      </trkpt>
      <trkpt lat="43.73561" lon="6.58576">
        <ele>1055</ele>
        <time>2010-09-05T08:02:34Z</time>
      </trkpt>
      <trkpt lat="43.73562" lon="6.58575">
        <ele>1105</ele>
        <time>2010-09-05T08:03:30Z</time>
      </trkpt>
      <trkpt lat="43.73562" lon="6.58575">
        <ele>1048</ele>
        <time>2010-09-05T08:03:31Z</time>
      </trkpt>
      <trkpt lat="43.73562" lon="6.58575">
        <ele>1048</ele>
        <time>2010-09-05T08:03:32Z</time>
      </trkpt>
      <trkpt lat="43.73564" lon="6.58582">
        <ele>1048</ele>
        <time>2010-09-05T08:03:34Z</time>
      </trkpt>
      <trkpt lat="43.73563" lon="6.58577">
        <ele>1045</ele>
        <time>2010-09-05T08:03:45Z</time>
      </trkpt>
      <trkpt lat="43.73563" lon="6.58577">
        <ele>1050</ele>
        <time>2010-09-05T08:03:46Z</time>
      </trkpt>
      <trkpt lat="43.73563" lon="6.58577">
        <ele>1050</ele>
        <time>2010-09-05T08:03:48Z</time>
      </trkpt>
      <trkpt lat="43.73563" lon="6.58577">
        <ele>1047</ele>
        <time>2010-09-05T08:03:49Z</time>
      </trkpt>
      <trkpt lat="43.73563" lon="6.58577">
        <ele>1051</ele>
        <time>2010-09-05T08:03:50Z</time>
      </trkpt>
      <trkpt lat="43.73563" lon="6.58577">
        <ele>1052</ele>
        <time>2010-09-05T08:03:52Z</time>
      </trkpt>
      <trkpt lat="43.73562" lon="6.58576">
        <ele>1057</ele>
        <time>2010-09-05T08:04:03Z</time>
      </trkpt>
      <trkpt lat="43.73562" lon="6.58576">
        <ele>1053</ele>
        <time>2010-09-05T08:04:04Z</time>
      </trkpt>
      <trkpt lat="43.73562" lon="6.58578">
        <ele>1050</ele>
        <time>2010-09-05T08:04:19Z</time>
      </trkpt>
      <trkpt lat="43.73562" lon="6.58577">
        <ele>1054</ele>
        <time>2010-09-05T08:04:20Z</time>
      </trkpt>
      <trkpt lat="43.73562" lon="6.58577">
        <ele>1054</ele>
        <time>2010-09-05T08:04:21Z</time>
      </trkpt>
      <trkpt lat="43.73562" lon="6.58576">
        <ele>1046</ele>
        <time>2010-09-05T08:04:22Z</time>
      </trkpt>
      <trkpt lat="43.73563" lon="6.58576">
        <ele>1054</ele>
        <time>2010-09-05T08:04:23Z</time>
      </trkpt>
      <trkpt lat="43.73564" lon="6.58569">
        <ele>1055</ele>
        <time>2010-09-05T08:04:29Z</time>
      </trkpt>
      <trkpt lat="43.73564" lon="6.58568">
        <ele>1051</ele>
        <time>2010-09-05T08:04:30Z</time>
      </trkpt>
      <trkpt lat="43.73564" lon="6.58566">
        <ele>1051</ele>
        <time>2010-09-05T08:04:31Z</time>
      </trkpt>
      <trkpt lat="43.73563" lon="6.58564">
        <ele>1053</ele>
        <time>2010-09-05T08:04:33Z</time>
      </trkpt>
      <trkpt lat="43.73563" lon="6.58561">
        <ele>1054</ele>
        <time>2010-09-05T08:04:35Z</time>
      </trkpt>
      <trkpt lat="43.73566" lon="6.58555">
        <ele>1054</ele>
        <time>2010-09-05T08:04:44Z</time>
      </trkpt>
      <trkpt lat="43.73569" lon="6.58552">
        <ele>1057</ele>
        <time>2010-09-05T08:04:47Z</time>
      </trkpt>
      <trkpt lat="43.73569" lon="6.58551">
        <ele>1054</ele>
        <time>2010-09-05T08:04:48Z</time>
      </trkpt>
      <trkpt lat="43.73572" lon="6.58546">
        <ele>1060</ele>
        <time>2010-09-05T08:04:52Z</time>
      </trkpt>
      <trkpt lat="43.73572" lon="6.58545">
        <ele>1060</ele>
        <time>2010-09-05T08:04:53Z</time>
      </trkpt>
      <trkpt lat="43.73573" lon="6.58543">
        <ele>1056</ele>
        <time>2010-09-05T08:04:54Z</time>
      </trkpt>
      <trkpt lat="43.73573" lon="6.58532">
        <ele>1056</ele>
        <time>2010-09-05T08:05:01Z</time>
      </trkpt>
      <trkpt lat="43.73573" lon="6.5853">
        <ele>1059</ele>
        <time>2010-09-05T08:05:03Z</time>
      </trkpt>
      <trkpt lat="43.73573" lon="6.58528">
        <ele>1059</ele>
        <time>2010-09-05T08:05:04Z</time>
      </trkpt>
      <trkpt lat="43.73572" lon="6.5852">
        <ele>1060</ele>
        <time>2010-09-05T08:05:09Z</time>
      </trkpt>
      <trkpt lat="43.73573" lon="6.58514">
        <ele>1058</ele>
        <time>2010-09-05T08:05:13Z</time>
      </trkpt>
      <trkpt lat="43.73573" lon="6.58513">
        <ele>1061</ele>
        <time>2010-09-05T08:05:14Z</time>
      </trkpt>
      <trkpt lat="43.73574" lon="6.58511">
        <ele>1060</ele>
        <time>2010-09-05T08:05:15Z</time>
      </trkpt>
      <trkpt lat="43.73575" lon="6.58502">
        <ele>1061</ele>
        <time>2010-09-05T08:05:21Z</time>
      </trkpt>
      <trkpt lat="43.73579" lon="6.58492">
        <ele>1061</ele>
        <time>2010-09-05T08:05:30Z</time>
      </trkpt>
      <trkpt lat="43.73584" lon="6.58484">
        <ele>1062</ele>
        <time>2010-09-05T08:05:38Z</time>
      </trkpt>
      <trkpt lat="43.73591" lon="6.58481">
        <ele>1065</ele>
        <time>2010-09-05T08:05:47Z</time>
      </trkpt>
      <trkpt lat="43.73604" lon="6.58473">
        <ele>1068</ele>
        <time>2010-09-05T08:06:13Z</time>
      </trkpt>
      <trkpt lat="43.73608" lon="6.58474">
        <ele>1070</ele>
        <time>2010-09-05T08:06:30Z</time>
      </trkpt>
      <trkpt lat="43.73619" lon="6.58479">
        <ele>1073</ele>
        <time>2010-09-05T08:06:56Z</time>
      </trkpt>
      <trkpt lat="43.73625" lon="6.58478">
        <ele>1074</ele>
        <time>2010-09-05T08:07:17Z</time>
      </trkpt>
      <trkpt lat="43.73626" lon="6.58477">
        <ele>1076</ele>
        <time>2010-09-05T08:07:19Z</time>
      </trkpt>
      <trkpt lat="43.73648" lon="6.58469">
        <ele>1078</ele>
        <time>2010-09-05T08:07:46Z</time>
      </trkpt>
      <trkpt lat="43.73653" lon="6.58467">
        <ele>1081</ele>
        <time>2010-09-05T08:08:04Z</time>
      </trkpt>
      <trkpt lat="43.73662" lon="6.58464">
        <ele>1084</ele>
        <time>2010-09-05T08:08:26Z</time>
      </trkpt>
      <trkpt lat="43.73669" lon="6.58459">
        <ele>1084</ele>
        <time>2010-09-05T08:08:43Z</time>
      </trkpt>
      <trkpt lat="43.73674" lon="6.58459">
        <ele>1088</ele>
        <time>2010-09-05T08:09:26Z</time>
      </trkpt>
      <trkpt lat="43.73683" lon="6.58463">
        <ele>1091</ele>
        <time>2010-09-05T08:10:03Z</time>
      </trkpt>
      <trkpt lat="43.73691" lon="6.58462">
        <ele>1095</ele>
        <time>2010-09-05T08:10:27Z</time>
      </trkpt>
      <trkpt lat="43.73694" lon="6.58467">
        <ele>1096</ele>
        <time>2010-09-05T08:10:34Z</time>
      </trkpt>
      <trkpt lat="43.73702" lon="6.58482">
        <ele>1099</ele>
        <time>2010-09-05T08:10:53Z</time>
      </trkpt>
      <trkpt lat="43.73705" lon="6.58484">
        <ele>1100</ele>
        <time>2010-09-05T08:10:59Z</time>
      </trkpt>
      <trkpt lat="43.73705" lon="6.58494">
        <ele>1101</ele>
        <time>2010-09-05T08:11:10Z</time>
      </trkpt>
      <trkpt lat="43.7371" lon="6.5851">
        <ele>1104</ele>
        <time>2010-09-05T08:11:27Z</time>
      </trkpt>
      <trkpt lat="43.73712" lon="6.58524">
        <ele>1103</ele>
        <time>2010-09-05T08:11:43Z</time>
      </trkpt>
      <trkpt lat="43.73714" lon="6.58529">
        <ele>1107</ele>
        <time>2010-09-05T08:11:50Z</time>
      </trkpt>
      <trkpt lat="43.73721" lon="6.58544">
        <ele>1110</ele>
        <time>2010-09-05T08:12:12Z</time>
      </trkpt>
      <trkpt lat="43.73727" lon="6.5856">
        <ele>1113</ele>
        <time>2010-09-05T08:12:42Z</time>
      </trkpt>
      <trkpt lat="43.73731" lon="6.58568">
        <ele>1114</ele>
        <time>2010-09-05T08:12:52Z</time>
      </trkpt>
      <trkpt lat="43.73735" lon="6.5858">
        <ele>1116</ele>
        <time>2010-09-05T08:13:06Z</time>
      </trkpt>
      <trkpt lat="43.73742" lon="6.58592">
        <ele>1119</ele>
        <time>2010-09-05T08:13:23Z</time>
      </trkpt>
      <trkpt lat="43.73746" lon="6.58601">
        <ele>1120</ele>
        <time>2010-09-05T08:13:40Z</time>
      </trkpt>
      <trkpt lat="43.73756" lon="6.58616">
        <ele>1122</ele>
        <time>2010-09-05T08:14:00Z</time>
      </trkpt>
      <trkpt lat="43.73765" lon="6.58624">
        <ele>1126</ele>
        <time>2010-09-05T08:14:29Z</time>
      </trkpt>
      <trkpt lat="43.73773" lon="6.58639">
        <ele>1129</ele>
        <time>2010-09-05T08:14:50Z</time>
      </trkpt>
      <trkpt lat="43.73775" lon="6.58644">
        <ele>1129</ele>
        <time>2010-09-05T08:15:02Z</time>
      </trkpt>
      <trkpt lat="43.73779" lon="6.58652">
        <ele>1133</ele>
        <time>2010-09-05T08:15:21Z</time>
      </trkpt>
      <trkpt lat="43.73788" lon="6.58672">
        <ele>1136</ele>
        <time>2010-09-05T08:15:53Z</time>
      </trkpt>
      <trkpt lat="43.7379" lon="6.58681">
        <ele>1137</ele>
        <time>2010-09-05T08:16:03Z</time>
      </trkpt>
      <trkpt lat="43.73789" lon="6.58682">
        <ele>1134</ele>
        <time>2010-09-05T08:16:04Z</time>
      </trkpt>
      <trkpt lat="43.73789" lon="6.58682">
        <ele>1137</ele>
        <time>2010-09-05T08:16:05Z</time>
      </trkpt>
      <trkpt lat="43.73792" lon="6.58699">
        <ele>1136</ele>
        <time>2010-09-05T08:17:21Z</time>
      </trkpt>
      <trkpt lat="43.73793" lon="6.587">
        <ele>1140</ele>
        <time>2010-09-05T08:17:22Z</time>
      </trkpt>
      <trkpt lat="43.73793" lon="6.58711">
        <ele>1141</ele>
        <time>2010-09-05T08:17:33Z</time>
      </trkpt>
      <trkpt lat="43.73794" lon="6.58726">
        <ele>1142</ele>
        <time>2010-09-05T08:17:48Z</time>
      </trkpt>
      <trkpt lat="43.73795" lon="6.58734">
        <ele>1146</ele>
        <time>2010-09-05T08:18:04Z</time>
      </trkpt>
      <trkpt lat="43.73801" lon="6.58731">
        <ele>1146</ele>
        <time>2010-09-05T08:18:22Z</time>
      </trkpt>
      <trkpt lat="43.73803" lon="6.58727">
        <ele>1149</ele>
        <time>2010-09-05T08:18:32Z</time>
      </trkpt>
      <trkpt lat="43.73805" lon="6.58723">
        <ele>1149</ele>
        <time>2010-09-05T08:18:42Z</time>
      </trkpt>
      <trkpt lat="43.73805" lon="6.58722">
        <ele>1150</ele>
        <time>2010-09-05T08:18:46Z</time>
      </trkpt>
      <trkpt lat="43.73808" lon="6.58712">
        <ele>1152</ele>
        <time>2010-09-05T08:19:00Z</time>
      </trkpt>
      <trkpt lat="43.73809" lon="6.58713">
        <ele>1153</ele>
        <time>2010-09-05T08:19:07Z</time>
      </trkpt>
      <trkpt lat="43.73811" lon="6.58724">
        <ele>1156</ele>
        <time>2010-09-05T08:19:28Z</time>
      </trkpt>
      <trkpt lat="43.73813" lon="6.58732">
        <ele>1157</ele>
        <time>2010-09-05T08:19:45Z</time>
      </trkpt>
      <trkpt lat="43.73814" lon="6.58739">
        <ele>1158</ele>
        <time>2010-09-05T08:19:55Z</time>
      </trkpt>
      <trkpt lat="43.73815" lon="6.58747">
        <ele>1159</ele>
        <time>2010-09-05T08:20:05Z</time>
      </trkpt>
      <trkpt lat="43.73819" lon="6.58756">
        <ele>1159</ele>
        <time>2010-09-05T08:20:16Z</time>
      </trkpt>
      <trkpt lat="43.7382" lon="6.58757">
        <ele>1161</ele>
        <time>2010-09-05T08:20:18Z</time>
      </trkpt>
      <trkpt lat="43.73823" lon="6.58764">
        <ele>1161</ele>
        <time>2010-09-05T08:20:28Z</time>
      </trkpt>
      <trkpt lat="43.73825" lon="6.58772">
        <ele>1164</ele>
        <time>2010-09-05T08:20:40Z</time>
      </trkpt>
      <trkpt lat="43.7383" lon="6.58771">
        <ele>1165</ele>
        <time>2010-09-05T08:20:51Z</time>
      </trkpt>
      <trkpt lat="43.73831" lon="6.58772">
        <ele>1166</ele>
        <time>2010-09-05T08:20:56Z</time>
      </trkpt>
      <trkpt lat="43.73834" lon="6.58778">
        <ele>1166</ele>
        <time>2010-09-05T08:21:09Z</time>
      </trkpt>
      <trkpt lat="43.73837" lon="6.58781">
        <ele>1168</ele>
        <time>2010-09-05T08:21:15Z</time>
      </trkpt>
      <trkpt lat="43.73844" lon="6.58791">
        <ele>1170</ele>
        <time>2010-09-05T08:21:35Z</time>
      </trkpt>
      <trkpt lat="43.73846" lon="6.58797">
        <ele>1173</ele>
        <time>2010-09-05T08:21:49Z</time>
      </trkpt>
      <trkpt lat="43.73847" lon="6.58798">
        <ele>1170</ele>
        <time>2010-09-05T08:21:52Z</time>
      </trkpt>
      <trkpt lat="43.73847" lon="6.58798">
        <ele>1173</ele>
        <time>2010-09-05T08:21:53Z</time>
      </trkpt>
      <trkpt lat="43.73847" lon="6.58798">
        <ele>1173</ele>
        <time>2010-09-05T08:21:54Z</time>
      </trkpt>
      <trkpt lat="43.73852" lon="6.58807">
        <ele>1175</ele>
        <time>2010-09-05T08:22:08Z</time>
      </trkpt>
      <trkpt lat="43.73856" lon="6.58812">
        <ele>1173</ele>
        <time>2010-09-05T08:22:16Z</time>
      </trkpt>
      <trkpt lat="43.7386" lon="6.58818">
        <ele>1177</ele>
        <time>2010-09-05T08:22:26Z</time>
      </trkpt>
      <trkpt lat="43.73864" lon="6.58824">
        <ele>1179</ele>
        <time>2010-09-05T08:22:41Z</time>
      </trkpt>
      <trkpt lat="43.73871" lon="6.58832">
        <ele>1184</ele>
        <time>2010-09-05T08:22:57Z</time>
      </trkpt>
      <trkpt lat="43.73872" lon="6.58834">
        <ele>1181</ele>
        <time>2010-09-05T08:23:00Z</time>
      </trkpt>
      <trkpt lat="43.73873" lon="6.58836">
        <ele>1184</ele>
        <time>2010-09-05T08:23:02Z</time>
      </trkpt>
      <trkpt lat="43.73877" lon="6.58842">
        <ele>1184</ele>
        <time>2010-09-05T08:23:14Z</time>
      </trkpt>
      <trkpt lat="43.7388" lon="6.58849">
        <ele>1185</ele>
        <time>2010-09-05T08:23:25Z</time>
      </trkpt>
      <trkpt lat="43.73885" lon="6.58854">
        <ele>1187</ele>
        <time>2010-09-05T08:23:36Z</time>
      </trkpt>
      <trkpt lat="43.73887" lon="6.58855">
        <ele>1188</ele>
        <time>2010-09-05T08:23:42Z</time>
      </trkpt>
      <trkpt lat="43.73891" lon="6.58865">
        <ele>1190</ele>
        <time>2010-09-05T08:23:56Z</time>
      </trkpt>
      <trkpt lat="43.73895" lon="6.58869">
        <ele>1191</ele>
        <time>2010-09-05T08:24:08Z</time>
      </trkpt>
      <trkpt lat="43.73896" lon="6.5887">
        <ele>1172</ele>
        <time>2010-09-05T08:24:24Z</time>
      </trkpt>
      <trkpt lat="43.73896" lon="6.5887">
        <ele>1193</ele>
        <time>2010-09-05T08:24:25Z</time>
      </trkpt>
      <trkpt lat="43.73896" lon="6.5887">
        <ele>1191</ele>
        <time>2010-09-05T08:24:26Z</time>
      </trkpt>
      <trkpt lat="43.73896" lon="6.5887">
        <ele>1188</ele>
        <time>2010-09-05T08:25:09Z</time>
      </trkpt>
      <trkpt lat="43.73896" lon="6.5887">
        <ele>1194</ele>
        <time>2010-09-05T08:25:11Z</time>
      </trkpt>
      <trkpt lat="43.73896" lon="6.5887">
        <ele>1193</ele>
        <time>2010-09-05T08:25:12Z</time>
      </trkpt>
      <trkpt lat="43.73896" lon="6.5887">
        <ele>1191</ele>
        <time>2010-09-05T08:25:14Z</time>
      </trkpt>
      <trkpt lat="43.73896" lon="6.5887">
        <ele>1182</ele>
        <time>2010-09-05T08:25:16Z</time>
      </trkpt>
      <trkpt lat="43.73896" lon="6.5887">
        <ele>1193</ele>
        <time>2010-09-05T08:25:17Z</time>
      </trkpt>
      <trkpt lat="43.73896" lon="6.58871">
        <ele>1190</ele>
        <time>2010-09-05T08:25:19Z</time>
      </trkpt>
      <trkpt lat="43.739" lon="6.58877">
        <ele>1193</ele>
        <time>2010-09-05T08:25:30Z</time>
      </trkpt>
      <trkpt lat="43.73902" lon="6.58885">
        <ele>1195</ele>
        <time>2010-09-05T08:25:43Z</time>
      </trkpt>
      <trkpt lat="43.73905" lon="6.58896">
        <ele>1196</ele>
        <time>2010-09-05T08:25:54Z</time>
      </trkpt>
      <trkpt lat="43.73907" lon="6.58904">
        <ele>1197</ele>
        <time>2010-09-05T08:26:03Z</time>
      </trkpt>
      <trkpt lat="43.73909" lon="6.58916">
        <ele>1200</ele>
        <time>2010-09-05T08:26:21Z</time>
      </trkpt>
      <trkpt lat="43.7391" lon="6.5892">
        <ele>1196</ele>
        <time>2010-09-05T08:27:27Z</time>
      </trkpt>
      <trkpt lat="43.7391" lon="6.5892">
        <ele>1201</ele>
        <time>2010-09-05T08:27:28Z</time>
      </trkpt>
      <trkpt lat="43.73911" lon="6.5892">
        <ele>1197</ele>
        <time>2010-09-05T08:27:29Z</time>
      </trkpt>
      <trkpt lat="43.73912" lon="6.58926">
        <ele>1201</ele>
        <time>2010-09-05T08:27:37Z</time>
      </trkpt>
      <trkpt lat="43.73914" lon="6.58935">
        <ele>1200</ele>
        <time>2010-09-05T08:27:48Z</time>
      </trkpt>
      <trkpt lat="43.73914" lon="6.58937">
        <ele>1204</ele>
        <time>2010-09-05T08:27:49Z</time>
      </trkpt>
      <trkpt lat="43.73914" lon="6.58937">
        <ele>1200</ele>
        <time>2010-09-05T08:27:50Z</time>
      </trkpt>
      <trkpt lat="43.73915" lon="6.58946">
        <ele>1201</ele>
        <time>2010-09-05T08:27:59Z</time>
      </trkpt>
      <trkpt lat="43.73917" lon="6.58956">
        <ele>1205</ele>
        <time>2010-09-05T08:28:09Z</time>
      </trkpt>
      <trkpt lat="43.73917" lon="6.58967">
        <ele>1205</ele>
        <time>2010-09-05T08:28:20Z</time>
      </trkpt>
      <trkpt lat="43.73921" lon="6.58966">
        <ele>1206</ele>
        <time>2010-09-05T08:28:30Z</time>
      </trkpt>
      <trkpt lat="43.73924" lon="6.58956">
        <ele>1209</ele>
        <time>2010-09-05T08:28:40Z</time>
      </trkpt>
      <trkpt lat="43.73926" lon="6.58948">
        <ele>1207</ele>
        <time>2010-09-05T08:28:49Z</time>
      </trkpt>
      <trkpt lat="43.73929" lon="6.5894">
        <ele>1209</ele>
        <time>2010-09-05T08:29:03Z</time>
      </trkpt>
      <trkpt lat="43.7393" lon="6.58933">
        <ele>1210</ele>
        <time>2010-09-05T08:29:13Z</time>
      </trkpt>
      <trkpt lat="43.73932" lon="6.58921">
        <ele>1212</ele>
        <time>2010-09-05T08:29:23Z</time>
      </trkpt>
      <trkpt lat="43.73935" lon="6.5891">
        <ele>1213</ele>
        <time>2010-09-05T08:29:33Z</time>
      </trkpt>
      <trkpt lat="43.73935" lon="6.58909">
        <ele>1209</ele>
        <time>2010-09-05T08:29:34Z</time>
      </trkpt>
      <trkpt lat="43.73936" lon="6.58906">
        <ele>1214</ele>
        <time>2010-09-05T08:29:36Z</time>
      </trkpt>
      <trkpt lat="43.73937" lon="6.58905">
        <ele>1210</ele>
        <time>2010-09-05T08:29:37Z</time>
      </trkpt>
      <trkpt lat="43.73939" lon="6.58899">
        <ele>1213</ele>
        <time>2010-09-05T08:29:43Z</time>
      </trkpt>
      <trkpt lat="43.73942" lon="6.58891">
        <ele>1216</ele>
        <time>2010-09-05T08:29:53Z</time>
      </trkpt>
      <trkpt lat="43.73943" lon="6.589">
        <ele>1215</ele>
        <time>2010-09-05T08:30:08Z</time>
      </trkpt>
      <trkpt lat="43.73944" lon="6.5891">
        <ele>1217</ele>
        <time>2010-09-05T08:30:21Z</time>
      </trkpt>
      <trkpt lat="43.73947" lon="6.58914">
        <ele>1220</ele>
        <time>2010-09-05T08:30:37Z</time>
      </trkpt>
      <trkpt lat="43.73951" lon="6.58906">
        <ele>1222</ele>
        <time>2010-09-05T08:30:52Z</time>
      </trkpt>
      <trkpt lat="43.73954" lon="6.58897">
        <ele>1221</ele>
        <time>2010-09-05T08:31:02Z</time>
      </trkpt>
      <trkpt lat="43.73957" lon="6.5889">
        <ele>1224</ele>
        <time>2010-09-05T08:31:15Z</time>
      </trkpt>
      <trkpt lat="43.7396" lon="6.58884">
        <ele>1225</ele>
        <time>2010-09-05T08:31:26Z</time>
      </trkpt>
      <trkpt lat="43.73963" lon="6.58873">
        <ele>1226</ele>
        <time>2010-09-05T08:31:40Z</time>
      </trkpt>
      <trkpt lat="43.73967" lon="6.58869">
        <ele>1229</ele>
        <time>2010-09-05T08:31:54Z</time>
      </trkpt>
      <trkpt lat="43.7397" lon="6.5886">
        <ele>1229</ele>
        <time>2010-09-05T08:32:07Z</time>
      </trkpt>
      <trkpt lat="43.73977" lon="6.58848">
        <ele>1233</ele>
        <time>2010-09-05T08:32:27Z</time>
      </trkpt>
      <trkpt lat="43.73981" lon="6.58841">
        <ele>1234</ele>
        <time>2010-09-05T08:32:39Z</time>
      </trkpt>
      <trkpt lat="43.73983" lon="6.58836">
        <ele>1234</ele>
        <time>2010-09-05T08:32:49Z</time>
      </trkpt>
      <trkpt lat="43.73986" lon="6.58827">
        <ele>1236</ele>
        <time>2010-09-05T08:33:01Z</time>
      </trkpt>
      <trkpt lat="43.73988" lon="6.58822">
        <ele>1237</ele>
        <time>2010-09-05T08:33:06Z</time>
      </trkpt>
      <trkpt lat="43.73986" lon="6.58808">
        <ele>1240</ele>
        <time>2010-09-05T08:33:43Z</time>
      </trkpt>
      <trkpt lat="43.7398" lon="6.58799">
        <ele>1241</ele>
        <time>2010-09-05T08:33:56Z</time>
      </trkpt>
      <trkpt lat="43.73979" lon="6.58798">
        <ele>1240</ele>
        <time>2010-09-05T08:33:59Z</time>
      </trkpt>
      <trkpt lat="43.73978" lon="6.58797">
        <ele>1242</ele>
        <time>2010-09-05T08:34:02Z</time>
      </trkpt>
      <trkpt lat="43.73971" lon="6.58791">
        <ele>1242</ele>
        <time>2010-09-05T08:34:15Z</time>
      </trkpt>
      <trkpt lat="43.73969" lon="6.58785">
        <ele>1244</ele>
        <time>2010-09-05T08:34:30Z</time>
      </trkpt>
      <trkpt lat="43.73976" lon="6.58786">
        <ele>1243</ele>
        <time>2010-09-05T08:34:42Z</time>
      </trkpt>
      <trkpt lat="43.7398" lon="6.58785">
        <ele>1247</ele>
        <time>2010-09-05T08:34:54Z</time>
      </trkpt>
      <trkpt lat="43.7398" lon="6.58782">
        <ele>1245</ele>
        <time>2010-09-05T08:34:57Z</time>
      </trkpt>
      <trkpt lat="43.7398" lon="6.58781">
        <ele>1247</ele>
        <time>2010-09-05T08:35:02Z</time>
      </trkpt>
      <trkpt lat="43.73969" lon="6.58769">
        <ele>1249</ele>
        <time>2010-09-05T08:35:22Z</time>
      </trkpt>
      <trkpt lat="43.7397" lon="6.58757">
        <ele>1250</ele>
        <time>2010-09-05T08:35:40Z</time>
      </trkpt>
      <trkpt lat="43.73984" lon="6.58758">
        <ele>1254</ele>
        <time>2010-09-05T08:36:03Z</time>
      </trkpt>
      <trkpt lat="43.73998" lon="6.58757">
        <ele>1257</ele>
        <time>2010-09-05T08:36:26Z</time>
      </trkpt>
      <trkpt lat="43.74003" lon="6.58759">
        <ele>1257</ele>
        <time>2010-09-05T08:36:50Z</time>
      </trkpt>
      <trkpt lat="43.74008" lon="6.58753">
        <ele>1260</ele>
        <time>2010-09-05T08:37:15Z</time>
      </trkpt>
      <trkpt lat="43.74009" lon="6.58748">
        <ele>1260</ele>
        <time>2010-09-05T08:39:38Z</time>
      </trkpt>
      <trkpt lat="43.74011" lon="6.58739">
        <ele>1265</ele>
        <time>2010-09-05T08:41:17Z</time>
      </trkpt>
      <trkpt lat="43.74019" lon="6.5874">
        <ele>1264</ele>
        <time>2010-09-05T08:41:35Z</time>
      </trkpt>
      <trkpt lat="43.74019" lon="6.5874">
        <ele>1267</ele>
        <time>2010-09-05T08:41:36Z</time>
      </trkpt>
      <trkpt lat="43.74026" lon="6.58743">
        <ele>1267</ele>
        <time>2010-09-05T08:41:43Z</time>
      </trkpt>
      <trkpt lat="43.74035" lon="6.58741">
        <ele>1269</ele>
        <time>2010-09-05T08:41:57Z</time>
      </trkpt>
      <trkpt lat="43.74035" lon="6.58737">
        <ele>1270</ele>
        <time>2010-09-05T08:42:09Z</time>
      </trkpt>
      <trkpt lat="43.74031" lon="6.58729">
        <ele>1271</ele>
        <time>2010-09-05T08:42:20Z</time>
      </trkpt>
      <trkpt lat="43.74025" lon="6.58721">
        <ele>1273</ele>
        <time>2010-09-05T08:42:29Z</time>
      </trkpt>
      <trkpt lat="43.7402" lon="6.58716">
        <ele>1273</ele>
        <time>2010-09-05T08:42:38Z</time>
      </trkpt>
      <trkpt lat="43.74015" lon="6.58707">
        <ele>1273</ele>
        <time>2010-09-05T08:42:51Z</time>
      </trkpt>
      <trkpt lat="43.74022" lon="6.58699">
        <ele>1277</ele>
        <time>2010-09-05T08:43:02Z</time>
      </trkpt>
      <trkpt lat="43.74016" lon="6.58682">
        <ele>1278</ele>
        <time>2010-09-05T08:43:22Z</time>
      </trkpt>
      <trkpt lat="43.74018" lon="6.58678">
        <ele>1279</ele>
        <time>2010-09-05T08:43:27Z</time>
      </trkpt>
      <trkpt lat="43.74016" lon="6.5867">
        <ele>1281</ele>
        <time>2010-09-05T08:43:37Z</time>
      </trkpt>
      <trkpt lat="43.74023" lon="6.58666">
        <ele>1281</ele>
        <time>2010-09-05T08:43:48Z</time>
      </trkpt>
      <trkpt lat="43.74029" lon="6.58666">
        <ele>1283</ele>
        <time>2010-09-05T08:44:01Z</time>
      </trkpt>
      <trkpt lat="43.74039" lon="6.58663">
        <ele>1284</ele>
        <time>2010-09-05T08:44:24Z</time>
      </trkpt>
      <trkpt lat="43.74043" lon="6.58664">
        <ele>1284</ele>
        <time>2010-09-05T08:44:29Z</time>
      </trkpt>
      <trkpt lat="43.74051" lon="6.58665">
        <ele>1286</ele>
        <time>2010-09-05T08:44:41Z</time>
      </trkpt>
      <trkpt lat="43.74058" lon="6.58665">
        <ele>1287</ele>
        <time>2010-09-05T08:44:51Z</time>
      </trkpt>
      <trkpt lat="43.74062" lon="6.58664">
        <ele>1284</ele>
        <time>2010-09-05T08:44:59Z</time>
      </trkpt>
      <trkpt lat="43.74063" lon="6.58664">
        <ele>1288</ele>
        <time>2010-09-05T08:45:00Z</time>
      </trkpt>
      <trkpt lat="43.74067" lon="6.58663">
        <ele>1290</ele>
        <time>2010-09-05T08:45:10Z</time>
      </trkpt>
      <trkpt lat="43.74075" lon="6.58661">
        <ele>1291</ele>
        <time>2010-09-05T08:45:22Z</time>
      </trkpt>
      <trkpt lat="43.74076" lon="6.58657">
        <ele>1294</ele>
        <time>2010-09-05T08:45:31Z</time>
      </trkpt>
      <trkpt lat="43.74078" lon="6.58656">
        <ele>1290</ele>
        <time>2010-09-05T08:45:38Z</time>
      </trkpt>
      <trkpt lat="43.7408" lon="6.58654">
        <ele>1294</ele>
        <time>2010-09-05T08:45:41Z</time>
      </trkpt>
      <trkpt lat="43.74091" lon="6.5865">
        <ele>1295</ele>
        <time>2010-09-05T08:46:00Z</time>
      </trkpt>
      <trkpt lat="43.74096" lon="6.58637">
        <ele>1297</ele>
        <time>2010-09-05T08:46:16Z</time>
      </trkpt>
      <trkpt lat="43.74104" lon="6.58637">
        <ele>1299</ele>
        <time>2010-09-05T08:46:32Z</time>
      </trkpt>
      <trkpt lat="43.74104" lon="6.58637">
        <ele>1300</ele>
        <time>2010-09-05T08:46:33Z</time>
      </trkpt>
      <trkpt lat="43.74107" lon="6.58633">
        <ele>1301</ele>
        <time>2010-09-05T08:46:41Z</time>
      </trkpt>
      <trkpt lat="43.74113" lon="6.58622">
        <ele>1302</ele>
        <time>2010-09-05T08:46:58Z</time>
      </trkpt>
      <trkpt lat="43.7412" lon="6.5862">
        <ele>1304</ele>
        <time>2010-09-05T08:47:12Z</time>
      </trkpt>
      <trkpt lat="43.74129" lon="6.58615">
        <ele>1306</ele>
        <time>2010-09-05T08:47:27Z</time>
      </trkpt>
      <trkpt lat="43.74142" lon="6.58606">
        <ele>1308</ele>
        <time>2010-09-05T08:47:59Z</time>
      </trkpt>
      <trkpt lat="43.74144" lon="6.58594">
        <ele>1311</ele>
        <time>2010-09-05T08:48:20Z</time>
      </trkpt>
      <trkpt lat="43.74144" lon="6.58594">
        <ele>1311</ele>
        <time>2010-09-05T08:48:21Z</time>
      </trkpt>
      <trkpt lat="43.74142" lon="6.58582">
        <ele>1311</ele>
        <time>2010-09-05T08:48:37Z</time>
      </trkpt>
      <trkpt lat="43.74144" lon="6.58576">
        <ele>1315</ele>
        <time>2010-09-05T08:48:46Z</time>
      </trkpt>
      <trkpt lat="43.74145" lon="6.58576">
        <ele>1315</ele>
        <time>2010-09-05T08:48:47Z</time>
      </trkpt>
      <trkpt lat="43.74149" lon="6.58561">
        <ele>1316</ele>
        <time>2010-09-05T08:49:05Z</time>
      </trkpt>
      <trkpt lat="43.74149" lon="6.58548">
        <ele>1319</ele>
        <time>2010-09-05T08:49:22Z</time>
      </trkpt>
      <trkpt lat="43.7415" lon="6.58543">
        <ele>1320</ele>
        <time>2010-09-05T08:49:47Z</time>
      </trkpt>
      <trkpt lat="43.74145" lon="6.58545">
        <ele>1311</ele>
        <time>2010-09-05T08:51:15Z</time>
      </trkpt>
      <trkpt lat="43.74145" lon="6.58545">
        <ele>1319</ele>
        <time>2010-09-05T08:51:16Z</time>
      </trkpt>
      <trkpt lat="43.74145" lon="6.58545">
        <ele>1320</ele>
        <time>2010-09-05T08:52:01Z</time>
      </trkpt>
      <trkpt lat="43.74143" lon="6.58546">
        <ele>1320</ele>
        <time>2010-09-05T08:54:50Z</time>
      </trkpt>
      <trkpt lat="43.74149" lon="6.58545">
        <ele>1321</ele>
        <time>2010-09-05T08:55:53Z</time>
      </trkpt>
      <trkpt lat="43.7415" lon="6.58542">
        <ele>1321</ele>
        <time>2010-09-05T08:56:16Z</time>
      </trkpt>
      <trkpt lat="43.74154" lon="6.58539">
        <ele>1322</ele>
        <time>2010-09-05T08:56:27Z</time>
      </trkpt>
      <trkpt lat="43.74158" lon="6.58533">
        <ele>1324</ele>
        <time>2010-09-05T08:56:45Z</time>
      </trkpt>
      <trkpt lat="43.74161" lon="6.58529">
        <ele>1325</ele>
        <time>2010-09-05T08:56:54Z</time>
      </trkpt>
      <trkpt lat="43.74165" lon="6.58525">
        <ele>1326</ele>
        <time>2010-09-05T08:57:09Z</time>
      </trkpt>
      <trkpt lat="43.74172" lon="6.58526">
        <ele>1328</ele>
        <time>2010-09-05T08:57:24Z</time>
      </trkpt>
      <trkpt lat="43.74178" lon="6.58524">
        <ele>1329</ele>
        <time>2010-09-05T08:57:34Z</time>
      </trkpt>
      <trkpt lat="43.74181" lon="6.58522">
        <ele>1330</ele>
        <time>2010-09-05T08:57:48Z</time>
      </trkpt>
      <trkpt lat="43.74187" lon="6.58516">
        <ele>1332</ele>
        <time>2010-09-05T08:58:03Z</time>
      </trkpt>
      <trkpt lat="43.74189" lon="6.58515">
        <ele>1333</ele>
        <time>2010-09-05T08:58:28Z</time>
      </trkpt>
      <trkpt lat="43.7419" lon="6.58515">
        <ele>1333</ele>
        <time>2010-09-05T08:58:49Z</time>
      </trkpt>
      <trkpt lat="43.7419" lon="6.58515">
        <ele>1332</ele>
        <time>2010-09-05T08:58:50Z</time>
      </trkpt>
      <trkpt lat="43.74193" lon="6.58512">
        <ele>1333</ele>
        <time>2010-09-05T08:58:57Z</time>
      </trkpt>
      <trkpt lat="43.74202" lon="6.58508">
        <ele>1334</ele>
        <time>2010-09-05T08:59:08Z</time>
      </trkpt>
      <trkpt lat="43.74205" lon="6.58506">
        <ele>1335</ele>
        <time>2010-09-05T08:59:18Z</time>
      </trkpt>
      <trkpt lat="43.74213" lon="6.58505">
        <ele>1336</ele>
        <time>2010-09-05T08:59:37Z</time>
      </trkpt>
      <trkpt lat="43.74235" lon="6.58492">
        <ele>1340</ele>
        <time>2010-09-05T09:00:15Z</time>
      </trkpt>
      <trkpt lat="43.74241" lon="6.58492">
        <ele>1341</ele>
        <time>2010-09-05T09:00:34Z</time>
      </trkpt>
      <trkpt lat="43.74255" lon="6.58497">
        <ele>1344</ele>
        <time>2010-09-05T09:01:05Z</time>
      </trkpt>
      <trkpt lat="43.74262" lon="6.58506">
        <ele>1345</ele>
        <time>2010-09-05T09:01:15Z</time>
      </trkpt>
      <trkpt lat="43.74267" lon="6.58511">
        <ele>1345</ele>
        <time>2010-09-05T09:01:26Z</time>
      </trkpt>
      <trkpt lat="43.74268" lon="6.58517">
        <ele>1345</ele>
        <time>2010-09-05T09:01:39Z</time>
      </trkpt>
      <trkpt lat="43.74268" lon="6.58518">
        <ele>1344</ele>
        <time>2010-09-05T09:02:01Z</time>
      </trkpt>
      <trkpt lat="43.74268" lon="6.58517">
        <ele>1348</ele>
        <time>2010-09-05T09:02:21Z</time>
      </trkpt>
      <trkpt lat="43.74268" lon="6.58517">
        <ele>1346</ele>
        <time>2010-09-05T09:02:22Z</time>
      </trkpt>
      <trkpt lat="43.74268" lon="6.58517">
        <ele>1346</ele>
        <time>2010-09-05T09:02:24Z</time>
      </trkpt>
      <trkpt lat="43.74267" lon="6.58518">
        <ele>1341</ele>
        <time>2010-09-05T09:02:51Z</time>
      </trkpt>
      <trkpt lat="43.74268" lon="6.58518">
        <ele>1345</ele>
        <time>2010-09-05T09:02:52Z</time>
      </trkpt>
      <trkpt lat="43.74266" lon="6.58512">
        <ele>1344</ele>
        <time>2010-09-05T09:03:14Z</time>
      </trkpt>
      <trkpt lat="43.74266" lon="6.58512">
        <ele>1345</ele>
        <time>2010-09-05T09:04:52Z</time>
      </trkpt>
      <trkpt lat="43.74266" lon="6.58512">
        <ele>1345</ele>
        <time>2010-09-05T09:05:13Z</time>
      </trkpt>
      <trkpt lat="43.74266" lon="6.58512">
        <ele>1345</ele>
        <time>2010-09-05T09:06:40Z</time>
      </trkpt>
      <trkpt lat="43.74267" lon="6.58516">
        <ele>1345</ele>
        <time>2010-09-05T09:06:52Z</time>
      </trkpt>
      <trkpt lat="43.74268" lon="6.58516">
        <ele>1345</ele>
        <time>2010-09-05T09:06:53Z</time>
      </trkpt>
      <trkpt lat="43.74269" lon="6.58516">
        <ele>1345</ele>
        <time>2010-09-05T09:07:09Z</time>
      </trkpt>
      <trkpt lat="43.74266" lon="6.58514">
        <ele>1345</ele>
        <time>2010-09-05T09:07:27Z</time>
      </trkpt>
      <trkpt lat="43.74267" lon="6.58514">
        <ele>1345</ele>
        <time>2010-09-05T09:07:31Z</time>
      </trkpt>
      <trkpt lat="43.74266" lon="6.58518">
        <ele>1345</ele>
        <time>2010-09-05T09:07:44Z</time>
      </trkpt>
      <trkpt lat="43.74269" lon="6.58518">
        <ele>1345</ele>
        <time>2010-09-05T09:07:54Z</time>
      </trkpt>
      <trkpt lat="43.74269" lon="6.58516">
        <ele>1346</ele>
        <time>2010-09-05T09:11:50Z</time>
      </trkpt>
      <trkpt lat="43.74269" lon="6.58515">
        <ele>1346</ele>
        <time>2010-09-05T09:12:05Z</time>
      </trkpt>
      <trkpt lat="43.74267" lon="6.58515">
        <ele>1346</ele>
        <time>2010-09-05T09:12:17Z</time>
      </trkpt>
      <trkpt lat="43.74266" lon="6.58514">
        <ele>1346</ele>
        <time>2010-09-05T09:13:18Z</time>
      </trkpt>
      <trkpt lat="43.74268" lon="6.58514">
        <ele>1348</ele>
        <time>2010-09-05T09:18:09Z</time>
      </trkpt>
      <trkpt lat="43.74265" lon="6.58511">
        <ele>1348</ele>
        <time>2010-09-05T09:20:39Z</time>
      </trkpt>
      <trkpt lat="43.74272" lon="6.58502">
        <ele>1349</ele>
        <time>2010-09-05T09:20:53Z</time>
      </trkpt>
      <trkpt lat="43.7429" lon="6.58522">
        <ele>1350</ele>
        <time>2010-09-05T09:22:29Z</time>
      </trkpt>
      <trkpt lat="43.74294" lon="6.5853">
        <ele>1350</ele>
        <time>2010-09-05T09:22:41Z</time>
      </trkpt>
      <trkpt lat="43.74299" lon="6.58541">
        <ele>1350</ele>
        <time>2010-09-05T09:22:51Z</time>
      </trkpt>
      <trkpt lat="43.74301" lon="6.58556">
        <ele>1350</ele>
        <time>2010-09-05T09:23:07Z</time>
      </trkpt>
      <trkpt lat="43.74296" lon="6.58575">
        <ele>1350</ele>
        <time>2010-09-05T09:23:25Z</time>
      </trkpt>
      <trkpt lat="43.74308" lon="6.58586">
        <ele>1353</ele>
        <time>2010-09-05T09:23:57Z</time>
      </trkpt>
      <trkpt lat="43.74326" lon="6.58595">
        <ele>1357</ele>
        <time>2010-09-05T09:24:28Z</time>
      </trkpt>
      <trkpt lat="43.74331" lon="6.58626">
        <ele>1359</ele>
        <time>2010-09-05T09:24:57Z</time>
      </trkpt>
      <trkpt lat="43.74321" lon="6.58644">
        <ele>1361</ele>
        <time>2010-09-05T09:25:18Z</time>
      </trkpt>
      <trkpt lat="43.74315" lon="6.58658">
        <ele>1362</ele>
        <time>2010-09-05T09:25:34Z</time>
      </trkpt>
      <trkpt lat="43.74314" lon="6.5867">
        <ele>1363</ele>
        <time>2010-09-05T09:25:51Z</time>
      </trkpt>
      <trkpt lat="43.74304" lon="6.58695">
        <ele>1365</ele>
        <time>2010-09-05T09:26:18Z</time>
      </trkpt>
      <trkpt lat="43.74307" lon="6.58703">
        <ele>1367</ele>
        <time>2010-09-05T09:26:36Z</time>
      </trkpt>
      <trkpt lat="43.74302" lon="6.58718">
        <ele>1368</ele>
        <time>2010-09-05T09:26:52Z</time>
      </trkpt>
      <trkpt lat="43.74304" lon="6.58727">
        <ele>1369</ele>
        <time>2010-09-05T09:27:07Z</time>
      </trkpt>
      <trkpt lat="43.74303" lon="6.58731">
        <ele>1370</ele>
        <time>2010-09-05T09:27:18Z</time>
      </trkpt>
      <trkpt lat="43.74303" lon="6.58738">
        <ele>1370</ele>
        <time>2010-09-05T09:27:31Z</time>
      </trkpt>
      <trkpt lat="43.74306" lon="6.58747">
        <ele>1371</ele>
        <time>2010-09-05T09:27:42Z</time>
      </trkpt>
      <trkpt lat="43.7431" lon="6.58755">
        <ele>1373</ele>
        <time>2010-09-05T09:27:56Z</time>
      </trkpt>
      <trkpt lat="43.74312" lon="6.58765">
        <ele>1375</ele>
        <time>2010-09-05T09:28:13Z</time>
      </trkpt>
      <trkpt lat="43.74313" lon="6.58776">
        <ele>1375</ele>
        <time>2010-09-05T09:28:25Z</time>
      </trkpt>
      <trkpt lat="43.74315" lon="6.58779">
        <ele>1376</ele>
        <time>2010-09-05T09:28:39Z</time>
      </trkpt>
      <trkpt lat="43.74319" lon="6.58787">
        <ele>1378</ele>
        <time>2010-09-05T09:28:54Z</time>
      </trkpt>
      <trkpt lat="43.74321" lon="6.58806">
        <ele>1380</ele>
        <time>2010-09-05T09:29:15Z</time>
      </trkpt>
      <trkpt lat="43.74323" lon="6.58818">
        <ele>1381</ele>
        <time>2010-09-05T09:29:27Z</time>
      </trkpt>
      <trkpt lat="43.74327" lon="6.58829">
        <ele>1383</ele>
        <time>2010-09-05T09:29:41Z</time>
      </trkpt>
      <trkpt lat="43.74334" lon="6.58836">
        <ele>1385</ele>
        <time>2010-09-05T09:30:05Z</time>
      </trkpt>
      <trkpt lat="43.74339" lon="6.58847">
        <ele>1387</ele>
        <time>2010-09-05T09:30:26Z</time>
      </trkpt>
      <trkpt lat="43.74345" lon="6.58871">
        <ele>1391</ele>
        <time>2010-09-05T09:30:57Z</time>
      </trkpt>
      <trkpt lat="43.74342" lon="6.58896">
        <ele>1394</ele>
        <time>2010-09-05T09:31:39Z</time>
      </trkpt>
      <trkpt lat="43.74351" lon="6.58915">
        <ele>1396</ele>
        <time>2010-09-05T09:32:19Z</time>
      </trkpt>
      <trkpt lat="43.74357" lon="6.58928">
        <ele>1398</ele>
        <time>2010-09-05T09:32:31Z</time>
      </trkpt>
      <trkpt lat="43.74365" lon="6.58946">
        <ele>1402</ele>
        <time>2010-09-05T09:33:02Z</time>
      </trkpt>
      <trkpt lat="43.74371" lon="6.58977">
        <ele>1405</ele>
        <time>2010-09-05T09:33:29Z</time>
      </trkpt>
      <trkpt lat="43.74379" lon="6.59017">
        <ele>1407</ele>
        <time>2010-09-05T09:34:05Z</time>
      </trkpt>
      <trkpt lat="43.74386" lon="6.59032">
        <ele>1409</ele>
        <time>2010-09-05T09:34:26Z</time>
      </trkpt>
      <trkpt lat="43.74396" lon="6.59052">
        <ele>1413</ele>
        <time>2010-09-05T09:34:48Z</time>
      </trkpt>
      <trkpt lat="43.74392" lon="6.59065">
        <ele>1414</ele>
        <time>2010-09-05T09:35:02Z</time>
      </trkpt>
      <trkpt lat="43.74391" lon="6.59084">
        <ele>1417</ele>
        <time>2010-09-05T09:35:34Z</time>
      </trkpt>
      <trkpt lat="43.74384" lon="6.59141">
        <ele>1420</ele>
        <time>2010-09-05T09:36:13Z</time>
      </trkpt>
      <trkpt lat="43.74379" lon="6.59151">
        <ele>1420</ele>
        <time>2010-09-05T09:36:27Z</time>
      </trkpt>
      <trkpt lat="43.74378" lon="6.59186">
        <ele>1422</ele>
        <time>2010-09-05T09:36:53Z</time>
      </trkpt>
      <trkpt lat="43.74373" lon="6.59202">
        <ele>1423</ele>
        <time>2010-09-05T09:37:25Z</time>
      </trkpt>
      <trkpt lat="43.7438" lon="6.5928">
        <ele>1427</ele>
        <time>2010-09-05T09:39:47Z</time>
      </trkpt>
      <trkpt lat="43.74387" lon="6.59301">
        <ele>1429</ele>
        <time>2010-09-05T09:40:22Z</time>
      </trkpt>
      <trkpt lat="43.74383" lon="6.59332">
        <ele>1429</ele>
        <time>2010-09-05T09:40:50Z</time>
      </trkpt>
      <trkpt lat="43.74383" lon="6.59347">
        <ele>1431</ele>
        <time>2010-09-05T09:41:01Z</time>
      </trkpt>
      <trkpt lat="43.74381" lon="6.59351">
        <ele>1431</ele>
        <time>2010-09-05T09:41:21Z</time>
      </trkpt>
      <trkpt lat="43.74389" lon="6.59356">
        <ele>1431</ele>
        <time>2010-09-05T09:41:35Z</time>
      </trkpt>
      <trkpt lat="43.74398" lon="6.59402">
        <ele>1432</ele>
        <time>2010-09-05T09:42:28Z</time>
      </trkpt>
      <trkpt lat="43.74405" lon="6.59425">
        <ele>1433</ele>
        <time>2010-09-05T09:42:47Z</time>
      </trkpt>
      <trkpt lat="43.74402" lon="6.59443">
        <ele>1433</ele>
        <time>2010-09-05T09:43:01Z</time>
      </trkpt>
      <trkpt lat="43.74413" lon="6.59455">
        <ele>1434</ele>
        <time>2010-09-05T09:43:19Z</time>
      </trkpt>
      <trkpt lat="43.74418" lon="6.59485">
        <ele>1436</ele>
        <time>2010-09-05T09:43:43Z</time>
      </trkpt>
      <trkpt lat="43.74419" lon="6.59505">
        <ele>1437</ele>
        <time>2010-09-05T09:43:57Z</time>
      </trkpt>
      <trkpt lat="43.74427" lon="6.59534">
        <ele>1437</ele>
        <time>2010-09-05T09:44:19Z</time>
      </trkpt>
      <trkpt lat="43.74429" lon="6.59541">
        <ele>1438</ele>
        <time>2010-09-05T09:44:24Z</time>
      </trkpt>
      <trkpt lat="43.74435" lon="6.59554">
        <ele>1438</ele>
        <time>2010-09-05T09:44:35Z</time>
      </trkpt>
      <trkpt lat="43.74445" lon="6.59561">
        <ele>1438</ele>
        <time>2010-09-05T09:44:44Z</time>
      </trkpt>
      <trkpt lat="43.7445" lon="6.59577">
        <ele>1438</ele>
        <time>2010-09-05T09:44:57Z</time>
      </trkpt>
      <trkpt lat="43.7446" lon="6.59599">
        <ele>1437</ele>
        <time>2010-09-05T09:45:12Z</time>
      </trkpt>
      <trkpt lat="43.7446" lon="6.5962">
        <ele>1437</ele>
        <time>2010-09-05T09:45:25Z</time>
      </trkpt>
      <trkpt lat="43.74458" lon="6.59637">
        <ele>1438</ele>
        <time>2010-09-05T09:45:35Z</time>
      </trkpt>
      <trkpt lat="43.74455" lon="6.59666">
        <ele>1439</ele>
        <time>2010-09-05T09:46:02Z</time>
      </trkpt>
      <trkpt lat="43.74454" lon="6.59693">
        <ele>1440</ele>
        <time>2010-09-05T09:46:16Z</time>
      </trkpt>
      <trkpt lat="43.74455" lon="6.59701">
        <ele>1446</ele>
        <time>2010-09-05T09:46:23Z</time>
      </trkpt>
      <trkpt lat="43.74455" lon="6.59702">
        <ele>1442</ele>
        <time>2010-09-05T09:46:24Z</time>
      </trkpt>
      <trkpt lat="43.74455" lon="6.59705">
        <ele>1439</ele>
        <time>2010-09-05T09:46:26Z</time>
      </trkpt>
      <trkpt lat="43.74456" lon="6.59707">
        <ele>1443</ele>
        <time>2010-09-05T09:46:28Z</time>
      </trkpt>
      <trkpt lat="43.74456" lon="6.59709">
        <ele>1439</ele>
        <time>2010-09-05T09:46:30Z</time>
      </trkpt>
      <trkpt lat="43.74455" lon="6.5971">
        <ele>1439</ele>
        <time>2010-09-05T09:46:31Z</time>
      </trkpt>
      <trkpt lat="43.74455" lon="6.59715">
        <ele>1439</ele>
        <time>2010-09-05T09:46:44Z</time>
      </trkpt>
      <trkpt lat="43.74453" lon="6.5972">
        <ele>1441</ele>
        <time>2010-09-05T09:47:08Z</time>
      </trkpt>
      <trkpt lat="43.74454" lon="6.59723">
        <ele>1440</ele>
        <time>2010-09-05T09:47:54Z</time>
      </trkpt>
      <trkpt lat="43.74452" lon="6.59744">
        <ele>1440</ele>
        <time>2010-09-05T09:49:29Z</time>
      </trkpt>
      <trkpt lat="43.74451" lon="6.5977">
        <ele>1440</ele>
        <time>2010-09-05T09:50:07Z</time>
      </trkpt>
      <trkpt lat="43.74462" lon="6.59778">
        <ele>1439</ele>
        <time>2010-09-05T09:51:36Z</time>
      </trkpt>
      <trkpt lat="43.74457" lon="6.59821">
        <ele>1439</ele>
        <time>2010-09-05T09:52:19Z</time>
      </trkpt>
      <trkpt lat="43.74451" lon="6.5983">
        <ele>1440</ele>
        <time>2010-09-05T09:52:40Z</time>
      </trkpt>
      <trkpt lat="43.74433" lon="6.59855">
        <ele>1441</ele>
        <time>2010-09-05T09:54:03Z</time>
      </trkpt>
      <trkpt lat="43.74429" lon="6.59875">
        <ele>1441</ele>
        <time>2010-09-05T09:54:21Z</time>
      </trkpt>
      <trkpt lat="43.7443" lon="6.59885">
        <ele>1428</ele>
        <time>2010-09-05T09:55:16Z</time>
      </trkpt>
      <trkpt lat="43.7443" lon="6.59885">
        <ele>1441</ele>
        <time>2010-09-05T09:55:17Z</time>
      </trkpt>
      <trkpt lat="43.74451" lon="6.59894">
        <ele>1442</ele>
        <time>2010-09-05T09:56:51Z</time>
      </trkpt>
      <trkpt lat="43.74456" lon="6.59899">
        <ele>1442</ele>
        <time>2010-09-05T09:57:10Z</time>
      </trkpt>
      <trkpt lat="43.74462" lon="6.59902">
        <ele>1442</ele>
        <time>2010-09-05T09:57:21Z</time>
      </trkpt>
      <trkpt lat="43.74462" lon="6.59911">
        <ele>1443</ele>
        <time>2010-09-05T09:57:38Z</time>
      </trkpt>
      <trkpt lat="43.74466" lon="6.59927">
        <ele>1444</ele>
        <time>2010-09-05T09:57:50Z</time>
      </trkpt>
      <trkpt lat="43.74471" lon="6.59942">
        <ele>1444</ele>
        <time>2010-09-05T09:58:03Z</time>
      </trkpt>
      <trkpt lat="43.74482" lon="6.59959">
        <ele>1444</ele>
        <time>2010-09-05T09:58:19Z</time>
      </trkpt>
      <trkpt lat="43.74487" lon="6.59976">
        <ele>1445</ele>
        <time>2010-09-05T09:58:33Z</time>
      </trkpt>
      <trkpt lat="43.74487" lon="6.59976">
        <ele>1445</ele>
        <time>2010-09-05T09:58:36Z</time>
      </trkpt>
      <trkpt lat="43.745" lon="6.59993">
        <ele>1446</ele>
        <time>2010-09-05T09:58:52Z</time>
      </trkpt>
      <trkpt lat="43.74505" lon="6.60011">
        <ele>1448</ele>
        <time>2010-09-05T09:59:08Z</time>
      </trkpt>
      <trkpt lat="43.74513" lon="6.60031">
        <ele>1449</ele>
        <time>2010-09-05T09:59:31Z</time>
      </trkpt>
      <trkpt lat="43.74511" lon="6.60036">
        <ele>1449</ele>
        <time>2010-09-05T10:00:01Z</time>
      </trkpt>
      <trkpt lat="43.7452" lon="6.60053">
        <ele>1449</ele>
        <time>2010-09-05T10:00:19Z</time>
      </trkpt>
      <trkpt lat="43.74527" lon="6.60076">
        <ele>1451</ele>
        <time>2010-09-05T10:00:43Z</time>
      </trkpt>
      <trkpt lat="43.74535" lon="6.60089">
        <ele>1453</ele>
        <time>2010-09-05T10:00:56Z</time>
      </trkpt>
      <trkpt lat="43.7454" lon="6.60094">
        <ele>1453</ele>
        <time>2010-09-05T10:01:02Z</time>
      </trkpt>
      <trkpt lat="43.74549" lon="6.60105">
        <ele>1454</ele>
        <time>2010-09-05T10:01:14Z</time>
      </trkpt>
      <trkpt lat="43.74555" lon="6.6012">
        <ele>1454</ele>
        <time>2010-09-05T10:01:25Z</time>
      </trkpt>
      <trkpt lat="43.74556" lon="6.60126">
        <ele>1454</ele>
        <time>2010-09-05T10:01:29Z</time>
      </trkpt>
      <trkpt lat="43.74558" lon="6.60133">
        <ele>1454</ele>
        <time>2010-09-05T10:01:34Z</time>
      </trkpt>
      <trkpt lat="43.74554" lon="6.6015">
        <ele>1455</ele>
        <time>2010-09-05T10:01:45Z</time>
      </trkpt>
      <trkpt lat="43.74553" lon="6.60165">
        <ele>1454</ele>
        <time>2010-09-05T10:01:57Z</time>
      </trkpt>
      <trkpt lat="43.74531" lon="6.60192">
        <ele>1456</ele>
        <time>2010-09-05T10:02:33Z</time>
      </trkpt>
      <trkpt lat="43.74532" lon="6.60202">
        <ele>1456</ele>
        <time>2010-09-05T10:02:40Z</time>
      </trkpt>
      <trkpt lat="43.74533" lon="6.60204">
        <ele>1456</ele>
        <time>2010-09-05T10:02:42Z</time>
      </trkpt>
      <trkpt lat="43.74534" lon="6.60209">
        <ele>1456</ele>
        <time>2010-09-05T10:02:46Z</time>
      </trkpt>
      <trkpt lat="43.74535" lon="6.60214">
        <ele>1457</ele>
        <time>2010-09-05T10:02:50Z</time>
      </trkpt>
      <trkpt lat="43.74539" lon="6.60225">
        <ele>1456</ele>
        <time>2010-09-05T10:02:57Z</time>
      </trkpt>
      <trkpt lat="43.74542" lon="6.60235">
        <ele>1456</ele>
        <time>2010-09-05T10:03:04Z</time>
      </trkpt>
      <trkpt lat="43.74546" lon="6.60239">
        <ele>1456</ele>
        <time>2010-09-05T10:03:09Z</time>
      </trkpt>
      <trkpt lat="43.74546" lon="6.60242">
        <ele>1456</ele>
        <time>2010-09-05T10:03:11Z</time>
      </trkpt>
      <trkpt lat="43.74547" lon="6.60251">
        <ele>1455</ele>
        <time>2010-09-05T10:03:17Z</time>
      </trkpt>
      <trkpt lat="43.74548" lon="6.60254">
        <ele>1455</ele>
        <time>2010-09-05T10:03:19Z</time>
      </trkpt>
      <trkpt lat="43.74551" lon="6.60262">
        <ele>1454</ele>
        <time>2010-09-05T10:03:26Z</time>
      </trkpt>
      <trkpt lat="43.74555" lon="6.60268">
        <ele>1454</ele>
        <time>2010-09-05T10:03:32Z</time>
      </trkpt>
      <trkpt lat="43.74562" lon="6.60286">
        <ele>1455</ele>
        <time>2010-09-05T10:03:47Z</time>
      </trkpt>
      <trkpt lat="43.7457" lon="6.60296">
        <ele>1455</ele>
        <time>2010-09-05T10:03:57Z</time>
      </trkpt>
      <trkpt lat="43.74579" lon="6.60319">
        <ele>1455</ele>
        <time>2010-09-05T10:04:16Z</time>
      </trkpt>
      <trkpt lat="43.7458" lon="6.60333">
        <ele>1454</ele>
        <time>2010-09-05T10:04:26Z</time>
      </trkpt>
      <trkpt lat="43.74576" lon="6.6035">
        <ele>1453</ele>
        <time>2010-09-05T10:04:43Z</time>
      </trkpt>
      <trkpt lat="43.74562" lon="6.60364">
        <ele>1452</ele>
        <time>2010-09-05T10:05:07Z</time>
      </trkpt>
      <trkpt lat="43.74559" lon="6.60375">
        <ele>1453</ele>
        <time>2010-09-05T10:05:14Z</time>
      </trkpt>
      <trkpt lat="43.74556" lon="6.60374">
        <ele>1453</ele>
        <time>2010-09-05T10:05:29Z</time>
      </trkpt>
      <trkpt lat="43.74557" lon="6.60375">
        <ele>1453</ele>
        <time>2010-09-05T10:05:59Z</time>
      </trkpt>
      <trkpt lat="43.74557" lon="6.60375">
        <ele>1454</ele>
        <time>2010-09-05T10:06:16Z</time>
      </trkpt>
      <trkpt lat="43.74554" lon="6.60379">
        <ele>1453</ele>
        <time>2010-09-05T10:06:24Z</time>
      </trkpt>
      <trkpt lat="43.74553" lon="6.6039">
        <ele>1452</ele>
        <time>2010-09-05T10:06:33Z</time>
      </trkpt>
      <trkpt lat="43.74554" lon="6.60405">
        <ele>1452</ele>
        <time>2010-09-05T10:06:44Z</time>
      </trkpt>
      <trkpt lat="43.74553" lon="6.60408">
        <ele>1452</ele>
        <time>2010-09-05T10:06:46Z</time>
      </trkpt>
      <trkpt lat="43.74551" lon="6.60413">
        <ele>1453</ele>
        <time>2010-09-05T10:06:49Z</time>
      </trkpt>
      <trkpt lat="43.74551" lon="6.60431">
        <ele>1452</ele>
        <time>2010-09-05T10:07:02Z</time>
      </trkpt>
      <trkpt lat="43.74541" lon="6.60447">
        <ele>1451</ele>
        <time>2010-09-05T10:07:13Z</time>
      </trkpt>
      <trkpt lat="43.74536" lon="6.60454">
        <ele>1450</ele>
        <time>2010-09-05T10:07:24Z</time>
      </trkpt>
      <trkpt lat="43.74529" lon="6.60458">
        <ele>1449</ele>
        <time>2010-09-05T10:07:33Z</time>
      </trkpt>
      <trkpt lat="43.74528" lon="6.6046">
        <ele>1447</ele>
        <time>2010-09-05T10:07:37Z</time>
      </trkpt>
      <trkpt lat="43.74525" lon="6.6046">
        <ele>1447</ele>
        <time>2010-09-05T10:07:39Z</time>
      </trkpt>
      <trkpt lat="43.74524" lon="6.6046">
        <ele>1447</ele>
        <time>2010-09-05T10:07:40Z</time>
      </trkpt>
      <trkpt lat="43.74515" lon="6.60451">
        <ele>1444</ele>
        <time>2010-09-05T10:07:54Z</time>
      </trkpt>
      <trkpt lat="43.7451" lon="6.60445">
        <ele>1442</ele>
        <time>2010-09-05T10:08:06Z</time>
      </trkpt>
      <trkpt lat="43.74508" lon="6.60444">
        <ele>1441</ele>
        <time>2010-09-05T10:08:14Z</time>
      </trkpt>
      <trkpt lat="43.74503" lon="6.60443">
        <ele>1440</ele>
        <time>2010-09-05T10:08:18Z</time>
      </trkpt>
      <trkpt lat="43.74491" lon="6.60435">
        <ele>1438</ele>
        <time>2010-09-05T10:08:30Z</time>
      </trkpt>
      <trkpt lat="43.74485" lon="6.60428">
        <ele>1436</ele>
        <time>2010-09-05T10:08:44Z</time>
      </trkpt>
      <trkpt lat="43.74479" lon="6.60426">
        <ele>1432</ele>
        <time>2010-09-05T10:09:10Z</time>
      </trkpt>
      <trkpt lat="43.7446" lon="6.60417">
        <ele>1432</ele>
        <time>2010-09-05T10:09:38Z</time>
      </trkpt>
      <trkpt lat="43.74446" lon="6.6041">
        <ele>1430</ele>
        <time>2010-09-05T10:09:49Z</time>
      </trkpt>
      <trkpt lat="43.74437" lon="6.60412">
        <ele>1428</ele>
        <time>2010-09-05T10:10:14Z</time>
      </trkpt>
      <trkpt lat="43.74431" lon="6.60414">
        <ele>1427</ele>
        <time>2010-09-05T10:10:27Z</time>
      </trkpt>
      <trkpt lat="43.74417" lon="6.60415">
        <ele>1425</ele>
        <time>2010-09-05T10:10:41Z</time>
      </trkpt>
      <trkpt lat="43.74411" lon="6.60419">
        <ele>1424</ele>
        <time>2010-09-05T10:10:51Z</time>
      </trkpt>
      <trkpt lat="43.74411" lon="6.60419">
        <ele>1420</ele>
        <time>2010-09-05T10:11:22Z</time>
      </trkpt>
      <trkpt lat="43.74411" lon="6.60419">
        <ele>1424</ele>
        <time>2010-09-05T10:11:23Z</time>
      </trkpt>
      <trkpt lat="43.74409" lon="6.6042">
        <ele>1423</ele>
        <time>2010-09-05T10:11:50Z</time>
      </trkpt>
      <trkpt lat="43.74409" lon="6.6042">
        <ele>1434</ele>
        <time>2010-09-05T10:32:57Z</time>
      </trkpt>
      <trkpt lat="43.74409" lon="6.6042">
        <ele>1421</ele>
        <time>2010-09-05T10:32:58Z</time>
      </trkpt>
      <trkpt lat="43.74409" lon="6.6042">
        <ele>1421</ele>
        <time>2010-09-05T10:32:59Z</time>
      </trkpt>
      <trkpt lat="43.74383" lon="6.60439">
        <ele>1420</ele>
        <time>2010-09-05T10:33:00Z</time>
      </trkpt>
      <trkpt lat="43.74387" lon="6.60432">
        <ele>1423</ele>
        <time>2010-09-05T10:33:10Z</time>
      </trkpt>
      <trkpt lat="43.74386" lon="6.60433">
        <ele>1425</ele>
        <time>2010-09-05T10:33:13Z</time>
      </trkpt>
      <trkpt lat="43.74385" lon="6.60434">
        <ele>1429</ele>
        <time>2010-09-05T10:33:20Z</time>
      </trkpt>
      <trkpt lat="43.74385" lon="6.60434">
        <ele>1431</ele>
        <time>2010-09-05T10:33:24Z</time>
      </trkpt>
      <trkpt lat="43.74387" lon="6.60433">
        <ele>1433</ele>
        <time>2010-09-05T10:33:31Z</time>
      </trkpt>
      <trkpt lat="43.74389" lon="6.60431">
        <ele>1433</ele>
        <time>2010-09-05T10:35:50Z</time>
      </trkpt>
      <trkpt lat="43.74389" lon="6.60431">
        <ele>1431</ele>
        <time>2010-09-05T11:03:08Z</time>
      </trkpt>
      <trkpt lat="43.74389" lon="6.60431">
        <ele>1434</ele>
        <time>2010-09-05T11:03:09Z</time>
      </trkpt>
      <trkpt lat="43.74392" lon="6.60417">
        <ele>1435</ele>
        <time>2010-09-05T11:03:16Z</time>
      </trkpt>
      <trkpt lat="43.74398" lon="6.6042">
        <ele>1434</ele>
        <time>2010-09-05T11:04:42Z</time>
      </trkpt>
      <trkpt lat="43.74396" lon="6.6042">
        <ele>1437</ele>
        <time>2010-09-05T11:04:46Z</time>
      </trkpt>
      <trkpt lat="43.74395" lon="6.60421">
        <ele>1434</ele>
        <time>2010-09-05T11:04:49Z</time>
      </trkpt>
      <trkpt lat="43.74394" lon="6.60421">
        <ele>1434</ele>
        <time>2010-09-05T11:05:37Z</time>
      </trkpt>
      <trkpt lat="43.74394" lon="6.60429">
        <ele>1434</ele>
        <time>2010-09-05T11:06:02Z</time>
      </trkpt>
      <trkpt lat="43.74394" lon="6.60429">
        <ele>1434</ele>
        <time>2010-09-05T11:06:03Z</time>
      </trkpt>
      <trkpt lat="43.74394" lon="6.60433">
        <ele>1434</ele>
        <time>2010-09-05T11:06:17Z</time>
      </trkpt>
      <trkpt lat="43.74395" lon="6.60431">
        <ele>1434</ele>
        <time>2010-09-05T11:07:12Z</time>
      </trkpt>
      <trkpt lat="43.74394" lon="6.60429">
        <ele>1434</ele>
        <time>2010-09-05T11:07:55Z</time>
      </trkpt>
      <trkpt lat="43.7439" lon="6.6043">
        <ele>1432</ele>
        <time>2010-09-05T11:08:28Z</time>
      </trkpt>
      <trkpt lat="43.74388" lon="6.60431">
        <ele>1432</ele>
        <time>2010-09-05T11:08:31Z</time>
      </trkpt>
      <trkpt lat="43.74381" lon="6.60439">
        <ele>1431</ele>
        <time>2010-09-05T11:08:44Z</time>
      </trkpt>
      <trkpt lat="43.7438" lon="6.60439">
        <ele>1431</ele>
        <time>2010-09-05T11:08:46Z</time>
      </trkpt>
      <trkpt lat="43.74373" lon="6.60445">
        <ele>1429</ele>
        <time>2010-09-05T11:08:57Z</time>
      </trkpt>
      <trkpt lat="43.74371" lon="6.60448">
        <ele>1428</ele>
        <time>2010-09-05T11:09:00Z</time>
      </trkpt>
      <trkpt lat="43.74362" lon="6.60463">
        <ele>1429</ele>
        <time>2010-09-05T11:09:14Z</time>
      </trkpt>
      <trkpt lat="43.74357" lon="6.60475">
        <ele>1428</ele>
        <time>2010-09-05T11:09:26Z</time>
      </trkpt>
      <trkpt lat="43.74349" lon="6.60484">
        <ele>1426</ele>
        <time>2010-09-05T11:09:39Z</time>
      </trkpt>
      <trkpt lat="43.74347" lon="6.60487">
        <ele>1426</ele>
        <time>2010-09-05T11:09:42Z</time>
      </trkpt>
      <trkpt lat="43.74334" lon="6.60501">
        <ele>1424</ele>
        <time>2010-09-05T11:09:59Z</time>
      </trkpt>
      <trkpt lat="43.74328" lon="6.60505">
        <ele>1423</ele>
        <time>2010-09-05T11:10:12Z</time>
      </trkpt>
      <trkpt lat="43.74322" lon="6.60513">
        <ele>1421</ele>
        <time>2010-09-05T11:10:24Z</time>
      </trkpt>
      <trkpt lat="43.74321" lon="6.60504">
        <ele>1420</ele>
        <time>2010-09-05T11:10:40Z</time>
      </trkpt>
      <trkpt lat="43.74323" lon="6.60494">
        <ele>1418</ele>
        <time>2010-09-05T11:10:49Z</time>
      </trkpt>
      <trkpt lat="43.74318" lon="6.60493">
        <ele>1415</ele>
        <time>2010-09-05T11:12:01Z</time>
      </trkpt>
      <trkpt lat="43.74306" lon="6.60508">
        <ele>1413</ele>
        <time>2010-09-05T11:12:31Z</time>
      </trkpt>
      <trkpt lat="43.74302" lon="6.60517">
        <ele>1411</ele>
        <time>2010-09-05T11:12:53Z</time>
      </trkpt>
      <trkpt lat="43.74295" lon="6.60525">
        <ele>1409</ele>
        <time>2010-09-05T11:13:14Z</time>
      </trkpt>
      <trkpt lat="43.74294" lon="6.60516">
        <ele>1408</ele>
        <time>2010-09-05T11:13:25Z</time>
      </trkpt>
      <trkpt lat="43.74291" lon="6.60521">
        <ele>1406</ele>
        <time>2010-09-05T11:13:47Z</time>
      </trkpt>
      <trkpt lat="43.74286" lon="6.60533">
        <ele>1404</ele>
        <time>2010-09-05T11:14:00Z</time>
      </trkpt>
      <trkpt lat="43.74283" lon="6.60533">
        <ele>1403</ele>
        <time>2010-09-05T11:14:11Z</time>
      </trkpt>
      <trkpt lat="43.74283" lon="6.60516">
        <ele>1400</ele>
        <time>2010-09-05T11:14:29Z</time>
      </trkpt>
      <trkpt lat="43.74283" lon="6.60513">
        <ele>1399</ele>
        <time>2010-09-05T11:14:33Z</time>
      </trkpt>
      <trkpt lat="43.74281" lon="6.60508">
        <ele>1397</ele>
        <time>2010-09-05T11:14:45Z</time>
      </trkpt>
      <trkpt lat="43.74278" lon="6.60513">
        <ele>1396</ele>
        <time>2010-09-05T11:14:58Z</time>
      </trkpt>
      <trkpt lat="43.74273" lon="6.60521">
        <ele>1395</ele>
        <time>2010-09-05T11:15:12Z</time>
      </trkpt>
      <trkpt lat="43.7427" lon="6.60531">
        <ele>1393</ele>
        <time>2010-09-05T11:15:25Z</time>
      </trkpt>
      <trkpt lat="43.74263" lon="6.60539">
        <ele>1392</ele>
        <time>2010-09-05T11:15:38Z</time>
      </trkpt>
      <trkpt lat="43.74261" lon="6.60547">
        <ele>1390</ele>
        <time>2010-09-05T11:15:49Z</time>
      </trkpt>
      <trkpt lat="43.74259" lon="6.6055">
        <ele>1389</ele>
        <time>2010-09-05T11:16:04Z</time>
      </trkpt>
      <trkpt lat="43.74255" lon="6.60561">
        <ele>1387</ele>
        <time>2010-09-05T11:16:18Z</time>
      </trkpt>
      <trkpt lat="43.7425" lon="6.60572">
        <ele>1386</ele>
        <time>2010-09-05T11:16:30Z</time>
      </trkpt>
      <trkpt lat="43.74248" lon="6.60582">
        <ele>1384</ele>
        <time>2010-09-05T11:16:50Z</time>
      </trkpt>
      <trkpt lat="43.74246" lon="6.6059">
        <ele>1383</ele>
        <time>2010-09-05T11:17:02Z</time>
      </trkpt>
      <trkpt lat="43.74243" lon="6.606">
        <ele>1382</ele>
        <time>2010-09-05T11:17:11Z</time>
      </trkpt>
      <trkpt lat="43.7424" lon="6.60615">
        <ele>1378</ele>
        <time>2010-09-05T11:17:32Z</time>
      </trkpt>
      <trkpt lat="43.74238" lon="6.60625">
        <ele>1376</ele>
        <time>2010-09-05T11:17:45Z</time>
      </trkpt>
      <trkpt lat="43.74236" lon="6.60626">
        <ele>1376</ele>
        <time>2010-09-05T11:17:49Z</time>
      </trkpt>
      <trkpt lat="43.74232" lon="6.60618">
        <ele>1373</ele>
        <time>2010-09-05T11:18:02Z</time>
      </trkpt>
      <trkpt lat="43.74227" lon="6.60614">
        <ele>1371</ele>
        <time>2010-09-05T11:18:14Z</time>
      </trkpt>
      <trkpt lat="43.74227" lon="6.60624">
        <ele>1370</ele>
        <time>2010-09-05T11:18:25Z</time>
      </trkpt>
      <trkpt lat="43.74227" lon="6.60636">
        <ele>1369</ele>
        <time>2010-09-05T11:18:35Z</time>
      </trkpt>
      <trkpt lat="43.74225" lon="6.60646">
        <ele>1368</ele>
        <time>2010-09-05T11:18:46Z</time>
      </trkpt>
      <trkpt lat="43.74225" lon="6.60657">
        <ele>1366</ele>
        <time>2010-09-05T11:18:57Z</time>
      </trkpt>
      <trkpt lat="43.74223" lon="6.60667">
        <ele>1365</ele>
        <time>2010-09-05T11:19:07Z</time>
      </trkpt>
      <trkpt lat="43.74223" lon="6.60676">
        <ele>1363</ele>
        <time>2010-09-05T11:19:18Z</time>
      </trkpt>
      <trkpt lat="43.74222" lon="6.60691">
        <ele>1362</ele>
        <time>2010-09-05T11:19:31Z</time>
      </trkpt>
      <trkpt lat="43.7422" lon="6.60703">
        <ele>1359</ele>
        <time>2010-09-05T11:19:44Z</time>
      </trkpt>
      <trkpt lat="43.74219" lon="6.60708">
        <ele>1359</ele>
        <time>2010-09-05T11:19:49Z</time>
      </trkpt>
      <trkpt lat="43.7422" lon="6.60721">
        <ele>1357</ele>
        <time>2010-09-05T11:20:05Z</time>
      </trkpt>
      <trkpt lat="43.74219" lon="6.60735">
        <ele>1355</ele>
        <time>2010-09-05T11:20:19Z</time>
      </trkpt>
      <trkpt lat="43.74216" lon="6.60747">
        <ele>1354</ele>
        <time>2010-09-05T11:20:32Z</time>
      </trkpt>
      <trkpt lat="43.74212" lon="6.60755">
        <ele>1352</ele>
        <time>2010-09-05T11:20:49Z</time>
      </trkpt>
      <trkpt lat="43.74211" lon="6.60761">
        <ele>1350</ele>
        <time>2010-09-05T11:21:04Z</time>
      </trkpt>
      <trkpt lat="43.74208" lon="6.6077">
        <ele>1348</ele>
        <time>2010-09-05T11:21:17Z</time>
      </trkpt>
      <trkpt lat="43.74205" lon="6.60769">
        <ele>1347</ele>
        <time>2010-09-05T11:21:27Z</time>
      </trkpt>
      <trkpt lat="43.74203" lon="6.60766">
        <ele>1346</ele>
        <time>2010-09-05T11:21:41Z</time>
      </trkpt>
      <trkpt lat="43.74199" lon="6.60764">
        <ele>1344</ele>
        <time>2010-09-05T11:21:59Z</time>
      </trkpt>
      <trkpt lat="43.74196" lon="6.60749">
        <ele>1341</ele>
        <time>2010-09-05T11:22:12Z</time>
      </trkpt>
      <trkpt lat="43.74193" lon="6.60737">
        <ele>1339</ele>
        <time>2010-09-05T11:22:24Z</time>
      </trkpt>
      <trkpt lat="43.74188" lon="6.60738">
        <ele>1337</ele>
        <time>2010-09-05T11:22:37Z</time>
      </trkpt>
      <trkpt lat="43.74187" lon="6.60748">
        <ele>1335</ele>
        <time>2010-09-05T11:22:49Z</time>
      </trkpt>
      <trkpt lat="43.74184" lon="6.60757">
        <ele>1333</ele>
        <time>2010-09-05T11:23:00Z</time>
      </trkpt>
      <trkpt lat="43.74183" lon="6.60764">
        <ele>1332</ele>
        <time>2010-09-05T11:23:05Z</time>
      </trkpt>
      <trkpt lat="43.7418" lon="6.60774">
        <ele>1331</ele>
        <time>2010-09-05T11:23:16Z</time>
      </trkpt>
      <trkpt lat="43.74177" lon="6.60766">
        <ele>1328</ele>
        <time>2010-09-05T11:23:27Z</time>
      </trkpt>
      <trkpt lat="43.74175" lon="6.6077">
        <ele>1327</ele>
        <time>2010-09-05T11:23:37Z</time>
      </trkpt>
      <trkpt lat="43.74174" lon="6.60775">
        <ele>1326</ele>
        <time>2010-09-05T11:23:41Z</time>
      </trkpt>
      <trkpt lat="43.74173" lon="6.60783">
        <ele>1326</ele>
        <time>2010-09-05T11:23:47Z</time>
      </trkpt>
      <trkpt lat="43.74172" lon="6.60787">
        <ele>1325</ele>
        <time>2010-09-05T11:23:50Z</time>
      </trkpt>
      <trkpt lat="43.74168" lon="6.60796">
        <ele>1324</ele>
        <time>2010-09-05T11:24:03Z</time>
      </trkpt>
      <trkpt lat="43.74165" lon="6.60806">
        <ele>1321</ele>
        <time>2010-09-05T11:24:16Z</time>
      </trkpt>
      <trkpt lat="43.74162" lon="6.60817">
        <ele>1320</ele>
        <time>2010-09-05T11:24:29Z</time>
      </trkpt>
      <trkpt lat="43.74161" lon="6.60825">
        <ele>1319</ele>
        <time>2010-09-05T11:24:52Z</time>
      </trkpt>
      <trkpt lat="43.74157" lon="6.60832">
        <ele>1316</ele>
        <time>2010-09-05T11:25:01Z</time>
      </trkpt>
      <trkpt lat="43.74153" lon="6.60829">
        <ele>1314</ele>
        <time>2010-09-05T11:25:10Z</time>
      </trkpt>
      <trkpt lat="43.74152" lon="6.60813">
        <ele>1312</ele>
        <time>2010-09-05T11:25:24Z</time>
      </trkpt>
      <trkpt lat="43.7415" lon="6.60802">
        <ele>1310</ele>
        <time>2010-09-05T11:25:33Z</time>
      </trkpt>
      <trkpt lat="43.74147" lon="6.60791">
        <ele>1308</ele>
        <time>2010-09-05T11:25:44Z</time>
      </trkpt>
      <trkpt lat="43.74145" lon="6.60782">
        <ele>1306</ele>
        <time>2010-09-05T11:25:55Z</time>
      </trkpt>
      <trkpt lat="43.74143" lon="6.60776">
        <ele>1305</ele>
        <time>2010-09-05T11:26:05Z</time>
      </trkpt>
      <trkpt lat="43.74137" lon="6.60775">
        <ele>1302</ele>
        <time>2010-09-05T11:26:17Z</time>
      </trkpt>
      <trkpt lat="43.74134" lon="6.60786">
        <ele>1300</ele>
        <time>2010-09-05T11:26:31Z</time>
      </trkpt>
      <trkpt lat="43.74131" lon="6.60785">
        <ele>1298</ele>
        <time>2010-09-05T11:26:40Z</time>
      </trkpt>
      <trkpt lat="43.74126" lon="6.60775">
        <ele>1296</ele>
        <time>2010-09-05T11:26:54Z</time>
      </trkpt>
      <trkpt lat="43.74125" lon="6.60774">
        <ele>1295</ele>
        <time>2010-09-05T11:26:56Z</time>
      </trkpt>
      <trkpt lat="43.74122" lon="6.60765">
        <ele>1294</ele>
        <time>2010-09-05T11:27:06Z</time>
      </trkpt>
      <trkpt lat="43.74121" lon="6.6076">
        <ele>1293</ele>
        <time>2010-09-05T11:27:11Z</time>
      </trkpt>
      <trkpt lat="43.74117" lon="6.60748">
        <ele>1290</ele>
        <time>2010-09-05T11:27:23Z</time>
      </trkpt>
      <trkpt lat="43.74116" lon="6.60747">
        <ele>1290</ele>
        <time>2010-09-05T11:27:24Z</time>
      </trkpt>
      <trkpt lat="43.74113" lon="6.60743">
        <ele>1288</ele>
        <time>2010-09-05T11:27:34Z</time>
      </trkpt>
      <trkpt lat="43.7411" lon="6.60742">
        <ele>1287</ele>
        <time>2010-09-05T11:27:43Z</time>
      </trkpt>
      <trkpt lat="43.74109" lon="6.60744">
        <ele>1287</ele>
        <time>2010-09-05T11:27:46Z</time>
      </trkpt>
      <trkpt lat="43.74108" lon="6.6075">
        <ele>1286</ele>
        <time>2010-09-05T11:27:51Z</time>
      </trkpt>
      <trkpt lat="43.74107" lon="6.60756">
        <ele>1284</ele>
        <time>2010-09-05T11:27:57Z</time>
      </trkpt>
      <trkpt lat="43.74102" lon="6.60763">
        <ele>1283</ele>
        <time>2010-09-05T11:28:08Z</time>
      </trkpt>
      <trkpt lat="43.741" lon="6.60769">
        <ele>1281</ele>
        <time>2010-09-05T11:28:22Z</time>
      </trkpt>
      <trkpt lat="43.74095" lon="6.60783">
        <ele>1278</ele>
        <time>2010-09-05T11:28:37Z</time>
      </trkpt>
      <trkpt lat="43.74092" lon="6.60789">
        <ele>1277</ele>
        <time>2010-09-05T11:28:52Z</time>
      </trkpt>
      <trkpt lat="43.7409" lon="6.60794">
        <ele>1276</ele>
        <time>2010-09-05T11:29:00Z</time>
      </trkpt>
      <trkpt lat="43.74086" lon="6.60804">
        <ele>1273</ele>
        <time>2010-09-05T11:29:13Z</time>
      </trkpt>
      <trkpt lat="43.74084" lon="6.6081">
        <ele>1272</ele>
        <time>2010-09-05T11:29:24Z</time>
      </trkpt>
      <trkpt lat="43.74078" lon="6.60817">
        <ele>1270</ele>
        <time>2010-09-05T11:29:38Z</time>
      </trkpt>
      <trkpt lat="43.74075" lon="6.6082">
        <ele>1269</ele>
        <time>2010-09-05T11:29:42Z</time>
      </trkpt>
      <trkpt lat="43.74076" lon="6.60814">
        <ele>1267</ele>
        <time>2010-09-05T11:29:54Z</time>
      </trkpt>
      <trkpt lat="43.74075" lon="6.60815">
        <ele>1267</ele>
        <time>2010-09-05T11:29:56Z</time>
      </trkpt>
      <trkpt lat="43.74068" lon="6.60825">
        <ele>1265</ele>
        <time>2010-09-05T11:30:07Z</time>
      </trkpt>
      <trkpt lat="43.74064" lon="6.60826">
        <ele>1264</ele>
        <time>2010-09-05T11:30:18Z</time>
      </trkpt>
      <trkpt lat="43.74068" lon="6.60814">
        <ele>1263</ele>
        <time>2010-09-05T11:30:27Z</time>
      </trkpt>
      <trkpt lat="43.74065" lon="6.60811">
        <ele>1260</ele>
        <time>2010-09-05T11:30:37Z</time>
      </trkpt>
      <trkpt lat="43.74061" lon="6.60818">
        <ele>1259</ele>
        <time>2010-09-05T11:30:49Z</time>
      </trkpt>
      <trkpt lat="43.74054" lon="6.60824">
        <ele>1257</ele>
        <time>2010-09-05T11:31:03Z</time>
      </trkpt>
      <trkpt lat="43.74056" lon="6.60815">
        <ele>1255</ele>
        <time>2010-09-05T11:31:13Z</time>
      </trkpt>
      <trkpt lat="43.74058" lon="6.60804">
        <ele>1253</ele>
        <time>2010-09-05T11:31:24Z</time>
      </trkpt>
      <trkpt lat="43.74055" lon="6.60792">
        <ele>1252</ele>
        <time>2010-09-05T11:31:38Z</time>
      </trkpt>
      <trkpt lat="43.7405" lon="6.60783">
        <ele>1249</ele>
        <time>2010-09-05T11:31:52Z</time>
      </trkpt>
      <trkpt lat="43.74049" lon="6.60784">
        <ele>1248</ele>
        <time>2010-09-05T11:31:54Z</time>
      </trkpt>
      <trkpt lat="43.74046" lon="6.60795">
        <ele>1246</ele>
        <time>2010-09-05T11:32:05Z</time>
      </trkpt>
      <trkpt lat="43.74045" lon="6.60799">
        <ele>1246</ele>
        <time>2010-09-05T11:32:09Z</time>
      </trkpt>
      <trkpt lat="43.7404" lon="6.6081">
        <ele>1245</ele>
        <time>2010-09-05T11:32:21Z</time>
      </trkpt>
      <trkpt lat="43.74034" lon="6.60818">
        <ele>1243</ele>
        <time>2010-09-05T11:32:32Z</time>
      </trkpt>
      <trkpt lat="43.7403" lon="6.60818">
        <ele>1242</ele>
        <time>2010-09-05T11:32:36Z</time>
      </trkpt>
      <trkpt lat="43.74028" lon="6.60818">
        <ele>1242</ele>
        <time>2010-09-05T11:32:38Z</time>
      </trkpt>
      <trkpt lat="43.74021" lon="6.60826">
        <ele>1240</ele>
        <time>2010-09-05T11:32:49Z</time>
      </trkpt>
      <trkpt lat="43.7402" lon="6.60828">
        <ele>1240</ele>
        <time>2010-09-05T11:32:51Z</time>
      </trkpt>
      <trkpt lat="43.74015" lon="6.60833">
        <ele>1239</ele>
        <time>2010-09-05T11:32:58Z</time>
      </trkpt>
      <trkpt lat="43.74012" lon="6.60837">
        <ele>1238</ele>
        <time>2010-09-05T11:33:04Z</time>
      </trkpt>
      <trkpt lat="43.74007" lon="6.60841">
        <ele>1236</ele>
        <time>2010-09-05T11:33:15Z</time>
      </trkpt>
      <trkpt lat="43.74" lon="6.60847">
        <ele>1234</ele>
        <time>2010-09-05T11:33:26Z</time>
      </trkpt>
      <trkpt lat="43.73994" lon="6.60853">
        <ele>1233</ele>
        <time>2010-09-05T11:33:38Z</time>
      </trkpt>
      <trkpt lat="43.73994" lon="6.60853">
        <ele>1229</ele>
        <time>2010-09-05T11:33:55Z</time>
      </trkpt>
      <trkpt lat="43.73994" lon="6.60853">
        <ele>1233</ele>
        <time>2010-09-05T11:33:56Z</time>
      </trkpt>
      <trkpt lat="43.73997" lon="6.60846">
        <ele>1231</ele>
        <time>2010-09-05T11:34:12Z</time>
      </trkpt>
      <trkpt lat="43.73988" lon="6.6085">
        <ele>1229</ele>
        <time>2010-09-05T11:34:25Z</time>
      </trkpt>
      <trkpt lat="43.73987" lon="6.60851">
        <ele>1229</ele>
        <time>2010-09-05T11:34:26Z</time>
      </trkpt>
      <trkpt lat="43.73982" lon="6.60861">
        <ele>1228</ele>
        <time>2010-09-05T11:34:41Z</time>
      </trkpt>
      <trkpt lat="43.73977" lon="6.60872">
        <ele>1226</ele>
        <time>2010-09-05T11:34:54Z</time>
      </trkpt>
      <trkpt lat="43.73972" lon="6.6088">
        <ele>1224</ele>
        <time>2010-09-05T11:35:08Z</time>
      </trkpt>
      <trkpt lat="43.73971" lon="6.60868">
        <ele>1221</ele>
        <time>2010-09-05T11:35:26Z</time>
      </trkpt>
      <trkpt lat="43.73968" lon="6.60857">
        <ele>1219</ele>
        <time>2010-09-05T11:35:41Z</time>
      </trkpt>
      <trkpt lat="43.73963" lon="6.60866">
        <ele>1216</ele>
        <time>2010-09-05T11:36:05Z</time>
      </trkpt>
      <trkpt lat="43.73958" lon="6.60868">
        <ele>1213</ele>
        <time>2010-09-05T11:36:18Z</time>
      </trkpt>
      <trkpt lat="43.73954" lon="6.60876">
        <ele>1212</ele>
        <time>2010-09-05T11:36:32Z</time>
      </trkpt>
      <trkpt lat="43.7395" lon="6.60883">
        <ele>1205</ele>
        <time>2010-09-05T11:36:48Z</time>
      </trkpt>
      <trkpt lat="43.7395" lon="6.60884">
        <ele>1211</ele>
        <time>2010-09-05T11:36:49Z</time>
      </trkpt>
      <trkpt lat="43.73946" lon="6.60888">
        <ele>1208</ele>
        <time>2010-09-05T11:36:57Z</time>
      </trkpt>
      <trkpt lat="43.73943" lon="6.60896">
        <ele>1207</ele>
        <time>2010-09-05T11:37:09Z</time>
      </trkpt>
      <trkpt lat="43.73939" lon="6.609">
        <ele>1205</ele>
        <time>2010-09-05T11:37:15Z</time>
      </trkpt>
      <trkpt lat="43.73936" lon="6.60906">
        <ele>1204</ele>
        <time>2010-09-05T11:37:25Z</time>
      </trkpt>
      <trkpt lat="43.73934" lon="6.60908">
        <ele>1203</ele>
        <time>2010-09-05T11:37:52Z</time>
      </trkpt>
      <trkpt lat="43.7393" lon="6.60908">
        <ele>1200</ele>
        <time>2010-09-05T11:38:10Z</time>
      </trkpt>
      <trkpt lat="43.7393" lon="6.60899">
        <ele>1198</ele>
        <time>2010-09-05T11:38:26Z</time>
      </trkpt>
      <trkpt lat="43.73927" lon="6.60893">
        <ele>1195</ele>
        <time>2010-09-05T11:38:53Z</time>
      </trkpt>
      <trkpt lat="43.73922" lon="6.60899">
        <ele>1194</ele>
        <time>2010-09-05T11:39:06Z</time>
      </trkpt>
      <trkpt lat="43.7392" lon="6.60903">
        <ele>1193</ele>
        <time>2010-09-05T11:39:24Z</time>
      </trkpt>
      <trkpt lat="43.73918" lon="6.60907">
        <ele>1192</ele>
        <time>2010-09-05T11:39:43Z</time>
      </trkpt>
      <trkpt lat="43.73918" lon="6.60906">
        <ele>1190</ele>
        <time>2010-09-05T11:40:07Z</time>
      </trkpt>
      <trkpt lat="43.73914" lon="6.60894">
        <ele>1188</ele>
        <time>2010-09-05T11:40:24Z</time>
      </trkpt>
      <trkpt lat="43.73911" lon="6.60898">
        <ele>1187</ele>
        <time>2010-09-05T11:40:36Z</time>
      </trkpt>
      <trkpt lat="43.73906" lon="6.60907">
        <ele>1184</ele>
        <time>2010-09-05T11:40:49Z</time>
      </trkpt>
      <trkpt lat="43.73903" lon="6.60913">
        <ele>1183</ele>
        <time>2010-09-05T11:41:00Z</time>
      </trkpt>
      <trkpt lat="43.73903" lon="6.60904">
        <ele>1181</ele>
        <time>2010-09-05T11:41:10Z</time>
      </trkpt>
      <trkpt lat="43.73903" lon="6.60902">
        <ele>1180</ele>
        <time>2010-09-05T11:41:15Z</time>
      </trkpt>
      <trkpt lat="43.73901" lon="6.60884">
        <ele>1177</ele>
        <time>2010-09-05T11:41:36Z</time>
      </trkpt>
      <trkpt lat="43.739" lon="6.60876">
        <ele>1175</ele>
        <time>2010-09-05T11:41:48Z</time>
      </trkpt>
      <trkpt lat="43.73899" lon="6.60872">
        <ele>1174</ele>
        <time>2010-09-05T11:41:53Z</time>
      </trkpt>
      <trkpt lat="43.73898" lon="6.60863">
        <ele>1173</ele>
        <time>2010-09-05T11:42:04Z</time>
      </trkpt>
      <trkpt lat="43.73898" lon="6.60851">
        <ele>1171</ele>
        <time>2010-09-05T11:42:22Z</time>
      </trkpt>
      <trkpt lat="43.73898" lon="6.6084">
        <ele>1169</ele>
        <time>2010-09-05T11:42:32Z</time>
      </trkpt>
      <trkpt lat="43.73897" lon="6.60827">
        <ele>1167</ele>
        <time>2010-09-05T11:42:49Z</time>
      </trkpt>
      <trkpt lat="43.73896" lon="6.60815">
        <ele>1165</ele>
        <time>2010-09-05T11:43:03Z</time>
      </trkpt>
      <trkpt lat="43.739" lon="6.60806">
        <ele>1163</ele>
        <time>2010-09-05T11:43:27Z</time>
      </trkpt>
      <trkpt lat="43.73903" lon="6.60803">
        <ele>1162</ele>
        <time>2010-09-05T11:44:07Z</time>
      </trkpt>
      <trkpt lat="43.73898" lon="6.60789">
        <ele>1159</ele>
        <time>2010-09-05T11:44:30Z</time>
      </trkpt>
      <trkpt lat="43.7389" lon="6.60793">
        <ele>1158</ele>
        <time>2010-09-05T11:44:39Z</time>
      </trkpt>
      <trkpt lat="43.73883" lon="6.60802">
        <ele>1156</ele>
        <time>2010-09-05T11:44:52Z</time>
      </trkpt>
      <trkpt lat="43.73878" lon="6.60808">
        <ele>1154</ele>
        <time>2010-09-05T11:45:06Z</time>
      </trkpt>
      <trkpt lat="43.73875" lon="6.60815">
        <ele>1152</ele>
        <time>2010-09-05T11:45:17Z</time>
      </trkpt>
      <trkpt lat="43.73869" lon="6.60822">
        <ele>1150</ele>
        <time>2010-09-05T11:45:32Z</time>
      </trkpt>
      <trkpt lat="43.73865" lon="6.60827">
        <ele>1148</ele>
        <time>2010-09-05T11:45:44Z</time>
      </trkpt>
      <trkpt lat="43.73862" lon="6.60835">
        <ele>1147</ele>
        <time>2010-09-05T11:45:55Z</time>
      </trkpt>
      <trkpt lat="43.7386" lon="6.60837">
        <ele>1145</ele>
        <time>2010-09-05T11:46:09Z</time>
      </trkpt>
      <trkpt lat="43.7386" lon="6.60826">
        <ele>1143</ele>
        <time>2010-09-05T11:46:28Z</time>
      </trkpt>
      <trkpt lat="43.73854" lon="6.60821">
        <ele>1140</ele>
        <time>2010-09-05T11:46:44Z</time>
      </trkpt>
      <trkpt lat="43.73849" lon="6.60827">
        <ele>1139</ele>
        <time>2010-09-05T11:47:04Z</time>
      </trkpt>
      <trkpt lat="43.73846" lon="6.60836">
        <ele>1137</ele>
        <time>2010-09-05T11:47:34Z</time>
      </trkpt>
      <trkpt lat="43.73844" lon="6.60845">
        <ele>1135</ele>
        <time>2010-09-05T11:47:46Z</time>
      </trkpt>
      <trkpt lat="43.7384" lon="6.60848">
        <ele>1133</ele>
        <time>2010-09-05T11:47:56Z</time>
      </trkpt>
      <trkpt lat="43.73839" lon="6.60842">
        <ele>1132</ele>
        <time>2010-09-05T11:48:07Z</time>
      </trkpt>
      <trkpt lat="43.73837" lon="6.60834">
        <ele>1129</ele>
        <time>2010-09-05T11:48:23Z</time>
      </trkpt>
      <trkpt lat="43.73833" lon="6.60829">
        <ele>1128</ele>
        <time>2010-09-05T11:48:34Z</time>
      </trkpt>
      <trkpt lat="43.73829" lon="6.60832">
        <ele>1126</ele>
        <time>2010-09-05T11:48:48Z</time>
      </trkpt>
      <trkpt lat="43.73827" lon="6.60837">
        <ele>1125</ele>
        <time>2010-09-05T11:48:59Z</time>
      </trkpt>
      <trkpt lat="43.73822" lon="6.60847">
        <ele>1123</ele>
        <time>2010-09-05T11:49:10Z</time>
      </trkpt>
      <trkpt lat="43.73819" lon="6.60853">
        <ele>1122</ele>
        <time>2010-09-05T11:49:20Z</time>
      </trkpt>
      <trkpt lat="43.73816" lon="6.60862">
        <ele>1121</ele>
        <time>2010-09-05T11:49:34Z</time>
      </trkpt>
      <trkpt lat="43.73814" lon="6.60872">
        <ele>1120</ele>
        <time>2010-09-05T11:49:47Z</time>
      </trkpt>
      <trkpt lat="43.73811" lon="6.60883">
        <ele>1119</ele>
        <time>2010-09-05T11:50:00Z</time>
      </trkpt>
      <trkpt lat="43.73811" lon="6.60884">
        <ele>1118</ele>
        <time>2010-09-05T11:50:01Z</time>
      </trkpt>
      <trkpt lat="43.73811" lon="6.60892">
        <ele>1119</ele>
        <time>2010-09-05T11:50:12Z</time>
      </trkpt>
      <trkpt lat="43.73809" lon="6.609">
        <ele>1118</ele>
        <time>2010-09-05T11:50:22Z</time>
      </trkpt>
      <trkpt lat="43.73806" lon="6.60907">
        <ele>1116</ele>
        <time>2010-09-05T11:50:33Z</time>
      </trkpt>
      <trkpt lat="43.73806" lon="6.60914">
        <ele>1115</ele>
        <time>2010-09-05T11:50:46Z</time>
      </trkpt>
      <trkpt lat="43.73805" lon="6.60923">
        <ele>1114</ele>
        <time>2010-09-05T11:50:57Z</time>
      </trkpt>
      <trkpt lat="43.73801" lon="6.60941">
        <ele>1112</ele>
        <time>2010-09-05T11:51:14Z</time>
      </trkpt>
      <trkpt lat="43.73798" lon="6.60953">
        <ele>1111</ele>
        <time>2010-09-05T11:51:27Z</time>
      </trkpt>
      <trkpt lat="43.73797" lon="6.6096">
        <ele>1110</ele>
        <time>2010-09-05T11:51:38Z</time>
      </trkpt>
      <trkpt lat="43.73795" lon="6.60969">
        <ele>1108</ele>
        <time>2010-09-05T11:51:52Z</time>
      </trkpt>
      <trkpt lat="43.73792" lon="6.60979">
        <ele>1107</ele>
        <time>2010-09-05T11:52:03Z</time>
      </trkpt>
      <trkpt lat="43.73791" lon="6.60987">
        <ele>1106</ele>
        <time>2010-09-05T11:52:15Z</time>
      </trkpt>
      <trkpt lat="43.73787" lon="6.60992">
        <ele>1104</ele>
        <time>2010-09-05T11:52:25Z</time>
      </trkpt>
      <trkpt lat="43.73786" lon="6.60995">
        <ele>1103</ele>
        <time>2010-09-05T11:52:38Z</time>
      </trkpt>
      <trkpt lat="43.73784" lon="6.60997">
        <ele>1103</ele>
        <time>2010-09-05T11:52:53Z</time>
      </trkpt>
      <trkpt lat="43.7378" lon="6.6101">
        <ele>1101</ele>
        <time>2010-09-05T11:53:10Z</time>
      </trkpt>
      <trkpt lat="43.73776" lon="6.61022">
        <ele>1099</ele>
        <time>2010-09-05T11:53:23Z</time>
      </trkpt>
      <trkpt lat="43.73776" lon="6.61029">
        <ele>1098</ele>
        <time>2010-09-05T11:53:29Z</time>
      </trkpt>
      <trkpt lat="43.73776" lon="6.61034">
        <ele>1099</ele>
        <time>2010-09-05T11:53:34Z</time>
      </trkpt>
      <trkpt lat="43.73775" lon="6.61044">
        <ele>1097</ele>
        <time>2010-09-05T11:53:48Z</time>
      </trkpt>
      <trkpt lat="43.73773" lon="6.61054">
        <ele>1095</ele>
        <time>2010-09-05T11:53:58Z</time>
      </trkpt>
      <trkpt lat="43.73773" lon="6.61059">
        <ele>1097</ele>
        <time>2010-09-05T11:54:02Z</time>
      </trkpt>
      <trkpt lat="43.73774" lon="6.61068">
        <ele>1096</ele>
        <time>2010-09-05T11:54:13Z</time>
      </trkpt>
      <trkpt lat="43.73775" lon="6.6108">
        <ele>1096</ele>
        <time>2010-09-05T11:54:25Z</time>
      </trkpt>
      <trkpt lat="43.73775" lon="6.61091">
        <ele>1094</ele>
        <time>2010-09-05T11:54:39Z</time>
      </trkpt>
      <trkpt lat="43.73774" lon="6.611">
        <ele>1092</ele>
        <time>2010-09-05T11:54:52Z</time>
      </trkpt>
      <trkpt lat="43.73771" lon="6.6111">
        <ele>1089</ele>
        <time>2010-09-05T11:55:06Z</time>
      </trkpt>
      <trkpt lat="43.73766" lon="6.61116">
        <ele>1085</ele>
        <time>2010-09-05T11:55:35Z</time>
      </trkpt>
      <trkpt lat="43.73761" lon="6.61124">
        <ele>1084</ele>
        <time>2010-09-05T11:55:45Z</time>
      </trkpt>
      <trkpt lat="43.73755" lon="6.61133">
        <ele>1083</ele>
        <time>2010-09-05T11:56:00Z</time>
      </trkpt>
      <trkpt lat="43.73752" lon="6.6114">
        <ele>1081</ele>
        <time>2010-09-05T11:56:12Z</time>
      </trkpt>
      <trkpt lat="43.73748" lon="6.61144">
        <ele>1080</ele>
        <time>2010-09-05T11:56:18Z</time>
      </trkpt>
      <trkpt lat="43.73745" lon="6.61139">
        <ele>1078</ele>
        <time>2010-09-05T11:56:46Z</time>
      </trkpt>
      <trkpt lat="43.73743" lon="6.61137">
        <ele>1077</ele>
        <time>2010-09-05T11:56:50Z</time>
      </trkpt>
      <trkpt lat="43.73742" lon="6.61137">
        <ele>1073</ele>
        <time>2010-09-05T11:56:57Z</time>
      </trkpt>
      <trkpt lat="43.73742" lon="6.61137">
        <ele>1076</ele>
        <time>2010-09-05T11:56:58Z</time>
      </trkpt>
      <trkpt lat="43.73736" lon="6.61147">
        <ele>1074</ele>
        <time>2010-09-05T11:57:25Z</time>
      </trkpt>
      <trkpt lat="43.73731" lon="6.61159">
        <ele>1073</ele>
        <time>2010-09-05T11:57:39Z</time>
      </trkpt>
      <trkpt lat="43.73728" lon="6.61175">
        <ele>1072</ele>
        <time>2010-09-05T11:57:52Z</time>
      </trkpt>
      <trkpt lat="43.73727" lon="6.61187">
        <ele>1071</ele>
        <time>2010-09-05T11:58:04Z</time>
      </trkpt>
      <trkpt lat="43.73724" lon="6.61195">
        <ele>1069</ele>
        <time>2010-09-05T11:58:14Z</time>
      </trkpt>
      <trkpt lat="43.73722" lon="6.61205">
        <ele>1068</ele>
        <time>2010-09-05T11:58:26Z</time>
      </trkpt>
      <trkpt lat="43.73718" lon="6.61211">
        <ele>1067</ele>
        <time>2010-09-05T11:58:36Z</time>
      </trkpt>
      <trkpt lat="43.7371" lon="6.6121">
        <ele>1064</ele>
        <time>2010-09-05T11:58:50Z</time>
      </trkpt>
      <trkpt lat="43.73702" lon="6.61207">
        <ele>1063</ele>
        <time>2010-09-05T11:59:04Z</time>
      </trkpt>
      <trkpt lat="43.73698" lon="6.61199">
        <ele>1061</ele>
        <time>2010-09-05T11:59:16Z</time>
      </trkpt>
      <trkpt lat="43.73698" lon="6.61197">
        <ele>1056</ele>
        <time>2010-09-05T11:59:22Z</time>
      </trkpt>
      <trkpt lat="43.73698" lon="6.61197">
        <ele>1061</ele>
        <time>2010-09-05T11:59:23Z</time>
      </trkpt>
      <trkpt lat="43.73699" lon="6.61203">
        <ele>1061</ele>
        <time>2010-09-05T12:00:18Z</time>
      </trkpt>
      <trkpt lat="43.73699" lon="6.61203">
        <ele>1061</ele>
        <time>2010-09-05T12:00:37Z</time>
      </trkpt>
      <trkpt lat="43.73698" lon="6.61202">
        <ele>1061</ele>
        <time>2010-09-05T12:00:49Z</time>
      </trkpt>
      <trkpt lat="43.73699" lon="6.61189">
        <ele>1058</ele>
        <time>2010-09-05T12:01:05Z</time>
      </trkpt>
      <trkpt lat="43.73699" lon="6.61188">
        <ele>1061</ele>
        <time>2010-09-05T12:01:06Z</time>
      </trkpt>
      <trkpt lat="43.73698" lon="6.61179">
        <ele>1060</ele>
        <time>2010-09-05T12:01:16Z</time>
      </trkpt>
      <trkpt lat="43.73698" lon="6.61178">
        <ele>1060</ele>
        <time>2010-09-05T12:01:31Z</time>
      </trkpt>
      <trkpt lat="43.73696" lon="6.61179">
        <ele>1060</ele>
        <time>2010-09-05T12:01:44Z</time>
      </trkpt>
      <trkpt lat="43.73695" lon="6.61179">
        <ele>1060</ele>
        <time>2010-09-05T12:02:02Z</time>
      </trkpt>
      <trkpt lat="43.73695" lon="6.61179">
        <ele>1059</ele>
        <time>2010-09-05T12:02:34Z</time>
      </trkpt>
      <trkpt lat="43.73695" lon="6.61179">
        <ele>1058</ele>
        <time>2010-09-05T12:03:59Z</time>
      </trkpt>
      <trkpt lat="43.73695" lon="6.61179">
        <ele>1059</ele>
        <time>2010-09-05T12:04:01Z</time>
      </trkpt>
      <trkpt lat="43.73695" lon="6.61179">
        <ele>1053</ele>
        <time>2010-09-05T12:04:51Z</time>
      </trkpt>
      <trkpt lat="43.73695" lon="6.61179">
        <ele>1062</ele>
        <time>2010-09-05T12:04:52Z</time>
      </trkpt>
      <trkpt lat="43.73695" lon="6.61179">
        <ele>1059</ele>
        <time>2010-09-05T12:04:54Z</time>
      </trkpt>
      <trkpt lat="43.73695" lon="6.61179">
        <ele>1058</ele>
        <time>2010-09-05T12:04:55Z</time>
      </trkpt>
      <trkpt lat="43.73687" lon="6.61182">
        <ele>1056</ele>
        <time>2010-09-05T12:07:35Z</time>
      </trkpt>
      <trkpt lat="43.73687" lon="6.61182">
        <ele>1052</ele>
        <time>2010-09-05T12:13:30Z</time>
      </trkpt>
      <trkpt lat="43.73686" lon="6.61182">
        <ele>1057</ele>
        <time>2010-09-05T12:15:43Z</time>
      </trkpt>
      <trkpt lat="43.73686" lon="6.61182">
        <ele>1055</ele>
        <time>2010-09-05T12:15:46Z</time>
      </trkpt>
      <trkpt lat="43.73685" lon="6.61185">
        <ele>1054</ele>
        <time>2010-09-05T12:17:13Z</time>
      </trkpt>
      <trkpt lat="43.7368" lon="6.61198">
        <ele>1053</ele>
        <time>2010-09-05T12:17:25Z</time>
      </trkpt>
      <trkpt lat="43.73673" lon="6.61213">
        <ele>1051</ele>
        <time>2010-09-05T12:17:40Z</time>
      </trkpt>
      <trkpt lat="43.73667" lon="6.61218">
        <ele>1049</ele>
        <time>2010-09-05T12:17:50Z</time>
      </trkpt>
      <trkpt lat="43.73661" lon="6.61227">
        <ele>1048</ele>
        <time>2010-09-05T12:18:05Z</time>
      </trkpt>
      <trkpt lat="43.73659" lon="6.6123">
        <ele>1047</ele>
        <time>2010-09-05T12:18:08Z</time>
      </trkpt>
      <trkpt lat="43.73649" lon="6.6124">
        <ele>1046</ele>
        <time>2010-09-05T12:18:22Z</time>
      </trkpt>
      <trkpt lat="43.7364" lon="6.61247">
        <ele>1044</ele>
        <time>2010-09-05T12:18:34Z</time>
      </trkpt>
      <trkpt lat="43.73632" lon="6.61254">
        <ele>1043</ele>
        <time>2010-09-05T12:18:54Z</time>
      </trkpt>
      <trkpt lat="43.73623" lon="6.61263">
        <ele>1041</ele>
        <time>2010-09-05T12:19:06Z</time>
      </trkpt>
      <trkpt lat="43.73615" lon="6.61272">
        <ele>1039</ele>
        <time>2010-09-05T12:19:19Z</time>
      </trkpt>
      <trkpt lat="43.73608" lon="6.6128">
        <ele>1037</ele>
        <time>2010-09-05T12:19:40Z</time>
      </trkpt>
      <trkpt lat="43.73603" lon="6.6129">
        <ele>1036</ele>
        <time>2010-09-05T12:19:49Z</time>
      </trkpt>
      <trkpt lat="43.73597" lon="6.613">
        <ele>1035</ele>
        <time>2010-09-05T12:20:01Z</time>
      </trkpt>
      <trkpt lat="43.7359" lon="6.61303">
        <ele>1032</ele>
        <time>2010-09-05T12:20:14Z</time>
      </trkpt>
      <trkpt lat="43.73589" lon="6.61304">
        <ele>1032</ele>
        <time>2010-09-05T12:20:15Z</time>
      </trkpt>
      <trkpt lat="43.73579" lon="6.61304">
        <ele>1031</ele>
        <time>2010-09-05T12:20:36Z</time>
      </trkpt>
      <trkpt lat="43.73567" lon="6.61306">
        <ele>1028</ele>
        <time>2010-09-05T12:20:50Z</time>
      </trkpt>
      <trkpt lat="43.73551" lon="6.61304">
        <ele>1026</ele>
        <time>2010-09-05T12:21:05Z</time>
      </trkpt>
      <trkpt lat="43.73533" lon="6.61304">
        <ele>1023</ele>
        <time>2010-09-05T12:21:33Z</time>
      </trkpt>
      <trkpt lat="43.73522" lon="6.61307">
        <ele>1022</ele>
        <time>2010-09-05T12:21:46Z</time>
      </trkpt>
      <trkpt lat="43.73501" lon="6.61296">
        <ele>1020</ele>
        <time>2010-09-05T12:22:08Z</time>
      </trkpt>
      <trkpt lat="43.73493" lon="6.61296">
        <ele>1020</ele>
        <time>2010-09-05T12:22:20Z</time>
      </trkpt>
      <trkpt lat="43.73483" lon="6.61299">
        <ele>1018</ele>
        <time>2010-09-05T12:22:51Z</time>
      </trkpt>
      <trkpt lat="43.73481" lon="6.61298">
        <ele>1018</ele>
        <time>2010-09-05T12:22:54Z</time>
      </trkpt>
      <trkpt lat="43.73476" lon="6.61287">
        <ele>1018</ele>
        <time>2010-09-05T12:23:16Z</time>
      </trkpt>
      <trkpt lat="43.73466" lon="6.61281">
        <ele>1017</ele>
        <time>2010-09-05T12:23:27Z</time>
      </trkpt>
      <trkpt lat="43.73457" lon="6.61272">
        <ele>1017</ele>
        <time>2010-09-05T12:23:39Z</time>
      </trkpt>
      <trkpt lat="43.73449" lon="6.61266">
        <ele>1017</ele>
        <time>2010-09-05T12:23:48Z</time>
      </trkpt>
      <trkpt lat="43.73446" lon="6.61262">
        <ele>1019</ele>
        <time>2010-09-05T12:23:51Z</time>
      </trkpt>
      <trkpt lat="43.73445" lon="6.61261">
        <ele>1017</ele>
        <time>2010-09-05T12:23:53Z</time>
      </trkpt>
      <trkpt lat="43.73442" lon="6.61258">
        <ele>1019</ele>
        <time>2010-09-05T12:23:56Z</time>
      </trkpt>
      <trkpt lat="43.73431" lon="6.61239">
        <ele>1021</ele>
        <time>2010-09-05T12:24:12Z</time>
      </trkpt>
      <trkpt lat="43.73422" lon="6.61228">
        <ele>1022</ele>
        <time>2010-09-05T12:24:26Z</time>
      </trkpt>
      <trkpt lat="43.73415" lon="6.61217">
        <ele>1022</ele>
        <time>2010-09-05T12:24:41Z</time>
      </trkpt>
      <trkpt lat="43.73415" lon="6.61216">
        <ele>1022</ele>
        <time>2010-09-05T12:24:44Z</time>
      </trkpt>
      <trkpt lat="43.73417" lon="6.61214">
        <ele>1021</ele>
        <time>2010-09-05T12:24:46Z</time>
      </trkpt>
      <trkpt lat="43.7341" lon="6.61204">
        <ele>1022</ele>
        <time>2010-09-05T12:24:57Z</time>
      </trkpt>
      <trkpt lat="43.73407" lon="6.61191">
        <ele>1021</ele>
        <time>2010-09-05T12:25:08Z</time>
      </trkpt>
      <trkpt lat="43.73404" lon="6.61188">
        <ele>1022</ele>
        <time>2010-09-05T12:25:11Z</time>
      </trkpt>
      <trkpt lat="43.73398" lon="6.61183">
        <ele>1022</ele>
        <time>2010-09-05T12:25:17Z</time>
      </trkpt>
      <trkpt lat="43.7339" lon="6.61175">
        <ele>1020</ele>
        <time>2010-09-05T12:25:29Z</time>
      </trkpt>
      <trkpt lat="43.73385" lon="6.6117">
        <ele>1017</ele>
        <time>2010-09-05T12:25:35Z</time>
      </trkpt>
      <trkpt lat="43.73381" lon="6.61151">
        <ele>1016</ele>
        <time>2010-09-05T12:25:51Z</time>
      </trkpt>
      <trkpt lat="43.73384" lon="6.61137">
        <ele>1015</ele>
        <time>2010-09-05T12:26:01Z</time>
      </trkpt>
      <trkpt lat="43.73383" lon="6.61127">
        <ele>1013</ele>
        <time>2010-09-05T12:26:12Z</time>
      </trkpt>
      <trkpt lat="43.73383" lon="6.61122">
        <ele>1011</ele>
        <time>2010-09-05T12:26:16Z</time>
      </trkpt>
      <trkpt lat="43.73377" lon="6.61104">
        <ele>1010</ele>
        <time>2010-09-05T12:26:31Z</time>
      </trkpt>
      <trkpt lat="43.73373" lon="6.61099">
        <ele>1006</ele>
        <time>2010-09-05T12:26:39Z</time>
      </trkpt>
      <trkpt lat="43.73372" lon="6.61097">
        <ele>1009</ele>
        <time>2010-09-05T12:26:41Z</time>
      </trkpt>
      <trkpt lat="43.73368" lon="6.61089">
        <ele>1007</ele>
        <time>2010-09-05T12:26:50Z</time>
      </trkpt>
      <trkpt lat="43.73362" lon="6.61081">
        <ele>1005</ele>
        <time>2010-09-05T12:27:00Z</time>
      </trkpt>
      <trkpt lat="43.73361" lon="6.61069">
        <ele>1003</ele>
        <time>2010-09-05T12:27:11Z</time>
      </trkpt>
      <trkpt lat="43.73359" lon="6.61057">
        <ele>1001</ele>
        <time>2010-09-05T12:27:23Z</time>
      </trkpt>
      <trkpt lat="43.73356" lon="6.61042">
        <ele>999</ele>
        <time>2010-09-05T12:27:36Z</time>
      </trkpt>
      <trkpt lat="43.73353" lon="6.6102">
        <ele>997</ele>
        <time>2010-09-05T12:28:04Z</time>
      </trkpt>
      <trkpt lat="43.73349" lon="6.61007">
        <ele>995</ele>
        <time>2010-09-05T12:28:17Z</time>
      </trkpt>
      <trkpt lat="43.73345" lon="6.60997">
        <ele>993</ele>
        <time>2010-09-05T12:28:27Z</time>
      </trkpt>
      <trkpt lat="43.73342" lon="6.60988">
        <ele>992</ele>
        <time>2010-09-05T12:28:39Z</time>
      </trkpt>
      <trkpt lat="43.73341" lon="6.60978">
        <ele>991</ele>
        <time>2010-09-05T12:28:49Z</time>
      </trkpt>
      <trkpt lat="43.73345" lon="6.60966">
        <ele>988</ele>
        <time>2010-09-05T12:29:03Z</time>
      </trkpt>
      <trkpt lat="43.73352" lon="6.60944">
        <ele>988</ele>
        <time>2010-09-05T12:29:19Z</time>
      </trkpt>
      <trkpt lat="43.73351" lon="6.60942">
        <ele>987</ele>
        <time>2010-09-05T12:29:22Z</time>
      </trkpt>
      <trkpt lat="43.73343" lon="6.60915">
        <ele>986</ele>
        <time>2010-09-05T12:29:40Z</time>
      </trkpt>
      <trkpt lat="43.73339" lon="6.60888">
        <ele>986</ele>
        <time>2010-09-05T12:29:56Z</time>
      </trkpt>
      <trkpt lat="43.73332" lon="6.60875">
        <ele>986</ele>
        <time>2010-09-05T12:30:07Z</time>
      </trkpt>
      <trkpt lat="43.73316" lon="6.60858">
        <ele>986</ele>
        <time>2010-09-05T12:30:24Z</time>
      </trkpt>
      <trkpt lat="43.73309" lon="6.60852">
        <ele>987</ele>
        <time>2010-09-05T12:30:31Z</time>
      </trkpt>
      <trkpt lat="43.73303" lon="6.6084">
        <ele>988</ele>
        <time>2010-09-05T12:30:42Z</time>
      </trkpt>
      <trkpt lat="43.73301" lon="6.60832">
        <ele>987</ele>
        <time>2010-09-05T12:30:51Z</time>
      </trkpt>
      <trkpt lat="43.733" lon="6.60826">
        <ele>990</ele>
        <time>2010-09-05T12:30:57Z</time>
      </trkpt>
      <trkpt lat="43.73305" lon="6.60816">
        <ele>991</ele>
        <time>2010-09-05T12:31:14Z</time>
      </trkpt>
      <trkpt lat="43.73306" lon="6.60812">
        <ele>989</ele>
        <time>2010-09-05T12:31:17Z</time>
      </trkpt>
      <trkpt lat="43.73303" lon="6.6081">
        <ele>988</ele>
        <time>2010-09-05T12:31:31Z</time>
      </trkpt>
      <trkpt lat="43.73299" lon="6.60794">
        <ele>992</ele>
        <time>2010-09-05T12:31:49Z</time>
      </trkpt>
      <trkpt lat="43.73298" lon="6.60787">
        <ele>991</ele>
        <time>2010-09-05T12:31:55Z</time>
      </trkpt>
      <trkpt lat="43.733" lon="6.60782">
        <ele>993</ele>
        <time>2010-09-05T12:31:58Z</time>
      </trkpt>
      <trkpt lat="43.733" lon="6.60775">
        <ele>991</ele>
        <time>2010-09-05T12:32:03Z</time>
      </trkpt>
      <trkpt lat="43.73299" lon="6.60767">
        <ele>991</ele>
        <time>2010-09-05T12:32:09Z</time>
      </trkpt>
      <trkpt lat="43.73297" lon="6.60759">
        <ele>992</ele>
        <time>2010-09-05T12:32:15Z</time>
      </trkpt>
      <trkpt lat="43.73297" lon="6.60755">
        <ele>994</ele>
        <time>2010-09-05T12:32:18Z</time>
      </trkpt>
      <trkpt lat="43.73296" lon="6.60751">
        <ele>992</ele>
        <time>2010-09-05T12:32:21Z</time>
      </trkpt>
      <trkpt lat="43.73295" lon="6.60747">
        <ele>994</ele>
        <time>2010-09-05T12:32:24Z</time>
      </trkpt>
      <trkpt lat="43.73295" lon="6.60746">
        <ele>992</ele>
        <time>2010-09-05T12:32:25Z</time>
      </trkpt>
      <trkpt lat="43.73295" lon="6.60733">
        <ele>993</ele>
        <time>2010-09-05T12:32:34Z</time>
      </trkpt>
      <trkpt lat="43.73292" lon="6.60704">
        <ele>991</ele>
        <time>2010-09-05T12:32:53Z</time>
      </trkpt>
      <trkpt lat="43.73289" lon="6.60688">
        <ele>992</ele>
        <time>2010-09-05T12:33:05Z</time>
      </trkpt>
      <trkpt lat="43.7329" lon="6.60684">
        <ele>991</ele>
        <time>2010-09-05T12:33:08Z</time>
      </trkpt>
      <trkpt lat="43.73287" lon="6.60661">
        <ele>990</ele>
        <time>2010-09-05T12:33:23Z</time>
      </trkpt>
      <trkpt lat="43.73287" lon="6.60659">
        <ele>991</ele>
        <time>2010-09-05T12:33:24Z</time>
      </trkpt>
      <trkpt lat="43.73285" lon="6.60654">
        <ele>989</ele>
        <time>2010-09-05T12:33:27Z</time>
      </trkpt>
      <trkpt lat="43.73282" lon="6.60637">
        <ele>989</ele>
        <time>2010-09-05T12:33:37Z</time>
      </trkpt>
      <trkpt lat="43.73281" lon="6.60626">
        <ele>989</ele>
        <time>2010-09-05T12:33:44Z</time>
      </trkpt>
      <trkpt lat="43.73281" lon="6.60601">
        <ele>989</ele>
        <time>2010-09-05T12:34:01Z</time>
      </trkpt>
      <trkpt lat="43.73279" lon="6.60595">
        <ele>988</ele>
        <time>2010-09-05T12:34:05Z</time>
      </trkpt>
      <trkpt lat="43.7328" lon="6.60588">
        <ele>989</ele>
        <time>2010-09-05T12:34:09Z</time>
      </trkpt>
      <trkpt lat="43.73279" lon="6.60582">
        <ele>988</ele>
        <time>2010-09-05T12:34:13Z</time>
      </trkpt>
      <trkpt lat="43.7328" lon="6.60574">
        <ele>988</ele>
        <time>2010-09-05T12:34:18Z</time>
      </trkpt>
      <trkpt lat="43.73281" lon="6.60546">
        <ele>988</ele>
        <time>2010-09-05T12:34:34Z</time>
      </trkpt>
      <trkpt lat="43.73283" lon="6.60523">
        <ele>987</ele>
        <time>2010-09-05T12:34:50Z</time>
      </trkpt>
      <trkpt lat="43.73281" lon="6.60504">
        <ele>987</ele>
        <time>2010-09-05T12:35:01Z</time>
      </trkpt>
      <trkpt lat="43.73278" lon="6.60485">
        <ele>987</ele>
        <time>2010-09-05T12:35:15Z</time>
      </trkpt>
      <trkpt lat="43.73279" lon="6.60464">
        <ele>986</ele>
        <time>2010-09-05T12:35:27Z</time>
      </trkpt>
      <trkpt lat="43.73282" lon="6.60451">
        <ele>986</ele>
        <time>2010-09-05T12:35:38Z</time>
      </trkpt>
      <trkpt lat="43.7328" lon="6.60445">
        <ele>986</ele>
        <time>2010-09-05T12:35:41Z</time>
      </trkpt>
      <trkpt lat="43.73279" lon="6.60428">
        <ele>985</ele>
        <time>2010-09-05T12:35:52Z</time>
      </trkpt>
      <trkpt lat="43.73274" lon="6.60412">
        <ele>984</ele>
        <time>2010-09-05T12:36:01Z</time>
      </trkpt>
      <trkpt lat="43.73261" lon="6.60386">
        <ele>984</ele>
        <time>2010-09-05T12:36:19Z</time>
      </trkpt>
      <trkpt lat="43.73259" lon="6.60375">
        <ele>985</ele>
        <time>2010-09-05T12:36:26Z</time>
      </trkpt>
      <trkpt lat="43.73254" lon="6.60369">
        <ele>984</ele>
        <time>2010-09-05T12:36:32Z</time>
      </trkpt>
      <trkpt lat="43.73254" lon="6.60356">
        <ele>984</ele>
        <time>2010-09-05T12:36:38Z</time>
      </trkpt>
      <trkpt lat="43.73248" lon="6.60333">
        <ele>983</ele>
        <time>2010-09-05T12:36:52Z</time>
      </trkpt>
      <trkpt lat="43.73249" lon="6.60313">
        <ele>984</ele>
        <time>2010-09-05T12:37:05Z</time>
      </trkpt>
      <trkpt lat="43.73246" lon="6.60291">
        <ele>983</ele>
        <time>2010-09-05T12:37:17Z</time>
      </trkpt>
      <trkpt lat="43.73242" lon="6.60267">
        <ele>983</ele>
        <time>2010-09-05T12:37:32Z</time>
      </trkpt>
      <trkpt lat="43.73241" lon="6.60247">
        <ele>983</ele>
        <time>2010-09-05T12:37:44Z</time>
      </trkpt>
      <trkpt lat="43.7324" lon="6.60225">
        <ele>983</ele>
        <time>2010-09-05T12:37:58Z</time>
      </trkpt>
      <trkpt lat="43.7324" lon="6.60204">
        <ele>982</ele>
        <time>2010-09-05T12:38:11Z</time>
      </trkpt>
      <trkpt lat="43.73242" lon="6.60177">
        <ele>980</ele>
        <time>2010-09-05T12:38:26Z</time>
      </trkpt>
      <trkpt lat="43.7324" lon="6.60167">
        <ele>980</ele>
        <time>2010-09-05T12:38:32Z</time>
      </trkpt>
      <trkpt lat="43.73234" lon="6.60143">
        <ele>978</ele>
        <time>2010-09-05T12:38:47Z</time>
      </trkpt>
      <trkpt lat="43.7323" lon="6.60125">
        <ele>978</ele>
        <time>2010-09-05T12:38:58Z</time>
      </trkpt>
      <trkpt lat="43.73231" lon="6.60101">
        <ele>978</ele>
        <time>2010-09-05T12:39:13Z</time>
      </trkpt>
      <trkpt lat="43.73221" lon="6.60083">
        <ele>976</ele>
        <time>2010-09-05T12:39:26Z</time>
      </trkpt>
      <trkpt lat="43.7322" lon="6.60082">
        <ele>977</ele>
        <time>2010-09-05T12:39:27Z</time>
      </trkpt>
      <trkpt lat="43.73216" lon="6.60063">
        <ele>977</ele>
        <time>2010-09-05T12:39:39Z</time>
      </trkpt>
      <trkpt lat="43.73212" lon="6.60045">
        <ele>976</ele>
        <time>2010-09-05T12:39:51Z</time>
      </trkpt>
      <trkpt lat="43.73202" lon="6.60032">
        <ele>975</ele>
        <time>2010-09-05T12:40:01Z</time>
      </trkpt>
      <trkpt lat="43.732" lon="6.60022">
        <ele>975</ele>
        <time>2010-09-05T12:40:07Z</time>
      </trkpt>
      <trkpt lat="43.73202" lon="6.60005">
        <ele>974</ele>
        <time>2010-09-05T12:40:18Z</time>
      </trkpt>
      <trkpt lat="43.73197" lon="6.59981">
        <ele>973</ele>
        <time>2010-09-05T12:40:35Z</time>
      </trkpt>
      <trkpt lat="43.73193" lon="6.59964">
        <ele>973</ele>
        <time>2010-09-05T12:40:48Z</time>
      </trkpt>
      <trkpt lat="43.73186" lon="6.59943">
        <ele>972</ele>
        <time>2010-09-05T12:42:00Z</time>
      </trkpt>
      <trkpt lat="43.7318" lon="6.59924">
        <ele>971</ele>
        <time>2010-09-05T12:42:18Z</time>
      </trkpt>
      <trkpt lat="43.73174" lon="6.59906">
        <ele>971</ele>
        <time>2010-09-05T12:42:49Z</time>
      </trkpt>
      <trkpt lat="43.73168" lon="6.59886">
        <ele>970</ele>
        <time>2010-09-05T12:43:04Z</time>
      </trkpt>
      <trkpt lat="43.73164" lon="6.59873">
        <ele>969</ele>
        <time>2010-09-05T12:43:14Z</time>
      </trkpt>
      <trkpt lat="43.73153" lon="6.59852">
        <ele>969</ele>
        <time>2010-09-05T12:43:30Z</time>
      </trkpt>
      <trkpt lat="43.73144" lon="6.59836">
        <ele>969</ele>
        <time>2010-09-05T12:43:43Z</time>
      </trkpt>
      <trkpt lat="43.73136" lon="6.59817">
        <ele>969</ele>
        <time>2010-09-05T12:43:58Z</time>
      </trkpt>
      <trkpt lat="43.73133" lon="6.59807">
        <ele>967</ele>
        <time>2010-09-05T12:44:04Z</time>
      </trkpt>
      <trkpt lat="43.73126" lon="6.59791">
        <ele>966</ele>
        <time>2010-09-05T12:44:16Z</time>
      </trkpt>
      <trkpt lat="43.73124" lon="6.59771">
        <ele>964</ele>
        <time>2010-09-05T12:44:30Z</time>
      </trkpt>
      <trkpt lat="43.73124" lon="6.5977">
        <ele>963</ele>
        <time>2010-09-05T12:44:31Z</time>
      </trkpt>
      <trkpt lat="43.73117" lon="6.59753">
        <ele>961</ele>
        <time>2010-09-05T12:44:44Z</time>
      </trkpt>
      <trkpt lat="43.7311" lon="6.5974">
        <ele>960</ele>
        <time>2010-09-05T12:44:57Z</time>
      </trkpt>
      <trkpt lat="43.73109" lon="6.59738">
        <ele>960</ele>
        <time>2010-09-05T12:44:58Z</time>
      </trkpt>
      <trkpt lat="43.73101" lon="6.59724">
        <ele>958</ele>
        <time>2010-09-05T12:45:12Z</time>
      </trkpt>
      <trkpt lat="43.73099" lon="6.59708">
        <ele>959</ele>
        <time>2010-09-05T12:45:22Z</time>
      </trkpt>
      <trkpt lat="43.73099" lon="6.59701">
        <ele>960</ele>
        <time>2010-09-05T12:45:26Z</time>
      </trkpt>
      <trkpt lat="43.73099" lon="6.59694">
        <ele>960</ele>
        <time>2010-09-05T12:45:30Z</time>
      </trkpt>
      <trkpt lat="43.73102" lon="6.59689">
        <ele>960</ele>
        <time>2010-09-05T12:45:34Z</time>
      </trkpt>
      <trkpt lat="43.73108" lon="6.59669">
        <ele>960</ele>
        <time>2010-09-05T12:45:48Z</time>
      </trkpt>
      <trkpt lat="43.73109" lon="6.59662">
        <ele>959</ele>
        <time>2010-09-05T12:45:51Z</time>
      </trkpt>
      <trkpt lat="43.73109" lon="6.59653">
        <ele>958</ele>
        <time>2010-09-05T12:45:56Z</time>
      </trkpt>
      <trkpt lat="43.73108" lon="6.59628">
        <ele>958</ele>
        <time>2010-09-05T12:46:11Z</time>
      </trkpt>
      <trkpt lat="43.73109" lon="6.59623">
        <ele>957</ele>
        <time>2010-09-05T12:46:14Z</time>
      </trkpt>
      <trkpt lat="43.73113" lon="6.59607">
        <ele>955</ele>
        <time>2010-09-05T12:46:24Z</time>
      </trkpt>
      <trkpt lat="43.73122" lon="6.59581">
        <ele>954</ele>
        <time>2010-09-05T12:46:41Z</time>
      </trkpt>
      <trkpt lat="43.73121" lon="6.59571">
        <ele>952</ele>
        <time>2010-09-05T12:46:47Z</time>
      </trkpt>
      <trkpt lat="43.7312" lon="6.59562">
        <ele>951</ele>
        <time>2010-09-05T12:46:52Z</time>
      </trkpt>
      <trkpt lat="43.73124" lon="6.59542">
        <ele>950</ele>
        <time>2010-09-05T12:47:05Z</time>
      </trkpt>
      <trkpt lat="43.73122" lon="6.59516">
        <ele>949</ele>
        <time>2010-09-05T12:47:20Z</time>
      </trkpt>
      <trkpt lat="43.73121" lon="6.59512">
        <ele>950</ele>
        <time>2010-09-05T12:47:22Z</time>
      </trkpt>
      <trkpt lat="43.73116" lon="6.59488">
        <ele>950</ele>
        <time>2010-09-05T12:47:37Z</time>
      </trkpt>
      <trkpt lat="43.73114" lon="6.59462">
        <ele>948</ele>
        <time>2010-09-05T12:47:52Z</time>
      </trkpt>
      <trkpt lat="43.73113" lon="6.59448">
        <ele>949</ele>
        <time>2010-09-05T12:48:01Z</time>
      </trkpt>
      <trkpt lat="43.73111" lon="6.59437">
        <ele>949</ele>
        <time>2010-09-05T12:48:10Z</time>
      </trkpt>
      <trkpt lat="43.73107" lon="6.59408">
        <ele>948</ele>
        <time>2010-09-05T12:48:26Z</time>
      </trkpt>
      <trkpt lat="43.73111" lon="6.59387">
        <ele>948</ele>
        <time>2010-09-05T12:48:39Z</time>
      </trkpt>
      <trkpt lat="43.7311" lon="6.5938">
        <ele>947</ele>
        <time>2010-09-05T12:48:43Z</time>
      </trkpt>
      <trkpt lat="43.73106" lon="6.59368">
        <ele>947</ele>
        <time>2010-09-05T12:48:50Z</time>
      </trkpt>
      <trkpt lat="43.731" lon="6.59343">
        <ele>947</ele>
        <time>2010-09-05T12:49:05Z</time>
      </trkpt>
      <trkpt lat="43.73095" lon="6.59327">
        <ele>945</ele>
        <time>2010-09-05T12:49:15Z</time>
      </trkpt>
      <trkpt lat="43.73091" lon="6.59319">
        <ele>947</ele>
        <time>2010-09-05T12:49:20Z</time>
      </trkpt>
      <trkpt lat="43.73085" lon="6.59308">
        <ele>946</ele>
        <time>2010-09-05T12:49:27Z</time>
      </trkpt>
      <trkpt lat="43.7308" lon="6.59304">
        <ele>945</ele>
        <time>2010-09-05T12:49:31Z</time>
      </trkpt>
      <trkpt lat="43.73072" lon="6.59287">
        <ele>946</ele>
        <time>2010-09-05T12:49:42Z</time>
      </trkpt>
      <trkpt lat="43.73067" lon="6.59258">
        <ele>945</ele>
        <time>2010-09-05T12:50:00Z</time>
      </trkpt>
      <trkpt lat="43.73067" lon="6.59243">
        <ele>945</ele>
        <time>2010-09-05T12:50:11Z</time>
      </trkpt>
      <trkpt lat="43.73067" lon="6.59232">
        <ele>944</ele>
        <time>2010-09-05T12:50:26Z</time>
      </trkpt>
      <trkpt lat="43.73067" lon="6.59229">
        <ele>939</ele>
        <time>2010-09-05T12:52:22Z</time>
      </trkpt>
      <trkpt lat="43.73067" lon="6.59229">
        <ele>943</ele>
        <time>2010-09-05T12:52:23Z</time>
      </trkpt>
      <trkpt lat="43.73067" lon="6.59229">
        <ele>944</ele>
        <time>2010-09-05T12:52:25Z</time>
      </trkpt>
      <trkpt lat="43.73065" lon="6.5923">
        <ele>944</ele>
        <time>2010-09-05T12:52:57Z</time>
      </trkpt>
      <trkpt lat="43.73066" lon="6.5923">
        <ele>944</ele>
        <time>2010-09-05T12:53:33Z</time>
      </trkpt>
      <trkpt lat="43.73056" lon="6.59206">
        <ele>943</ele>
        <time>2010-09-05T12:54:40Z</time>
      </trkpt>
      <trkpt lat="43.73052" lon="6.59195">
        <ele>940</ele>
        <time>2010-09-05T12:54:48Z</time>
      </trkpt>
      <trkpt lat="43.73051" lon="6.59191">
        <ele>942</ele>
        <time>2010-09-05T12:54:51Z</time>
      </trkpt>
      <trkpt lat="43.73048" lon="6.59178">
        <ele>941</ele>
        <time>2010-09-05T12:54:59Z</time>
      </trkpt>
      <trkpt lat="43.7304" lon="6.59162">
        <ele>942</ele>
        <time>2010-09-05T12:55:11Z</time>
      </trkpt>
      <trkpt lat="43.73033" lon="6.59149">
        <ele>941</ele>
        <time>2010-09-05T12:55:22Z</time>
      </trkpt>
      <trkpt lat="43.73035" lon="6.59143">
        <ele>939</ele>
        <time>2010-09-05T12:55:35Z</time>
      </trkpt>
      <trkpt lat="43.73034" lon="6.5914">
        <ele>939</ele>
        <time>2010-09-05T12:56:35Z</time>
      </trkpt>
      <trkpt lat="43.73023" lon="6.59124">
        <ele>939</ele>
        <time>2010-09-05T12:56:47Z</time>
      </trkpt>
      <trkpt lat="43.73007" lon="6.59095">
        <ele>938</ele>
        <time>2010-09-05T12:57:06Z</time>
      </trkpt>
      <trkpt lat="43.73004" lon="6.59068">
        <ele>938</ele>
        <time>2010-09-05T12:57:20Z</time>
      </trkpt>
      <trkpt lat="43.73003" lon="6.59064">
        <ele>937</ele>
        <time>2010-09-05T12:57:22Z</time>
      </trkpt>
      <trkpt lat="43.72998" lon="6.59052">
        <ele>936</ele>
        <time>2010-09-05T12:57:29Z</time>
      </trkpt>
      <trkpt lat="43.72993" lon="6.59051">
        <ele>937</ele>
        <time>2010-09-05T12:57:33Z</time>
      </trkpt>
      <trkpt lat="43.72977" lon="6.59027">
        <ele>934</ele>
        <time>2010-09-05T12:57:51Z</time>
      </trkpt>
      <trkpt lat="43.72975" lon="6.59023">
        <ele>936</ele>
        <time>2010-09-05T12:57:53Z</time>
      </trkpt>
      <trkpt lat="43.72972" lon="6.59017">
        <ele>935</ele>
        <time>2010-09-05T12:57:56Z</time>
      </trkpt>
      <trkpt lat="43.7297" lon="6.59015">
        <ele>935</ele>
        <time>2010-09-05T12:57:58Z</time>
      </trkpt>
      <trkpt lat="43.72951" lon="6.59">
        <ele>936</ele>
        <time>2010-09-05T12:58:14Z</time>
      </trkpt>
      <trkpt lat="43.7295" lon="6.58998">
        <ele>936</ele>
        <time>2010-09-05T12:58:15Z</time>
      </trkpt>
      <trkpt lat="43.72947" lon="6.58993">
        <ele>936</ele>
        <time>2010-09-05T12:58:19Z</time>
      </trkpt>
      <trkpt lat="43.72925" lon="6.58977">
        <ele>935</ele>
        <time>2010-09-05T12:58:35Z</time>
      </trkpt>
      <trkpt lat="43.72921" lon="6.58969">
        <ele>935</ele>
        <time>2010-09-05T12:58:40Z</time>
      </trkpt>
      <trkpt lat="43.72918" lon="6.5894">
        <ele>934</ele>
        <time>2010-09-05T12:58:56Z</time>
      </trkpt>
      <trkpt lat="43.72916" lon="6.58925">
        <ele>937</ele>
        <time>2010-09-05T12:59:10Z</time>
      </trkpt>
      <trkpt lat="43.72916" lon="6.58921">
        <ele>936</ele>
        <time>2010-09-05T12:59:13Z</time>
      </trkpt>
      <trkpt lat="43.72915" lon="6.58917">
        <ele>934</ele>
        <time>2010-09-05T12:59:15Z</time>
      </trkpt>
      <trkpt lat="43.72913" lon="6.58911">
        <ele>936</ele>
        <time>2010-09-05T12:59:18Z</time>
      </trkpt>
      <trkpt lat="43.72911" lon="6.58909">
        <ele>935</ele>
        <time>2010-09-05T12:59:20Z</time>
      </trkpt>
      <trkpt lat="43.72904" lon="6.5889">
        <ele>933</ele>
        <time>2010-09-05T12:59:31Z</time>
      </trkpt>
      <trkpt lat="43.72901" lon="6.58884">
        <ele>936</ele>
        <time>2010-09-05T12:59:36Z</time>
      </trkpt>
      <trkpt lat="43.729" lon="6.58882">
        <ele>936</ele>
        <time>2010-09-05T12:59:37Z</time>
      </trkpt>
      <trkpt lat="43.729" lon="6.5888">
        <ele>934</ele>
        <time>2010-09-05T12:59:39Z</time>
      </trkpt>
      <trkpt lat="43.72899" lon="6.58875">
        <ele>935</ele>
        <time>2010-09-05T12:59:42Z</time>
      </trkpt>
      <trkpt lat="43.72896" lon="6.58871">
        <ele>934</ele>
        <time>2010-09-05T12:59:46Z</time>
      </trkpt>
      <trkpt lat="43.72896" lon="6.5887">
        <ele>935</ele>
        <time>2010-09-05T12:59:47Z</time>
      </trkpt>
      <trkpt lat="43.72894" lon="6.58866">
        <ele>939</ele>
        <time>2010-09-05T12:59:50Z</time>
      </trkpt>
      <trkpt lat="43.72894" lon="6.58863">
        <ele>935</ele>
        <time>2010-09-05T12:59:52Z</time>
      </trkpt>
      <trkpt lat="43.72894" lon="6.58858">
        <ele>939</ele>
        <time>2010-09-05T12:59:56Z</time>
      </trkpt>
      <trkpt lat="43.72893" lon="6.58855">
        <ele>940</ele>
        <time>2010-09-05T12:59:58Z</time>
      </trkpt>
      <trkpt lat="43.72893" lon="6.58853">
        <ele>936</ele>
        <time>2010-09-05T12:59:59Z</time>
      </trkpt>
      <trkpt lat="43.72893" lon="6.58848">
        <ele>940</ele>
        <time>2010-09-05T13:00:03Z</time>
      </trkpt>
      <trkpt lat="43.72893" lon="6.58845">
        <ele>941</ele>
        <time>2010-09-05T13:00:05Z</time>
      </trkpt>
      <trkpt lat="43.72889" lon="6.5883">
        <ele>941</ele>
        <time>2010-09-05T13:00:15Z</time>
      </trkpt>
      <trkpt lat="43.72888" lon="6.58827">
        <ele>937</ele>
        <time>2010-09-05T13:00:17Z</time>
      </trkpt>
      <trkpt lat="43.72888" lon="6.58825">
        <ele>939</ele>
        <time>2010-09-05T13:00:18Z</time>
      </trkpt>
      <trkpt lat="43.72889" lon="6.58818">
        <ele>942</ele>
        <time>2010-09-05T13:00:21Z</time>
      </trkpt>
      <trkpt lat="43.72889" lon="6.58816">
        <ele>942</ele>
        <time>2010-09-05T13:00:22Z</time>
      </trkpt>
      <trkpt lat="43.72888" lon="6.58815">
        <ele>938</ele>
        <time>2010-09-05T13:00:23Z</time>
      </trkpt>
      <trkpt lat="43.72889" lon="6.58813">
        <ele>940</ele>
        <time>2010-09-05T13:00:24Z</time>
      </trkpt>
      <trkpt lat="43.72889" lon="6.58811">
        <ele>943</ele>
        <time>2010-09-05T13:00:26Z</time>
      </trkpt>
      <trkpt lat="43.72889" lon="6.58811">
        <ele>943</ele>
        <time>2010-09-05T13:00:27Z</time>
      </trkpt>
      <trkpt lat="43.72891" lon="6.58796">
        <ele>946</ele>
        <time>2010-09-05T13:00:41Z</time>
      </trkpt>
      <trkpt lat="43.72891" lon="6.58796">
        <ele>942</ele>
        <time>2010-09-05T13:00:42Z</time>
      </trkpt>
      <trkpt lat="43.72892" lon="6.58794">
        <ele>946</ele>
        <time>2010-09-05T13:00:44Z</time>
      </trkpt>
      <trkpt lat="43.72892" lon="6.58793">
        <ele>943</ele>
        <time>2010-09-05T13:00:45Z</time>
      </trkpt>
      <trkpt lat="43.72895" lon="6.58785">
        <ele>946</ele>
        <time>2010-09-05T13:00:51Z</time>
      </trkpt>
      <trkpt lat="43.72895" lon="6.58784">
        <ele>946</ele>
        <time>2010-09-05T13:00:52Z</time>
      </trkpt>
      <trkpt lat="43.72899" lon="6.58774">
        <ele>946</ele>
        <time>2010-09-05T13:01:02Z</time>
      </trkpt>
      <trkpt lat="43.72902" lon="6.58756">
        <ele>947</ele>
        <time>2010-09-05T13:01:14Z</time>
      </trkpt>
      <trkpt lat="43.729" lon="6.58745">
        <ele>949</ele>
        <time>2010-09-05T13:01:22Z</time>
      </trkpt>
      <trkpt lat="43.729" lon="6.5874">
        <ele>945</ele>
        <time>2010-09-05T13:01:26Z</time>
      </trkpt>
      <trkpt lat="43.729" lon="6.58737">
        <ele>949</ele>
        <time>2010-09-05T13:01:28Z</time>
      </trkpt>
      <trkpt lat="43.729" lon="6.58723">
        <ele>952</ele>
        <time>2010-09-05T13:01:39Z</time>
      </trkpt>
      <trkpt lat="43.729" lon="6.58721">
        <ele>948</ele>
        <time>2010-09-05T13:01:40Z</time>
      </trkpt>
      <trkpt lat="43.729" lon="6.58719">
        <ele>951</ele>
        <time>2010-09-05T13:01:42Z</time>
      </trkpt>
      <trkpt lat="43.729" lon="6.58715">
        <ele>948</ele>
        <time>2010-09-05T13:01:44Z</time>
      </trkpt>
      <trkpt lat="43.72899" lon="6.58713">
        <ele>948</ele>
        <time>2010-09-05T13:01:45Z</time>
      </trkpt>
      <trkpt lat="43.72898" lon="6.58709">
        <ele>953</ele>
        <time>2010-09-05T13:01:47Z</time>
      </trkpt>
      <trkpt lat="43.72897" lon="6.58706">
        <ele>948</ele>
        <time>2010-09-05T13:01:49Z</time>
      </trkpt>
      <trkpt lat="43.72895" lon="6.58703">
        <ele>953</ele>
        <time>2010-09-05T13:01:52Z</time>
      </trkpt>
      <trkpt lat="43.72894" lon="6.58701">
        <ele>948</ele>
        <time>2010-09-05T13:01:54Z</time>
      </trkpt>
      <trkpt lat="43.72893" lon="6.587">
        <ele>950</ele>
        <time>2010-09-05T13:01:55Z</time>
      </trkpt>
      <trkpt lat="43.72892" lon="6.58696">
        <ele>954</ele>
        <time>2010-09-05T13:01:57Z</time>
      </trkpt>
      <trkpt lat="43.72891" lon="6.58695">
        <ele>949</ele>
        <time>2010-09-05T13:01:58Z</time>
      </trkpt>
      <trkpt lat="43.72892" lon="6.58692">
        <ele>953</ele>
        <time>2010-09-05T13:02:01Z</time>
      </trkpt>
      <trkpt lat="43.72892" lon="6.58692">
        <ele>952</ele>
        <time>2010-09-05T13:02:02Z</time>
      </trkpt>
      <trkpt lat="43.7289" lon="6.58689">
        <ele>953</ele>
        <time>2010-09-05T13:02:06Z</time>
      </trkpt>
      <trkpt lat="43.72889" lon="6.58682">
        <ele>953</ele>
        <time>2010-09-05T13:02:10Z</time>
      </trkpt>
      <trkpt lat="43.72891" lon="6.58672">
        <ele>956</ele>
        <time>2010-09-05T13:02:16Z</time>
      </trkpt>
      <trkpt lat="43.72891" lon="6.58671">
        <ele>951</ele>
        <time>2010-09-05T13:02:17Z</time>
      </trkpt>
      <trkpt lat="43.72891" lon="6.58668">
        <ele>956</ele>
        <time>2010-09-05T13:02:19Z</time>
      </trkpt>
      <trkpt lat="43.72891" lon="6.58665">
        <ele>953</ele>
        <time>2010-09-05T13:02:21Z</time>
      </trkpt>
      <trkpt lat="43.72891" lon="6.58663">
        <ele>955</ele>
        <time>2010-09-05T13:02:23Z</time>
      </trkpt>
      <trkpt lat="43.72889" lon="6.58658">
        <ele>956</ele>
        <time>2010-09-05T13:02:27Z</time>
      </trkpt>
      <trkpt lat="43.72893" lon="6.58643">
        <ele>955</ele>
        <time>2010-09-05T13:02:37Z</time>
      </trkpt>
      <trkpt lat="43.72892" lon="6.58641">
        <ele>959</ele>
        <time>2010-09-05T13:02:39Z</time>
      </trkpt>
      <trkpt lat="43.72891" lon="6.58637">
        <ele>954</ele>
        <time>2010-09-05T13:02:41Z</time>
      </trkpt>
      <trkpt lat="43.72891" lon="6.58636">
        <ele>955</ele>
        <time>2010-09-05T13:02:42Z</time>
      </trkpt>
      <trkpt lat="43.72892" lon="6.58634">
        <ele>960</ele>
        <time>2010-09-05T13:02:44Z</time>
      </trkpt>
      <trkpt lat="43.72893" lon="6.58633">
        <ele>955</ele>
        <time>2010-09-05T13:02:45Z</time>
      </trkpt>
      <trkpt lat="43.72894" lon="6.5863">
        <ele>959</ele>
        <time>2010-09-05T13:02:47Z</time>
      </trkpt>
      <trkpt lat="43.72893" lon="6.58628">
        <ele>958</ele>
        <time>2010-09-05T13:02:48Z</time>
      </trkpt>
      <trkpt lat="43.72892" lon="6.58609">
        <ele>960</ele>
        <time>2010-09-05T13:03:02Z</time>
      </trkpt>
      <trkpt lat="43.72891" lon="6.58607">
        <ele>957</ele>
        <time>2010-09-05T13:03:03Z</time>
      </trkpt>
      <trkpt lat="43.7289" lon="6.58606">
        <ele>958</ele>
        <time>2010-09-05T13:03:04Z</time>
      </trkpt>
      <trkpt lat="43.72888" lon="6.58587">
        <ele>960</ele>
        <time>2010-09-05T13:03:16Z</time>
      </trkpt>
      <trkpt lat="43.72888" lon="6.58586">
        <ele>960</ele>
        <time>2010-09-05T13:03:17Z</time>
      </trkpt>
      <trkpt lat="43.72889" lon="6.58582">
        <ele>960</ele>
        <time>2010-09-05T13:03:23Z</time>
      </trkpt>
      <trkpt lat="43.72885" lon="6.58549">
        <ele>960</ele>
        <time>2010-09-05T13:03:42Z</time>
      </trkpt>
      <trkpt lat="43.72887" lon="6.58523">
        <ele>960</ele>
        <time>2010-09-05T13:03:59Z</time>
      </trkpt>
      <trkpt lat="43.72887" lon="6.58504">
        <ele>962</ele>
        <time>2010-09-05T13:04:10Z</time>
      </trkpt>
      <trkpt lat="43.72885" lon="6.58473">
        <ele>963</ele>
        <time>2010-09-05T13:04:29Z</time>
      </trkpt>
      <trkpt lat="43.72885" lon="6.5845">
        <ele>962</ele>
        <time>2010-09-05T13:04:46Z</time>
      </trkpt>
      <trkpt lat="43.72886" lon="6.58446">
        <ele>962</ele>
        <time>2010-09-05T13:04:48Z</time>
      </trkpt>
      <trkpt lat="43.72889" lon="6.5843">
        <ele>961</ele>
        <time>2010-09-05T13:04:58Z</time>
      </trkpt>
      <trkpt lat="43.7289" lon="6.58418">
        <ele>963</ele>
        <time>2010-09-05T13:05:06Z</time>
      </trkpt>
      <trkpt lat="43.72892" lon="6.58414">
        <ele>963</ele>
        <time>2010-09-05T13:05:09Z</time>
      </trkpt>
      <trkpt lat="43.72889" lon="6.58405">
        <ele>961</ele>
        <time>2010-09-05T13:05:14Z</time>
      </trkpt>
      <trkpt lat="43.72879" lon="6.58386">
        <ele>962</ele>
        <time>2010-09-05T13:05:25Z</time>
      </trkpt>
      <trkpt lat="43.72877" lon="6.58366">
        <ele>963</ele>
        <time>2010-09-05T13:05:37Z</time>
      </trkpt>
      <trkpt lat="43.72878" lon="6.58338">
        <ele>962</ele>
        <time>2010-09-05T13:05:54Z</time>
      </trkpt>
      <trkpt lat="43.72881" lon="6.5832">
        <ele>962</ele>
        <time>2010-09-05T13:06:06Z</time>
      </trkpt>
      <trkpt lat="43.72886" lon="6.58305">
        <ele>962</ele>
        <time>2010-09-05T13:06:17Z</time>
      </trkpt>
      <trkpt lat="43.72884" lon="6.58282">
        <ele>960</ele>
        <time>2010-09-05T13:06:28Z</time>
      </trkpt>
      <trkpt lat="43.72884" lon="6.58279">
        <ele>960</ele>
        <time>2010-09-05T13:06:29Z</time>
      </trkpt>
      <trkpt lat="43.72884" lon="6.58273">
        <ele>963</ele>
        <time>2010-09-05T13:06:33Z</time>
      </trkpt>
      <trkpt lat="43.72891" lon="6.58255">
        <ele>961</ele>
        <time>2010-09-05T13:06:43Z</time>
      </trkpt>
      <trkpt lat="43.72892" lon="6.5825">
        <ele>963</ele>
        <time>2010-09-05T13:06:46Z</time>
      </trkpt>
      <trkpt lat="43.72894" lon="6.58247">
        <ele>965</ele>
        <time>2010-09-05T13:06:48Z</time>
      </trkpt>
      <trkpt lat="43.72894" lon="6.58243">
        <ele>962</ele>
        <time>2010-09-05T13:06:51Z</time>
      </trkpt>
      <trkpt lat="43.72895" lon="6.58235">
        <ele>962</ele>
        <time>2010-09-05T13:06:57Z</time>
      </trkpt>
      <trkpt lat="43.72896" lon="6.58233">
        <ele>964</ele>
        <time>2010-09-05T13:06:58Z</time>
      </trkpt>
      <trkpt lat="43.72892" lon="6.58227">
        <ele>964</ele>
        <time>2010-09-05T13:07:03Z</time>
      </trkpt>
      <trkpt lat="43.72889" lon="6.58225">
        <ele>964</ele>
        <time>2010-09-05T13:07:05Z</time>
      </trkpt>
      <trkpt lat="43.72887" lon="6.5822">
        <ele>963</ele>
        <time>2010-09-05T13:07:09Z</time>
      </trkpt>
      <trkpt lat="43.72886" lon="6.58211">
        <ele>965</ele>
        <time>2010-09-05T13:07:22Z</time>
      </trkpt>
      <trkpt lat="43.72885" lon="6.5821">
        <ele>965</ele>
        <time>2010-09-05T13:07:24Z</time>
      </trkpt>
      <trkpt lat="43.72882" lon="6.58199">
        <ele>963</ele>
        <time>2010-09-05T13:07:33Z</time>
      </trkpt>
      <trkpt lat="43.72882" lon="6.58197">
        <ele>965</ele>
        <time>2010-09-05T13:07:34Z</time>
      </trkpt>
      <trkpt lat="43.72882" lon="6.58191">
        <ele>965</ele>
        <time>2010-09-05T13:07:39Z</time>
      </trkpt>
      <trkpt lat="43.72883" lon="6.58178">
        <ele>967</ele>
        <time>2010-09-05T13:07:49Z</time>
      </trkpt>
      <trkpt lat="43.72882" lon="6.58174">
        <ele>966</ele>
        <time>2010-09-05T13:07:51Z</time>
      </trkpt>
      <trkpt lat="43.72882" lon="6.5816">
        <ele>964</ele>
        <time>2010-09-05T13:08:02Z</time>
      </trkpt>
      <trkpt lat="43.72882" lon="6.58158">
        <ele>964</ele>
        <time>2010-09-05T13:08:03Z</time>
      </trkpt>
      <trkpt lat="43.72882" lon="6.58157">
        <ele>965</ele>
        <time>2010-09-05T13:08:04Z</time>
      </trkpt>
      <trkpt lat="43.72881" lon="6.5815">
        <ele>968</ele>
        <time>2010-09-05T13:08:08Z</time>
      </trkpt>
      <trkpt lat="43.72881" lon="6.58148">
        <ele>965</ele>
        <time>2010-09-05T13:08:10Z</time>
      </trkpt>
      <trkpt lat="43.72885" lon="6.58133">
        <ele>968</ele>
        <time>2010-09-05T13:08:21Z</time>
      </trkpt>
      <trkpt lat="43.72886" lon="6.58129">
        <ele>967</ele>
        <time>2010-09-05T13:08:24Z</time>
      </trkpt>
      <trkpt lat="43.7289" lon="6.58123">
        <ele>968</ele>
        <time>2010-09-05T13:08:29Z</time>
      </trkpt>
      <trkpt lat="43.72892" lon="6.58117">
        <ele>966</ele>
        <time>2010-09-05T13:08:33Z</time>
      </trkpt>
      <trkpt lat="43.72894" lon="6.58098">
        <ele>965</ele>
        <time>2010-09-05T13:08:44Z</time>
      </trkpt>
      <trkpt lat="43.72893" lon="6.5809">
        <ele>965</ele>
        <time>2010-09-05T13:08:49Z</time>
      </trkpt>
      <trkpt lat="43.72893" lon="6.58065">
        <ele>965</ele>
        <time>2010-09-05T13:09:03Z</time>
      </trkpt>
      <trkpt lat="43.72893" lon="6.58043">
        <ele>963</ele>
        <time>2010-09-05T13:09:17Z</time>
      </trkpt>
      <trkpt lat="43.72893" lon="6.5803">
        <ele>963</ele>
        <time>2010-09-05T13:09:26Z</time>
      </trkpt>
      <trkpt lat="43.72894" lon="6.58023">
        <ele>964</ele>
        <time>2010-09-05T13:09:31Z</time>
      </trkpt>
      <trkpt lat="43.72893" lon="6.58014">
        <ele>962</ele>
        <time>2010-09-05T13:09:37Z</time>
      </trkpt>
      <trkpt lat="43.72893" lon="6.57994">
        <ele>961</ele>
        <time>2010-09-05T13:09:49Z</time>
      </trkpt>
      <trkpt lat="43.72893" lon="6.57989">
        <ele>963</ele>
        <time>2010-09-05T13:09:52Z</time>
      </trkpt>
      <trkpt lat="43.72896" lon="6.57971">
        <ele>961</ele>
        <time>2010-09-05T13:10:04Z</time>
      </trkpt>
      <trkpt lat="43.72896" lon="6.5797">
        <ele>961</ele>
        <time>2010-09-05T13:10:05Z</time>
      </trkpt>
      <trkpt lat="43.72888" lon="6.57962">
        <ele>960</ele>
        <time>2010-09-05T13:10:24Z</time>
      </trkpt>
      <trkpt lat="43.72887" lon="6.57963">
        <ele>961</ele>
        <time>2010-09-05T13:11:51Z</time>
      </trkpt>
      <trkpt lat="43.7289" lon="6.57964">
        <ele>960</ele>
        <time>2010-09-05T13:11:54Z</time>
      </trkpt>
      <trkpt lat="43.72896" lon="6.5796">
        <ele>960</ele>
        <time>2010-09-05T13:12:00Z</time>
      </trkpt>
      <trkpt lat="43.72907" lon="6.57944">
        <ele>960</ele>
        <time>2010-09-05T13:12:11Z</time>
      </trkpt>
      <trkpt lat="43.72911" lon="6.57933">
        <ele>960</ele>
        <time>2010-09-05T13:12:18Z</time>
      </trkpt>
      <trkpt lat="43.72913" lon="6.57926">
        <ele>960</ele>
        <time>2010-09-05T13:12:21Z</time>
      </trkpt>
      <trkpt lat="43.72915" lon="6.57921">
        <ele>960</ele>
        <time>2010-09-05T13:12:24Z</time>
      </trkpt>
      <trkpt lat="43.72923" lon="6.57912">
        <ele>960</ele>
        <time>2010-09-05T13:12:34Z</time>
      </trkpt>
      <trkpt lat="43.72929" lon="6.57903">
        <ele>960</ele>
        <time>2010-09-05T13:12:41Z</time>
      </trkpt>
      <trkpt lat="43.72938" lon="6.57894">
        <ele>959</ele>
        <time>2010-09-05T13:12:50Z</time>
      </trkpt>
      <trkpt lat="43.72945" lon="6.57871">
        <ele>958</ele>
        <time>2010-09-05T13:13:01Z</time>
      </trkpt>
      <trkpt lat="43.72945" lon="6.5787">
        <ele>957</ele>
        <time>2010-09-05T13:13:02Z</time>
      </trkpt>
      <trkpt lat="43.72953" lon="6.57865">
        <ele>957</ele>
        <time>2010-09-05T13:13:12Z</time>
      </trkpt>
      <trkpt lat="43.72952" lon="6.57854">
        <ele>957</ele>
        <time>2010-09-05T13:13:22Z</time>
      </trkpt>
      <trkpt lat="43.72951" lon="6.57845">
        <ele>956</ele>
        <time>2010-09-05T13:13:29Z</time>
      </trkpt>
      <trkpt lat="43.7295" lon="6.57842">
        <ele>958</ele>
        <time>2010-09-05T13:13:32Z</time>
      </trkpt>
      <trkpt lat="43.72942" lon="6.57835">
        <ele>956</ele>
        <time>2010-09-05T13:13:41Z</time>
      </trkpt>
      <trkpt lat="43.72941" lon="6.57833">
        <ele>960</ele>
        <time>2010-09-05T13:13:43Z</time>
      </trkpt>
      <trkpt lat="43.72941" lon="6.57832">
        <ele>960</ele>
        <time>2010-09-05T13:13:44Z</time>
      </trkpt>
      <trkpt lat="43.7294" lon="6.57832">
        <ele>955</ele>
        <time>2010-09-05T13:13:45Z</time>
      </trkpt>
      <trkpt lat="43.7294" lon="6.57832">
        <ele>957</ele>
        <time>2010-09-05T13:13:46Z</time>
      </trkpt>
      <trkpt lat="43.72937" lon="6.57828">
        <ele>960</ele>
        <time>2010-09-05T13:13:50Z</time>
      </trkpt>
      <trkpt lat="43.72929" lon="6.57817">
        <ele>963</ele>
        <time>2010-09-05T13:14:08Z</time>
      </trkpt>
      <trkpt lat="43.72928" lon="6.57816">
        <ele>960</ele>
        <time>2010-09-05T13:14:10Z</time>
      </trkpt>
      <trkpt lat="43.72928" lon="6.57814">
        <ele>964</ele>
        <time>2010-09-05T13:14:11Z</time>
      </trkpt>
      <trkpt lat="43.72927" lon="6.5781">
        <ele>965</ele>
        <time>2010-09-05T13:14:15Z</time>
      </trkpt>
      <trkpt lat="43.72925" lon="6.5781">
        <ele>962</ele>
        <time>2010-09-05T13:14:17Z</time>
      </trkpt>
      <trkpt lat="43.72922" lon="6.57811">
        <ele>966</ele>
        <time>2010-09-05T13:14:22Z</time>
      </trkpt>
      <trkpt lat="43.72922" lon="6.57811">
        <ele>962</ele>
        <time>2010-09-05T13:14:23Z</time>
      </trkpt>
      <trkpt lat="43.72922" lon="6.5781">
        <ele>966</ele>
        <time>2010-09-05T13:14:24Z</time>
      </trkpt>
      <trkpt lat="43.72921" lon="6.57807">
        <ele>963</ele>
        <time>2010-09-05T13:14:28Z</time>
      </trkpt>
      <trkpt lat="43.72918" lon="6.57806">
        <ele>966</ele>
        <time>2010-09-05T13:14:32Z</time>
      </trkpt>
      <trkpt lat="43.72916" lon="6.57792">
        <ele>971</ele>
        <time>2010-09-05T13:14:54Z</time>
      </trkpt>
      <trkpt lat="43.72917" lon="6.57792">
        <ele>970</ele>
        <time>2010-09-05T13:14:55Z</time>
      </trkpt>
      <trkpt lat="43.72916" lon="6.57783">
        <ele>967</ele>
        <time>2010-09-05T13:15:02Z</time>
      </trkpt>
      <trkpt lat="43.72915" lon="6.57782">
        <ele>972</ele>
        <time>2010-09-05T13:15:03Z</time>
      </trkpt>
      <trkpt lat="43.72915" lon="6.57781">
        <ele>968</ele>
        <time>2010-09-05T13:15:04Z</time>
      </trkpt>
      <trkpt lat="43.72914" lon="6.57778">
        <ele>972</ele>
        <time>2010-09-05T13:15:06Z</time>
      </trkpt>
      <trkpt lat="43.72913" lon="6.57776">
        <ele>968</ele>
        <time>2010-09-05T13:15:09Z</time>
      </trkpt>
      <trkpt lat="43.72913" lon="6.57776">
        <ele>971</ele>
        <time>2010-09-05T13:15:10Z</time>
      </trkpt>
      <trkpt lat="43.72913" lon="6.57775">
        <ele>967</ele>
        <time>2010-09-05T13:15:12Z</time>
      </trkpt>
      <trkpt lat="43.72913" lon="6.57774">
        <ele>972</ele>
        <time>2010-09-05T13:15:13Z</time>
      </trkpt>
      <trkpt lat="43.72916" lon="6.57769">
        <ele>968</ele>
        <time>2010-09-05T13:15:24Z</time>
      </trkpt>
      <trkpt lat="43.72917" lon="6.57768">
        <ele>974</ele>
        <time>2010-09-05T13:15:25Z</time>
      </trkpt>
      <trkpt lat="43.72917" lon="6.57767">
        <ele>971</ele>
        <time>2010-09-05T13:15:27Z</time>
      </trkpt>
      <trkpt lat="43.72917" lon="6.57766">
        <ele>972</ele>
        <time>2010-09-05T13:15:28Z</time>
      </trkpt>
      <trkpt lat="43.72917" lon="6.57766">
        <ele>968</ele>
        <time>2010-09-05T13:15:29Z</time>
      </trkpt>
      <trkpt lat="43.72917" lon="6.57765">
        <ele>973</ele>
        <time>2010-09-05T13:15:30Z</time>
      </trkpt>
      <trkpt lat="43.72917" lon="6.57764">
        <ele>973</ele>
        <time>2010-09-05T13:15:31Z</time>
      </trkpt>
      <trkpt lat="43.72917" lon="6.57749">
        <ele>977</ele>
        <time>2010-09-05T13:15:49Z</time>
      </trkpt>
      <trkpt lat="43.72917" lon="6.57748">
        <ele>977</ele>
        <time>2010-09-05T13:15:50Z</time>
      </trkpt>
      <trkpt lat="43.72917" lon="6.57739">
        <ele>977</ele>
        <time>2010-09-05T13:16:03Z</time>
      </trkpt>
      <trkpt lat="43.72917" lon="6.57738">
        <ele>980</ele>
        <time>2010-09-05T13:16:07Z</time>
      </trkpt>
      <trkpt lat="43.72915" lon="6.57733">
        <ele>976</ele>
        <time>2010-09-05T13:16:13Z</time>
      </trkpt>
      <trkpt lat="43.72913" lon="6.57729">
        <ele>980</ele>
        <time>2010-09-05T13:16:15Z</time>
      </trkpt>
      <trkpt lat="43.72909" lon="6.57719">
        <ele>983</ele>
        <time>2010-09-05T13:16:29Z</time>
      </trkpt>
      <trkpt lat="43.7291" lon="6.57718">
        <ele>978</ele>
        <time>2010-09-05T13:16:30Z</time>
      </trkpt>
      <trkpt lat="43.72911" lon="6.57718">
        <ele>982</ele>
        <time>2010-09-05T13:16:31Z</time>
      </trkpt>
      <trkpt lat="43.72911" lon="6.57717">
        <ele>979</ele>
        <time>2010-09-05T13:16:32Z</time>
      </trkpt>
      <trkpt lat="43.72912" lon="6.57716">
        <ele>982</ele>
        <time>2010-09-05T13:16:35Z</time>
      </trkpt>
      <trkpt lat="43.72911" lon="6.57701">
        <ele>985</ele>
        <time>2010-09-05T13:16:51Z</time>
      </trkpt>
      <trkpt lat="43.72905" lon="6.5769">
        <ele>986</ele>
        <time>2010-09-05T13:17:06Z</time>
      </trkpt>
      <trkpt lat="43.72903" lon="6.57685">
        <ele>990</ele>
        <time>2010-09-05T13:17:20Z</time>
      </trkpt>
      <trkpt lat="43.72902" lon="6.57683">
        <ele>985</ele>
        <time>2010-09-05T13:17:24Z</time>
      </trkpt>
      <trkpt lat="43.72902" lon="6.57682">
        <ele>990</ele>
        <time>2010-09-05T13:17:25Z</time>
      </trkpt>
      <trkpt lat="43.72902" lon="6.5768">
        <ele>986</ele>
        <time>2010-09-05T13:17:26Z</time>
      </trkpt>
      <trkpt lat="43.72901" lon="6.57674">
        <ele>990</ele>
        <time>2010-09-05T13:17:38Z</time>
      </trkpt>
      <trkpt lat="43.72902" lon="6.5767">
        <ele>991</ele>
        <time>2010-09-05T13:17:44Z</time>
      </trkpt>
      <trkpt lat="43.72898" lon="6.57652">
        <ele>990</ele>
        <time>2010-09-05T13:18:14Z</time>
      </trkpt>
      <trkpt lat="43.72895" lon="6.57649">
        <ele>983</ele>
        <time>2010-09-05T13:18:24Z</time>
      </trkpt>
      <trkpt lat="43.72895" lon="6.57649">
        <ele>988</ele>
        <time>2010-09-05T13:18:27Z</time>
      </trkpt>
      <trkpt lat="43.72898" lon="6.57646">
        <ele>991</ele>
        <time>2010-09-05T13:19:02Z</time>
      </trkpt>
      <trkpt lat="43.72898" lon="6.57646">
        <ele>987</ele>
        <time>2010-09-05T13:19:04Z</time>
      </trkpt>
      <trkpt lat="43.72898" lon="6.57646">
        <ele>987</ele>
        <time>2010-09-05T13:19:05Z</time>
      </trkpt>
      <trkpt lat="43.72898" lon="6.57646">
        <ele>993</ele>
        <time>2010-09-05T13:19:09Z</time>
      </trkpt>
      <trkpt lat="43.72898" lon="6.57646">
        <ele>989</ele>
        <time>2010-09-05T13:19:10Z</time>
      </trkpt>
      <trkpt lat="43.72898" lon="6.57646">
        <ele>988</ele>
        <time>2010-09-05T13:19:12Z</time>
      </trkpt>
      <trkpt lat="43.72898" lon="6.57646">
        <ele>990</ele>
        <time>2010-09-05T13:19:14Z</time>
      </trkpt>
      <trkpt lat="43.72898" lon="6.57646">
        <ele>987</ele>
        <time>2010-09-05T13:19:16Z</time>
      </trkpt>
      <trkpt lat="43.72898" lon="6.57646">
        <ele>988</ele>
        <time>2010-09-05T13:19:17Z</time>
      </trkpt>
      <trkpt lat="43.72898" lon="6.57646">
        <ele>989</ele>
        <time>2010-09-05T13:19:20Z</time>
      </trkpt>
      <trkpt lat="43.72895" lon="6.5765">
        <ele>987</ele>
        <time>2010-09-05T13:19:28Z</time>
      </trkpt>
      <trkpt lat="43.72896" lon="6.5765">
        <ele>988</ele>
        <time>2010-09-05T13:19:30Z</time>
      </trkpt>
      <trkpt lat="43.72897" lon="6.57652">
        <ele>987</ele>
        <time>2010-09-05T13:19:34Z</time>
      </trkpt>
      <trkpt lat="43.72897" lon="6.57654">
        <ele>991</ele>
        <time>2010-09-05T13:19:36Z</time>
      </trkpt>
      <trkpt lat="43.72896" lon="6.57657">
        <ele>990</ele>
        <time>2010-09-05T13:19:39Z</time>
      </trkpt>
      <trkpt lat="43.72896" lon="6.5766">
        <ele>990</ele>
        <time>2010-09-05T13:19:41Z</time>
      </trkpt>
      <trkpt lat="43.72896" lon="6.57662">
        <ele>984</ele>
        <time>2010-09-05T13:19:45Z</time>
      </trkpt>
      <trkpt lat="43.72896" lon="6.57662">
        <ele>999</ele>
        <time>2010-09-05T13:19:46Z</time>
      </trkpt>
      <trkpt lat="43.72896" lon="6.57662">
        <ele>997</ele>
        <time>2010-09-05T13:19:47Z</time>
      </trkpt>
      <trkpt lat="43.72897" lon="6.57663">
        <ele>990</ele>
        <time>2010-09-05T13:19:48Z</time>
      </trkpt>
      <trkpt lat="43.72897" lon="6.57664">
        <ele>989</ele>
        <time>2010-09-05T13:19:49Z</time>
      </trkpt>
      <trkpt lat="43.72905" lon="6.5767">
        <ele>993</ele>
        <time>2010-09-05T13:19:58Z</time>
      </trkpt>
      <trkpt lat="43.72907" lon="6.57673">
        <ele>992</ele>
        <time>2010-09-05T13:20:01Z</time>
      </trkpt>
      <trkpt lat="43.72912" lon="6.57679">
        <ele>995</ele>
        <time>2010-09-05T13:20:11Z</time>
      </trkpt>
      <trkpt lat="43.72913" lon="6.5768">
        <ele>995</ele>
        <time>2010-09-05T13:20:12Z</time>
      </trkpt>
      <trkpt lat="43.72915" lon="6.57683">
        <ele>996</ele>
        <time>2010-09-05T13:20:16Z</time>
      </trkpt>
      <trkpt lat="43.72921" lon="6.57689">
        <ele>997</ele>
        <time>2010-09-05T13:20:24Z</time>
      </trkpt>
      <trkpt lat="43.72929" lon="6.57693">
        <ele>997</ele>
        <time>2010-09-05T13:20:33Z</time>
      </trkpt>
      <trkpt lat="43.72934" lon="6.57692">
        <ele>998</ele>
        <time>2010-09-05T13:20:38Z</time>
      </trkpt>
      <trkpt lat="43.72943" lon="6.57688">
        <ele>1000</ele>
        <time>2010-09-05T13:20:48Z</time>
      </trkpt>
      <trkpt lat="43.7295" lon="6.57675">
        <ele>1002</ele>
        <time>2010-09-05T13:21:00Z</time>
      </trkpt>
      <trkpt lat="43.7295" lon="6.57673">
        <ele>1001</ele>
        <time>2010-09-05T13:21:02Z</time>
      </trkpt>
      <trkpt lat="43.72951" lon="6.5767">
        <ele>1002</ele>
        <time>2010-09-05T13:21:04Z</time>
      </trkpt>
      <trkpt lat="43.72952" lon="6.57662">
        <ele>1004</ele>
        <time>2010-09-05T13:21:13Z</time>
      </trkpt>
      <trkpt lat="43.72957" lon="6.57653">
        <ele>1006</ele>
        <time>2010-09-05T13:21:23Z</time>
      </trkpt>
      <trkpt lat="43.72958" lon="6.57651">
        <ele>1007</ele>
        <time>2010-09-05T13:21:25Z</time>
      </trkpt>
      <trkpt lat="43.72958" lon="6.57647">
        <ele>1004</ele>
        <time>2010-09-05T13:21:28Z</time>
      </trkpt>
      <trkpt lat="43.72957" lon="6.57645">
        <ele>1008</ele>
        <time>2010-09-05T13:21:30Z</time>
      </trkpt>
      <trkpt lat="43.72957" lon="6.57644">
        <ele>1007</ele>
        <time>2010-09-05T13:21:31Z</time>
      </trkpt>
      <trkpt lat="43.72959" lon="6.57642">
        <ele>1007</ele>
        <time>2010-09-05T13:21:34Z</time>
      </trkpt>
      <trkpt lat="43.72959" lon="6.57639">
        <ele>1006</ele>
        <time>2010-09-05T13:21:36Z</time>
      </trkpt>
      <trkpt lat="43.72959" lon="6.57637">
        <ele>1010</ele>
        <time>2010-09-05T13:21:38Z</time>
      </trkpt>
      <trkpt lat="43.72959" lon="6.57636">
        <ele>1007</ele>
        <time>2010-09-05T13:21:39Z</time>
      </trkpt>
      <trkpt lat="43.72956" lon="6.57634">
        <ele>1010</ele>
        <time>2010-09-05T13:22:00Z</time>
      </trkpt>
      <trkpt lat="43.72955" lon="6.57631">
        <ele>1013</ele>
        <time>2010-09-05T13:22:47Z</time>
      </trkpt>
      <trkpt lat="43.72955" lon="6.5763">
        <ele>1010</ele>
        <time>2010-09-05T13:22:48Z</time>
      </trkpt>
      <trkpt lat="43.72957" lon="6.57621">
        <ele>1011</ele>
        <time>2010-09-05T13:22:58Z</time>
      </trkpt>
      <trkpt lat="43.72958" lon="6.57615">
        <ele>1012</ele>
        <time>2010-09-05T13:23:04Z</time>
      </trkpt>
      <trkpt lat="43.72955" lon="6.57608">
        <ele>1015</ele>
        <time>2010-09-05T13:23:13Z</time>
      </trkpt>
      <trkpt lat="43.72955" lon="6.57607">
        <ele>1011</ele>
        <time>2010-09-05T13:23:14Z</time>
      </trkpt>
      <trkpt lat="43.72953" lon="6.57607">
        <ele>1015</ele>
        <time>2010-09-05T13:23:16Z</time>
      </trkpt>
      <trkpt lat="43.7295" lon="6.57602">
        <ele>1016</ele>
        <time>2010-09-05T13:23:25Z</time>
      </trkpt>
      <trkpt lat="43.7295" lon="6.57601">
        <ele>1017</ele>
        <time>2010-09-05T13:23:26Z</time>
      </trkpt>
      <trkpt lat="43.72946" lon="6.5759">
        <ele>1017</ele>
        <time>2010-09-05T13:23:36Z</time>
      </trkpt>
      <trkpt lat="43.72947" lon="6.57581">
        <ele>1017</ele>
        <time>2010-09-05T13:23:44Z</time>
      </trkpt>
      <trkpt lat="43.7295" lon="6.57571">
        <ele>1019</ele>
        <time>2010-09-05T13:23:54Z</time>
      </trkpt>
      <trkpt lat="43.72949" lon="6.57567">
        <ele>1017</ele>
        <time>2010-09-05T13:23:57Z</time>
      </trkpt>
      <trkpt lat="43.72948" lon="6.5756">
        <ele>1019</ele>
        <time>2010-09-05T13:24:02Z</time>
      </trkpt>
      <trkpt lat="43.72947" lon="6.57545">
        <ele>1021</ele>
        <time>2010-09-05T13:24:15Z</time>
      </trkpt>
      <trkpt lat="43.72946" lon="6.57535">
        <ele>1021</ele>
        <time>2010-09-05T13:24:24Z</time>
      </trkpt>
      <trkpt lat="43.72946" lon="6.57524">
        <ele>1021</ele>
        <time>2010-09-05T13:24:33Z</time>
      </trkpt>
      <trkpt lat="43.72947" lon="6.57523">
        <ele>1021</ele>
        <time>2010-09-05T13:24:53Z</time>
      </trkpt>
      <trkpt lat="43.72948" lon="6.57518">
        <ele>1021</ele>
        <time>2010-09-05T13:25:02Z</time>
      </trkpt>
      <trkpt lat="43.72949" lon="6.57514">
        <ele>1022</ele>
        <time>2010-09-05T13:25:04Z</time>
      </trkpt>
      <trkpt lat="43.72949" lon="6.57508">
        <ele>1024</ele>
        <time>2010-09-05T13:25:08Z</time>
      </trkpt>
      <trkpt lat="43.72949" lon="6.57506">
        <ele>1020</ele>
        <time>2010-09-05T13:25:09Z</time>
      </trkpt>
      <trkpt lat="43.72949" lon="6.57505">
        <ele>1022</ele>
        <time>2010-09-05T13:25:10Z</time>
      </trkpt>
      <trkpt lat="43.72952" lon="6.57492">
        <ele>1026</ele>
        <time>2010-09-05T13:25:20Z</time>
      </trkpt>
      <trkpt lat="43.72952" lon="6.57486">
        <ele>1026</ele>
        <time>2010-09-05T13:25:24Z</time>
      </trkpt>
      <trkpt lat="43.72951" lon="6.57475">
        <ele>1027</ele>
        <time>2010-09-05T13:25:33Z</time>
      </trkpt>
      <trkpt lat="43.7295" lon="6.57472">
        <ele>1024</ele>
        <time>2010-09-05T13:25:36Z</time>
      </trkpt>
      <trkpt lat="43.72951" lon="6.5747">
        <ele>1027</ele>
        <time>2010-09-05T13:25:38Z</time>
      </trkpt>
      <trkpt lat="43.72954" lon="6.57463">
        <ele>1029</ele>
        <time>2010-09-05T13:25:52Z</time>
      </trkpt>
      <trkpt lat="43.72953" lon="6.57468">
        <ele>1031</ele>
        <time>2010-09-05T13:26:05Z</time>
      </trkpt>
      <trkpt lat="43.72958" lon="6.57462">
        <ele>1031</ele>
        <time>2010-09-05T13:26:24Z</time>
      </trkpt>
      <trkpt lat="43.72958" lon="6.57461">
        <ele>1033</ele>
        <time>2010-09-05T13:26:26Z</time>
      </trkpt>
      <trkpt lat="43.72958" lon="6.57452">
        <ele>1036</ele>
        <time>2010-09-05T13:26:40Z</time>
      </trkpt>
      <trkpt lat="43.72958" lon="6.57454">
        <ele>1035</ele>
        <time>2010-09-05T13:26:55Z</time>
      </trkpt>
      <trkpt lat="43.7296" lon="6.57462">
        <ele>1035</ele>
        <time>2010-09-05T13:27:09Z</time>
      </trkpt>
      <trkpt lat="43.72967" lon="6.5748">
        <ele>1036</ele>
        <time>2010-09-05T13:27:24Z</time>
      </trkpt>
      <trkpt lat="43.72967" lon="6.57484">
        <ele>1037</ele>
        <time>2010-09-05T13:27:28Z</time>
      </trkpt>
      <trkpt lat="43.72971" lon="6.57494">
        <ele>1035</ele>
        <time>2010-09-05T13:27:38Z</time>
      </trkpt>
      <trkpt lat="43.72975" lon="6.57499">
        <ele>1038</ele>
        <time>2010-09-05T13:27:43Z</time>
      </trkpt>
      <trkpt lat="43.72982" lon="6.57495">
        <ele>1037</ele>
        <time>2010-09-05T13:27:52Z</time>
      </trkpt>
      <trkpt lat="43.72983" lon="6.57493">
        <ele>1039</ele>
        <time>2010-09-05T13:27:54Z</time>
      </trkpt>
      <trkpt lat="43.72983" lon="6.57487">
        <ele>1040</ele>
        <time>2010-09-05T13:27:58Z</time>
      </trkpt>
      <trkpt lat="43.72982" lon="6.5748">
        <ele>1041</ele>
        <time>2010-09-05T13:28:04Z</time>
      </trkpt>
      <trkpt lat="43.72981" lon="6.57477">
        <ele>1039</ele>
        <time>2010-09-05T13:28:06Z</time>
      </trkpt>
      <trkpt lat="43.72981" lon="6.57472">
        <ele>1040</ele>
        <time>2010-09-05T13:28:10Z</time>
      </trkpt>
      <trkpt lat="43.72978" lon="6.57464">
        <ele>1040</ele>
        <time>2010-09-05T13:28:16Z</time>
      </trkpt>
      <trkpt lat="43.72977" lon="6.57459">
        <ele>1041</ele>
        <time>2010-09-05T13:28:20Z</time>
      </trkpt>
      <trkpt lat="43.72975" lon="6.57455">
        <ele>1041</ele>
        <time>2010-09-05T13:28:23Z</time>
      </trkpt>
      <trkpt lat="43.72974" lon="6.5745">
        <ele>1040</ele>
        <time>2010-09-05T13:28:27Z</time>
      </trkpt>
      <trkpt lat="43.72973" lon="6.57445">
        <ele>1040</ele>
        <time>2010-09-05T13:28:31Z</time>
      </trkpt>
      <trkpt lat="43.7297" lon="6.57431">
        <ele>1044</ele>
        <time>2010-09-05T13:28:43Z</time>
      </trkpt>
      <trkpt lat="43.72969" lon="6.57424">
        <ele>1043</ele>
        <time>2010-09-05T13:28:54Z</time>
      </trkpt>
      <trkpt lat="43.72968" lon="6.57413">
        <ele>1046</ele>
        <time>2010-09-05T13:29:10Z</time>
      </trkpt>
      <trkpt lat="43.72967" lon="6.57411">
        <ele>1045</ele>
        <time>2010-09-05T13:29:11Z</time>
      </trkpt>
      <trkpt lat="43.72967" lon="6.57401">
        <ele>1044</ele>
        <time>2010-09-05T13:29:24Z</time>
      </trkpt>
      <trkpt lat="43.72967" lon="6.57399">
        <ele>1046</ele>
        <time>2010-09-05T13:29:26Z</time>
      </trkpt>
      <trkpt lat="43.72968" lon="6.57395">
        <ele>1046</ele>
        <time>2010-09-05T13:29:30Z</time>
      </trkpt>
      <trkpt lat="43.72969" lon="6.57391">
        <ele>1047</ele>
        <time>2010-09-05T13:29:33Z</time>
      </trkpt>
      <trkpt lat="43.72969" lon="6.57373">
        <ele>1047</ele>
        <time>2010-09-05T13:29:46Z</time>
      </trkpt>
      <trkpt lat="43.72968" lon="6.57367">
        <ele>1048</ele>
        <time>2010-09-05T13:29:51Z</time>
      </trkpt>
      <trkpt lat="43.72967" lon="6.5736">
        <ele>1048</ele>
        <time>2010-09-05T13:30:06Z</time>
      </trkpt>
      <trkpt lat="43.72964" lon="6.57344">
        <ele>1049</ele>
        <time>2010-09-05T13:30:23Z</time>
      </trkpt>
      <trkpt lat="43.72963" lon="6.57328">
        <ele>1049</ele>
        <time>2010-09-05T13:30:34Z</time>
      </trkpt>
      <trkpt lat="43.72962" lon="6.57313">
        <ele>1050</ele>
        <time>2010-09-05T13:30:45Z</time>
      </trkpt>
      <trkpt lat="43.72964" lon="6.573">
        <ele>1051</ele>
        <time>2010-09-05T13:30:56Z</time>
      </trkpt>
      <trkpt lat="43.72965" lon="6.57295">
        <ele>1049</ele>
        <time>2010-09-05T13:31:14Z</time>
      </trkpt>
      <trkpt lat="43.72965" lon="6.57286">
        <ele>1053</ele>
        <time>2010-09-05T13:31:20Z</time>
      </trkpt>
      <trkpt lat="43.72965" lon="6.57284">
        <ele>1052</ele>
        <time>2010-09-05T13:31:21Z</time>
      </trkpt>
      <trkpt lat="43.72968" lon="6.57275">
        <ele>1054</ele>
        <time>2010-09-05T13:31:29Z</time>
      </trkpt>
      <trkpt lat="43.7297" lon="6.57265">
        <ele>1055</ele>
        <time>2010-09-05T13:31:37Z</time>
      </trkpt>
      <trkpt lat="43.72974" lon="6.57258">
        <ele>1056</ele>
        <time>2010-09-05T13:31:47Z</time>
      </trkpt>
      <trkpt lat="43.72975" lon="6.57249">
        <ele>1056</ele>
        <time>2010-09-05T13:31:59Z</time>
      </trkpt>
      <trkpt lat="43.72981" lon="6.57234">
        <ele>1056</ele>
        <time>2010-09-05T13:32:10Z</time>
      </trkpt>
      <trkpt lat="43.72981" lon="6.57227">
        <ele>1057</ele>
        <time>2010-09-05T13:32:16Z</time>
      </trkpt>
      <trkpt lat="43.72982" lon="6.5722">
        <ele>1060</ele>
        <time>2010-09-05T13:32:27Z</time>
      </trkpt>
      <trkpt lat="43.72982" lon="6.57218">
        <ele>1056</ele>
        <time>2010-09-05T13:32:28Z</time>
      </trkpt>
      <trkpt lat="43.72983" lon="6.57216">
        <ele>1060</ele>
        <time>2010-09-05T13:32:30Z</time>
      </trkpt>
      <trkpt lat="43.72979" lon="6.57202">
        <ele>1061</ele>
        <time>2010-09-05T13:32:53Z</time>
      </trkpt>
      <trkpt lat="43.72978" lon="6.57199">
        <ele>1058</ele>
        <time>2010-09-05T13:32:55Z</time>
      </trkpt>
      <trkpt lat="43.72977" lon="6.57198">
        <ele>1060</ele>
        <time>2010-09-05T13:32:56Z</time>
      </trkpt>
      <trkpt lat="43.72968" lon="6.57189">
        <ele>1057</ele>
        <time>2010-09-05T13:33:10Z</time>
      </trkpt>
      <trkpt lat="43.72967" lon="6.57188">
        <ele>1057</ele>
        <time>2010-09-05T13:33:11Z</time>
      </trkpt>
      <trkpt lat="43.72969" lon="6.57189">
        <ele>1062</ele>
        <time>2010-09-05T13:33:14Z</time>
      </trkpt>
      <trkpt lat="43.7297" lon="6.57193">
        <ele>1060</ele>
        <time>2010-09-05T13:33:17Z</time>
      </trkpt>
      <trkpt lat="43.72971" lon="6.57194">
        <ele>1063</ele>
        <time>2010-09-05T13:33:18Z</time>
      </trkpt>
      <trkpt lat="43.72972" lon="6.57195">
        <ele>1060</ele>
        <time>2010-09-05T13:33:19Z</time>
      </trkpt>
      <trkpt lat="43.72974" lon="6.57196">
        <ele>1060</ele>
        <time>2010-09-05T13:33:20Z</time>
      </trkpt>
      <trkpt lat="43.72982" lon="6.57202">
        <ele>1065</ele>
        <time>2010-09-05T13:33:22Z</time>
      </trkpt>
      <trkpt lat="43.72988" lon="6.57205">
        <ele>1064</ele>
        <time>2010-09-05T13:33:24Z</time>
      </trkpt>
      <trkpt lat="43.72992" lon="6.5721">
        <ele>1060</ele>
        <time>2010-09-05T13:33:28Z</time>
      </trkpt>
      <trkpt lat="43.72995" lon="6.57214">
        <ele>1064</ele>
        <time>2010-09-05T13:33:30Z</time>
      </trkpt>
      <trkpt lat="43.72995" lon="6.57215">
        <ele>1064</ele>
        <time>2010-09-05T13:33:31Z</time>
      </trkpt>
      <trkpt lat="43.73004" lon="6.57228">
        <ele>1066</ele>
        <time>2010-09-05T13:33:40Z</time>
      </trkpt>
      <trkpt lat="43.73002" lon="6.57244">
        <ele>1066</ele>
        <time>2010-09-05T13:33:51Z</time>
      </trkpt>
      <trkpt lat="43.72995" lon="6.57255">
        <ele>1066</ele>
        <time>2010-09-05T13:34:01Z</time>
      </trkpt>
      <trkpt lat="43.72995" lon="6.57267">
        <ele>1067</ele>
        <time>2010-09-05T13:34:12Z</time>
      </trkpt>
      <trkpt lat="43.72992" lon="6.57277">
        <ele>1066</ele>
        <time>2010-09-05T13:34:24Z</time>
      </trkpt>
      <trkpt lat="43.72991" lon="6.57285">
        <ele>1065</ele>
        <time>2010-09-05T13:34:36Z</time>
      </trkpt>
      <trkpt lat="43.72993" lon="6.57289">
        <ele>1067</ele>
        <time>2010-09-05T13:34:53Z</time>
      </trkpt>
      <trkpt lat="43.72999" lon="6.57299">
        <ele>1066</ele>
        <time>2010-09-05T13:35:06Z</time>
      </trkpt>
      <trkpt lat="43.73" lon="6.5731">
        <ele>1068</ele>
        <time>2010-09-05T13:35:20Z</time>
      </trkpt>
      <trkpt lat="43.73005" lon="6.57299">
        <ele>1071</ele>
        <time>2010-09-05T13:35:38Z</time>
      </trkpt>
      <trkpt lat="43.73006" lon="6.57293">
        <ele>1072</ele>
        <time>2010-09-05T13:36:00Z</time>
      </trkpt>
      <trkpt lat="43.73007" lon="6.57299">
        <ele>1072</ele>
        <time>2010-09-05T13:36:10Z</time>
      </trkpt>
      <trkpt lat="43.73008" lon="6.57306">
        <ele>1072</ele>
        <time>2010-09-05T13:36:22Z</time>
      </trkpt>
      <trkpt lat="43.73008" lon="6.57306">
        <ele>1068</ele>
        <time>2010-09-05T13:36:31Z</time>
      </trkpt>
      <trkpt lat="43.73009" lon="6.57306">
        <ele>1073</ele>
        <time>2010-09-05T13:36:32Z</time>
      </trkpt>
      <trkpt lat="43.7301" lon="6.57307">
        <ele>1068</ele>
        <time>2010-09-05T13:36:35Z</time>
      </trkpt>
      <trkpt lat="43.73011" lon="6.57306">
        <ele>1074</ele>
        <time>2010-09-05T13:36:36Z</time>
      </trkpt>
      <trkpt lat="43.73013" lon="6.57303">
        <ele>1073</ele>
        <time>2010-09-05T13:36:48Z</time>
      </trkpt>
      <trkpt lat="43.73013" lon="6.57303">
        <ele>1070</ele>
        <time>2010-09-05T13:36:49Z</time>
      </trkpt>
      <trkpt lat="43.73013" lon="6.57303">
        <ele>1074</ele>
        <time>2010-09-05T13:36:50Z</time>
      </trkpt>
      <trkpt lat="43.73012" lon="6.57293">
        <ele>1074</ele>
        <time>2010-09-05T13:36:58Z</time>
      </trkpt>
      <trkpt lat="43.73011" lon="6.57285">
        <ele>1076</ele>
        <time>2010-09-05T13:37:03Z</time>
      </trkpt>
      <trkpt lat="43.73011" lon="6.57271">
        <ele>1080</ele>
        <time>2010-09-05T13:37:20Z</time>
      </trkpt>
      <trkpt lat="43.73011" lon="6.5727">
        <ele>1076</ele>
        <time>2010-09-05T13:37:23Z</time>
      </trkpt>
      <trkpt lat="43.7302" lon="6.57265">
        <ele>1077</ele>
        <time>2010-09-05T13:37:46Z</time>
      </trkpt>
      <trkpt lat="43.73022" lon="6.57259">
        <ele>1076</ele>
        <time>2010-09-05T13:38:06Z</time>
      </trkpt>
      <trkpt lat="43.73023" lon="6.57247">
        <ele>1078</ele>
        <time>2010-09-05T13:38:16Z</time>
      </trkpt>
      <trkpt lat="43.73024" lon="6.57244">
        <ele>1079</ele>
        <time>2010-09-05T13:38:22Z</time>
      </trkpt>
      <trkpt lat="43.73024" lon="6.57228">
        <ele>1079</ele>
        <time>2010-09-05T13:38:33Z</time>
      </trkpt>
      <trkpt lat="43.73024" lon="6.57228">
        <ele>1079</ele>
        <time>2010-09-05T13:38:34Z</time>
      </trkpt>
      <trkpt lat="43.73024" lon="6.57228">
        <ele>1079</ele>
        <time>2010-09-05T13:38:48Z</time>
      </trkpt>
      <trkpt lat="43.7302" lon="6.57232">
        <ele>1078</ele>
        <time>2010-09-05T13:38:57Z</time>
      </trkpt>
      <trkpt lat="43.73019" lon="6.57243">
        <ele>1077</ele>
        <time>2010-09-05T13:39:03Z</time>
      </trkpt>
      <trkpt lat="43.73015" lon="6.57244">
        <ele>1076</ele>
        <time>2010-09-05T13:39:15Z</time>
      </trkpt>
      <trkpt lat="43.73014" lon="6.57242">
        <ele>1076</ele>
        <time>2010-09-05T13:39:16Z</time>
      </trkpt>
      <trkpt lat="43.73012" lon="6.57226">
        <ele>1076</ele>
        <time>2010-09-05T13:39:28Z</time>
      </trkpt>
      <trkpt lat="43.73012" lon="6.57223">
        <ele>1076</ele>
        <time>2010-09-05T13:39:30Z</time>
      </trkpt>
      <trkpt lat="43.73013" lon="6.57212">
        <ele>1075</ele>
        <time>2010-09-05T13:39:38Z</time>
      </trkpt>
      <trkpt lat="43.73019" lon="6.57205">
        <ele>1075</ele>
        <time>2010-09-05T13:39:44Z</time>
      </trkpt>
      <trkpt lat="43.73018" lon="6.57191">
        <ele>1073</ele>
        <time>2010-09-05T13:39:56Z</time>
      </trkpt>
      <trkpt lat="43.7302" lon="6.57187">
        <ele>1073</ele>
        <time>2010-09-05T13:40:00Z</time>
      </trkpt>
      <trkpt lat="43.73023" lon="6.57174">
        <ele>1073</ele>
        <time>2010-09-05T13:40:09Z</time>
      </trkpt>
      <trkpt lat="43.73025" lon="6.57164">
        <ele>1072</ele>
        <time>2010-09-05T13:40:17Z</time>
      </trkpt>
      <trkpt lat="43.73028" lon="6.57153">
        <ele>1074</ele>
        <time>2010-09-05T13:40:26Z</time>
      </trkpt>
      <trkpt lat="43.7303" lon="6.57141">
        <ele>1073</ele>
        <time>2010-09-05T13:40:37Z</time>
      </trkpt>
      <trkpt lat="43.73032" lon="6.57131">
        <ele>1072</ele>
        <time>2010-09-05T13:40:44Z</time>
      </trkpt>
      <trkpt lat="43.73037" lon="6.57114">
        <ele>1072</ele>
        <time>2010-09-05T13:40:55Z</time>
      </trkpt>
      <trkpt lat="43.7304" lon="6.57105">
        <ele>1071</ele>
        <time>2010-09-05T13:41:03Z</time>
      </trkpt>
      <trkpt lat="43.73043" lon="6.57099">
        <ele>1073</ele>
        <time>2010-09-05T13:41:10Z</time>
      </trkpt>
      <trkpt lat="43.7305" lon="6.57089">
        <ele>1074</ele>
        <time>2010-09-05T13:41:23Z</time>
      </trkpt>
      <trkpt lat="43.73053" lon="6.57082">
        <ele>1074</ele>
        <time>2010-09-05T13:41:29Z</time>
      </trkpt>
      <trkpt lat="43.73058" lon="6.57077">
        <ele>1074</ele>
        <time>2010-09-05T13:41:48Z</time>
      </trkpt>
      <trkpt lat="43.73063" lon="6.57069">
        <ele>1074</ele>
        <time>2010-09-05T13:41:57Z</time>
      </trkpt>
      <trkpt lat="43.73069" lon="6.57068">
        <ele>1079</ele>
        <time>2010-09-05T13:42:09Z</time>
      </trkpt>
      <trkpt lat="43.73069" lon="6.57068">
        <ele>1076</ele>
        <time>2010-09-05T13:42:10Z</time>
      </trkpt>
      <trkpt lat="43.73062" lon="6.57072">
        <ele>1074</ele>
        <time>2010-09-05T13:43:14Z</time>
      </trkpt>
      <trkpt lat="43.7306" lon="6.57077">
        <ele>1074</ele>
        <time>2010-09-05T13:43:18Z</time>
      </trkpt>
      <trkpt lat="43.73049" lon="6.57095">
        <ele>1074</ele>
        <time>2010-09-05T13:43:33Z</time>
      </trkpt>
      <trkpt lat="43.73042" lon="6.57102">
        <ele>1072</ele>
        <time>2010-09-05T13:43:42Z</time>
      </trkpt>
      <trkpt lat="43.73041" lon="6.57103">
        <ele>1072</ele>
        <time>2010-09-05T13:43:43Z</time>
      </trkpt>
      <trkpt lat="43.73034" lon="6.57116">
        <ele>1072</ele>
        <time>2010-09-05T13:43:59Z</time>
      </trkpt>
      <trkpt lat="43.73033" lon="6.57116">
        <ele>1072</ele>
        <time>2010-09-05T13:44:07Z</time>
      </trkpt>
      <trkpt lat="43.73025" lon="6.57124">
        <ele>1070</ele>
        <time>2010-09-05T13:44:17Z</time>
      </trkpt>
      <trkpt lat="43.73018" lon="6.57133">
        <ele>1069</ele>
        <time>2010-09-05T13:44:30Z</time>
      </trkpt>
      <trkpt lat="43.73013" lon="6.57138">
        <ele>1068</ele>
        <time>2010-09-05T13:44:53Z</time>
      </trkpt>
      <trkpt lat="43.73011" lon="6.57142">
        <ele>1068</ele>
        <time>2010-09-05T13:44:56Z</time>
      </trkpt>
      <trkpt lat="43.73002" lon="6.57157">
        <ele>1067</ele>
        <time>2010-09-05T13:45:10Z</time>
      </trkpt>
      <trkpt lat="43.73" lon="6.57162">
        <ele>1065</ele>
        <time>2010-09-05T13:45:14Z</time>
      </trkpt>
      <trkpt lat="43.72997" lon="6.57168">
        <ele>1065</ele>
        <time>2010-09-05T13:45:20Z</time>
      </trkpt>
      <trkpt lat="43.72998" lon="6.57176">
        <ele>1065</ele>
        <time>2010-09-05T13:45:26Z</time>
      </trkpt>
      <trkpt lat="43.72997" lon="6.57192">
        <ele>1064</ele>
        <time>2010-09-05T13:45:38Z</time>
      </trkpt>
      <trkpt lat="43.72996" lon="6.57202">
        <ele>1065</ele>
        <time>2010-09-05T13:45:43Z</time>
      </trkpt>
      <trkpt lat="43.72996" lon="6.5721">
        <ele>1064</ele>
        <time>2010-09-05T13:45:48Z</time>
      </trkpt>
      <trkpt lat="43.72992" lon="6.57222">
        <ele>1064</ele>
        <time>2010-09-05T13:46:00Z</time>
      </trkpt>
      <trkpt lat="43.7299" lon="6.57203">
        <ele>1062</ele>
        <time>2010-09-05T13:46:14Z</time>
      </trkpt>
      <trkpt lat="43.72988" lon="6.57188">
        <ele>1060</ele>
        <time>2010-09-05T13:46:27Z</time>
      </trkpt>
      <trkpt lat="43.72985" lon="6.57175">
        <ele>1058</ele>
        <time>2010-09-05T13:46:41Z</time>
      </trkpt>
      <trkpt lat="43.72986" lon="6.57166">
        <ele>1058</ele>
        <time>2010-09-05T13:46:52Z</time>
      </trkpt>
      <trkpt lat="43.72986" lon="6.57163">
        <ele>1058</ele>
        <time>2010-09-05T13:47:01Z</time>
      </trkpt>
      <trkpt lat="43.7299" lon="6.57146">
        <ele>1056</ele>
        <time>2010-09-05T13:47:13Z</time>
      </trkpt>
      <trkpt lat="43.72993" lon="6.57122">
        <ele>1058</ele>
        <time>2010-09-05T13:47:29Z</time>
      </trkpt>
      <trkpt lat="43.72997" lon="6.57111">
        <ele>1058</ele>
        <time>2010-09-05T13:47:42Z</time>
      </trkpt>
      <trkpt lat="43.72999" lon="6.57103">
        <ele>1059</ele>
        <time>2010-09-05T13:47:52Z</time>
      </trkpt>
      <trkpt lat="43.73003" lon="6.57102">
        <ele>1060</ele>
        <time>2010-09-05T13:48:11Z</time>
      </trkpt>
      <trkpt lat="43.73001" lon="6.57106">
        <ele>1058</ele>
        <time>2010-09-05T13:48:23Z</time>
      </trkpt>
      <trkpt lat="43.73" lon="6.57104">
        <ele>1060</ele>
        <time>2010-09-05T13:49:00Z</time>
      </trkpt>
      <trkpt lat="43.73" lon="6.57101">
        <ele>1060</ele>
        <time>2010-09-05T13:49:35Z</time>
      </trkpt>
      <trkpt lat="43.73002" lon="6.57101">
        <ele>1060</ele>
        <time>2010-09-05T13:49:50Z</time>
      </trkpt>
      <trkpt lat="43.73002" lon="6.57101">
        <ele>1063</ele>
        <time>2010-09-05T13:50:13Z</time>
      </trkpt>
      <trkpt lat="43.73002" lon="6.57101">
        <ele>1060</ele>
        <time>2010-09-05T13:50:18Z</time>
      </trkpt>
    </trkseg>
  </trk>
</gpx>